Darstellungsparameter: Aktuell verwendete Einstellungen:
Skalierung der Graphiken ... ?
xyx+y,   Skalierungsfaktor:      Skalierung: Modus: x, Faktor: 1
Darstellungszeitraum ... ?
Vom - - bis: - -   Zeitraum: 08.07.2016 - 07.08.2016
Min/Max/Avg-Anzeige ... ?
Zeige MMA aktuell
Zeige MMA Monat
Zeige MMA alles
Zeige --A aktuell
Zeige --A Monat
Zeige --A alles
Keine MMA-Anzeige
MMA:
Keine MMA-Graphiken
MMA-Basis: 08.07.2016 - 07.08.2016
Quicknavigation für Darstellung... ?
Tage:      1T, 2T, 3T, 5T -1T -2T -3T -5T +1T +2T +3T +5T
Wochen: 1W, 2W, 3W -1W -2W -3W +1W +2W +3W
Monate: 1M, 3M, 6M -1M -3M -6M +1M +3M +6M
Jahre:    1J, 3J, 5J, 10J -1J -3J -5J -10J +1J +3J +5J +10J
Nutze für die Darstellung ... ?
Originaldaten oder Mittelwerte auf ...
Stundenbasis Tagesbasis Wochenbasis
Monatsbasis Jahresbasis      Datenbasis: Original-Daten
Darstellen als:
Statistik (Auto) Statistik J:M      Darstellung:
Zur Graphik,    zurück zur Übersicht aller Sensoren.
 
Tabellarische Datenbersicht: ?
 
Sensor: Nr:Datum:Temp:Feuchte:Taupunkt:
Aussen-T/F 1 08-07-2016 00:00:00 15.3 C 88 % 13.33 C
2 08-07-2016 00:05:00 15.2 C 87 % 13.05 C
3 08-07-2016 00:10:00 15.1 C 88 % 13.13 C
4 08-07-2016 00:15:00 14.9 C 88 % 12.93 C
5 08-07-2016 00:20:00 14.8 C 88 % 12.83 C
6 08-07-2016 00:25:00 14.8 C 88 % 12.83 C
7 08-07-2016 00:30:00 14.7 C 89 % 12.91 C
8 08-07-2016 00:35:00 14.6 C 89 % 12.81 C
9 08-07-2016 00:40:00 14.5 C 89 % 12.71 C
10 08-07-2016 00:45:00 14.4 C 89 % 12.61 C
11 08-07-2016 00:50:00 14.3 C 89 % 12.51 C
12 08-07-2016 00:55:00 14.3 C 89 % 12.51 C
13 08-07-2016 01:00:00 14.3 C 89 % 12.51 C
14 08-07-2016 01:05:00 14.2 C 89 % 12.41 C
15 08-07-2016 01:10:00 14.2 C 89 % 12.41 C
16 08-07-2016 01:15:00 14.1 C 89 % 12.32 C
17 08-07-2016 01:20:00 14 C 89 % 12.22 C
18 08-07-2016 01:25:00 13.9 C 89 % 12.12 C
19 08-07-2016 01:30:00 13.8 C 89 % 12.02 C
20 08-07-2016 01:35:00 13.8 C 89 % 12.02 C
21 08-07-2016 01:40:00 13.8 C 90 % 12.19 C
22 08-07-2016 01:45:00 13.8 C 90 % 12.19 C
23 08-07-2016 01:50:00 13.8 C 90 % 12.19 C
24 08-07-2016 01:55:00 13.9 C 90 % 12.29 C
25 08-07-2016 02:00:00 13.8 C 90 % 12.19 C
Sensor: Nr:Datum:Temp:Feuchte:Taupunkt:
Aussen-T/F 26 08-07-2016 02:05:00 13.8 C 90 % 12.19 C
27 08-07-2016 02:10:00 13.8 C 91 % 12.36 C
28 08-07-2016 02:15:00 13.9 C 91 % 12.46 C
29 08-07-2016 02:20:00 13.9 C 92 % 12.62 C
30 08-07-2016 02:25:00 14 C 92 % 12.72 C
31 08-07-2016 02:30:00 14 C 91 % 12.56 C
32 08-07-2016 02:35:00 13.9 C 91 % 12.46 C
33 08-07-2016 02:40:00 13.9 C 91 % 12.46 C
34 08-07-2016 02:45:00 13.8 C 92 % 12.52 C
35 08-07-2016 02:50:00 13.7 C 91 % 12.26 C
36 08-07-2016 02:55:00 13.6 C 91 % 12.16 C
37 08-07-2016 03:00:00 13.5 C 92 % 12.23 C
38 08-07-2016 03:05:00 13.4 C 91 % 11.96 C
39 08-07-2016 03:10:00 13.2 C 91 % 11.76 C
40 08-07-2016 03:15:00 13.1 C 92 % 11.83 C
41 08-07-2016 03:20:00 13.1 C 92 % 11.83 C
42 08-07-2016 03:25:00 13.1 C 92 % 11.83 C
43 08-07-2016 03:30:00 13 C 92 % 11.73 C
44 08-07-2016 03:35:00 12.9 C 92 % 11.63 C
45 08-07-2016 03:40:00 12.9 C 92 % 11.63 C
46 08-07-2016 03:45:00 12.8 C 92 % 11.53 C
47 08-07-2016 03:50:00 12.9 C 93 % 11.8 C
48 08-07-2016 03:55:00 12.9 C 93 % 11.8 C
49 08-07-2016 04:00:00 12.8 C 93 % 11.7 C
50 08-07-2016 04:05:00 12.8 C 93 % 11.7 C
Sensor: Nr:Datum:Temp:Feuchte:Taupunkt:
Aussen-T/F 51 08-07-2016 04:10:00 12.8 C 93 % 11.7 C
52 08-07-2016 04:15:00 12.8 C 93 % 11.7 C
53 08-07-2016 04:20:00 12.8 C 93 % 11.7 C
54 08-07-2016 04:25:00 12.8 C 93 % 11.7 C
55 08-07-2016 04:30:00 12.8 C 93 % 11.7 C
56 08-07-2016 04:35:00 12.8 C 93 % 11.7 C
57 08-07-2016 04:40:00 12.9 C 94 % 11.96 C
58 08-07-2016 04:45:00 12.9 C 94 % 11.96 C
59 08-07-2016 04:50:00 12.9 C 93 % 11.8 C
60 08-07-2016 04:55:00 12.8 C 93 % 11.7 C
61 08-07-2016 05:00:00 12.7 C 93 % 11.6 C
62 08-07-2016 05:05:00 12.7 C 94 % 11.76 C
63 08-07-2016 05:10:00 12.8 C 93 % 11.7 C
64 08-07-2016 05:15:00 12.7 C 93 % 11.6 C
65 08-07-2016 05:20:00 12.7 C 93 % 11.6 C
66 08-07-2016 05:25:00 12.6 C 93 % 11.5 C
67 08-07-2016 05:30:00 12.6 C 93 % 11.5 C
68 08-07-2016 05:35:00 12.5 C 93 % 11.4 C
69 08-07-2016 05:40:00 12.5 C 94 % 11.56 C
70 08-07-2016 05:45:00 12.5 C 94 % 11.56 C
71 08-07-2016 05:50:00 12.4 C 94 % 11.46 C
72 08-07-2016 05:55:00 12.5 C 94 % 11.56 C
73 08-07-2016 06:00:00 12.6 C 94 % 11.66 C
74 08-07-2016 06:05:00 12.7 C 94 % 11.76 C
75 08-07-2016 06:10:00 12.7 C 94 % 11.76 C
Sensor: Nr:Datum:Temp:Feuchte:Taupunkt:
Aussen-T/F 76 08-07-2016 06:15:00 12.7 C 94 % 11.76 C
77 08-07-2016 06:20:00 12.7 C 94 % 11.76 C
78 08-07-2016 06:25:00 12.7 C 94 % 11.76 C
79 08-07-2016 06:30:00 12.8 C 95 % 12.02 C
80 08-07-2016 06:35:00 12.9 C 95 % 12.12 C
81 08-07-2016 06:40:00 12.9 C 95 % 12.12 C
82 08-07-2016 06:45:00 13 C 94 % 12.06 C
83 08-07-2016 06:50:00 13 C 94 % 12.06 C
84 08-07-2016 06:55:00 13 C 94 % 12.06 C
85 08-07-2016 07:00:00 13 C 94 % 12.06 C
86 08-07-2016 07:05:00 13 C 94 % 12.06 C
87 08-07-2016 07:10:00 12.9 C 94 % 11.96 C
88 08-07-2016 07:15:00 13 C 94 % 12.06 C
89 08-07-2016 07:20:00 13 C 94 % 12.06 C
90 08-07-2016 07:25:00 13.1 C 94 % 12.16 C
91 08-07-2016 07:30:00 13.1 C 94 % 12.16 C
92 08-07-2016 07:35:00 13.2 C 94 % 12.26 C
93 08-07-2016 07:40:00 13.2 C 94 % 12.26 C
94 08-07-2016 07:45:00 13.3 C 94 % 12.36 C
95 08-07-2016 07:50:00 13.3 C 94 % 12.36 C
96 08-07-2016 07:55:00 13.4 C 94 % 12.45 C
97 08-07-2016 08:00:00 13.6 C 94 % 12.65 C
98 08-07-2016 08:05:00 13.7 C 94 % 12.75 C
99 08-07-2016 08:10:00 13.8 C 94 % 12.85 C
100 08-07-2016 08:15:00 13.9 C 94 % 12.95 C
Sensor: Nr:Datum:Temp:Feuchte:Taupunkt:
Aussen-T/F 101 08-07-2016 08:20:00 14.1 C 94 % 13.15 C
102 08-07-2016 08:25:00 14.3 C 94 % 13.35 C
103 08-07-2016 08:30:00 14.4 C 94 % 13.45 C
104 08-07-2016 08:35:00 14.6 C 93 % 13.48 C
105 08-07-2016 08:40:00 14.8 C 93 % 13.68 C
106 08-07-2016 08:45:00 14.9 C 93 % 13.78 C
107 08-07-2016 08:50:00 15.1 C 93 % 13.98 C
108 08-07-2016 08:55:00 15.2 C 92 % 13.91 C
109 08-07-2016 09:00:00 15.4 C 91 % 13.94 C
110 08-07-2016 09:05:00 15.6 C 91 % 14.14 C
111 08-07-2016 09:10:00 15.7 C 91 % 14.24 C
112 08-07-2016 09:15:00 15.8 C 91 % 14.33 C
113 08-07-2016 09:20:00 15.9 C 91 % 14.43 C
114 08-07-2016 09:25:00 16 C 91 % 14.53 C
115 08-07-2016 09:30:00 16.2 C 91 % 14.73 C
116 08-07-2016 09:35:00 16.3 C 91 % 14.83 C
117 08-07-2016 09:40:00 16.4 C 91 % 14.93 C
118 08-07-2016 09:45:00 16.6 C 91 % 15.13 C
119 08-07-2016 09:50:00 16.8 C 91 % 15.32 C
120 08-07-2016 09:55:00 17.1 C 91 % 15.62 C
121 08-07-2016 10:00:00 17.3 C 91 % 15.82 C
122 08-07-2016 10:05:00 17.6 C 90 % 15.94 C
123 08-07-2016 10:10:00 17.8 C 90 % 16.14 C
124 08-07-2016 10:15:00 18.2 C 89 % 16.36 C
125 08-07-2016 10:20:00 18.5 C 89 % 16.65 C
Sensor: Nr:Datum:Temp:Feuchte:Taupunkt:
Aussen-T/F 126 08-07-2016 10:25:00 18.8 C 89 % 16.95 C
127 08-07-2016 10:30:00 19.1 C 88 % 17.07 C
128 08-07-2016 10:35:00 19.4 C 88 % 17.36 C
129 08-07-2016 10:40:00 19.8 C 87 % 17.57 C
130 08-07-2016 10:45:00 20.2 C 83 % 17.22 C
131 08-07-2016 10:50:00 20.7 C 80 % 17.13 C
132 08-07-2016 10:55:00 21 C 81 % 17.61 C
133 08-07-2016 11:00:00 21.2 C 78 % 17.21 C
134 08-07-2016 11:05:00 21.4 C 73 % 16.36 C
135 08-07-2016 11:10:00 21.7 C 71 % 16.21 C
136 08-07-2016 11:15:00 22 C 73 % 16.94 C
137 08-07-2016 11:20:00 22.2 C 71 % 16.69 C
138 08-07-2016 11:25:00 22.4 C 66 % 15.74 C
139 08-07-2016 11:30:00 22.7 C 71 % 17.17 C
140 08-07-2016 11:35:00 22.9 C 69 % 16.91 C
141 08-07-2016 11:40:00 23.1 C 67 % 16.64 C
142 08-07-2016 11:45:00 23.2 C 69 % 17.2 C
143 08-07-2016 11:50:00 23.3 C 69 % 17.29 C
144 08-07-2016 11:55:00 23.2 C 67 % 16.73 C
145 08-07-2016 12:00:00 23.2 C 66 % 16.5 C
146 08-07-2016 12:05:00 23.2 C 67 % 16.73 C
147 08-07-2016 12:10:00 23.3 C 68 % 17.06 C
148 08-07-2016 12:15:00 23.4 C 68 % 17.16 C
149 08-07-2016 12:20:00 23.5 C 65 % 16.54 C
150 08-07-2016 12:25:00 23.8 C 68 % 17.54 C
Sensor: Nr:Datum:Temp:Feuchte:Taupunkt:
Aussen-T/F 151 08-07-2016 12:30:00 24.1 C 62 % 16.37 C
152 08-07-2016 12:35:00 24.4 C 62 % 16.65 C
153 08-07-2016 12:40:00 24.6 C 60 % 16.32 C
154 08-07-2016 12:45:00 24.8 C 60 % 16.51 C
155 08-07-2016 12:50:00 25 C 64 % 17.72 C
156 08-07-2016 12:55:00 25.1 C 63 % 17.56 C
157 08-07-2016 13:00:00 25.1 C 63 % 17.56 C
158 08-07-2016 13:05:00 25.2 C 61 % 17.14 C
159 08-07-2016 13:10:00 25.2 C 60 % 16.88 C
160 08-07-2016 13:15:00 25.3 C 62 % 17.5 C
161 08-07-2016 13:20:00 25.4 C 64 % 18.09 C
162 08-07-2016 13:25:00 25.3 C 64 % 18 C
163 08-07-2016 13:30:00 25.3 C 67 % 18.73 C
164 08-07-2016 13:35:00 25.2 C 61 % 17.14 C
165 08-07-2016 13:40:00 25.2 C 68 % 18.87 C
166 08-07-2016 13:45:00 25.2 C 68 % 18.87 C
167 08-07-2016 13:50:00 25.2 C 64 % 17.9 C
168 08-07-2016 13:55:00 25.4 C 59 % 16.81 C
169 08-07-2016 14:00:00 25.6 C 68 % 19.25 C
170 08-07-2016 14:05:00 25.7 C 63 % 18.13 C
171 08-07-2016 14:10:00 25.9 C 62 % 18.06 C
172 08-07-2016 14:15:00 26.1 C 57 % 16.92 C
173 08-07-2016 14:20:00 26.2 C 54 % 16.16 C
174 08-07-2016 14:25:00 26.2 C 58 % 17.28 C
175 08-07-2016 14:30:00 26.1 C 56 % 16.64 C
Sensor: Nr:Datum:Temp:Feuchte:Taupunkt:
Aussen-T/F 176 08-07-2016 14:35:00 26 C 56 % 16.54 C
177 08-07-2016 14:40:00 25.9 C 59 % 17.27 C
178 08-07-2016 14:45:00 25.8 C 54 % 15.79 C
179 08-07-2016 14:50:00 25.7 C 60 % 17.35 C
180 08-07-2016 14:55:00 25.4 C 59 % 16.81 C
181 08-07-2016 15:00:00 25.3 C 62 % 17.5 C
182 08-07-2016 15:05:00 25.1 C 64 % 17.81 C
183 08-07-2016 15:10:00 24.8 C 65 % 17.77 C
184 08-07-2016 15:15:00 24.6 C 67 % 18.06 C
185 08-07-2016 15:20:00 24.4 C 68 % 18.11 C
186 08-07-2016 15:25:00 24.4 C 62 % 16.65 C
187 08-07-2016 15:30:00 24.4 C 62 % 16.65 C
188 08-07-2016 15:35:00 24.4 C 65 % 17.39 C
189 08-07-2016 15:40:00 24.3 C 66 % 17.54 C
190 08-07-2016 15:45:00 24.1 C 69 % 18.06 C
191 08-07-2016 15:50:00 23.7 C 65 % 16.73 C
192 08-07-2016 15:55:00 23.5 C 66 % 16.78 C
193 08-07-2016 16:00:00 23.4 C 67 % 16.92 C
194 08-07-2016 16:05:00 23.3 C 70 % 17.52 C
195 08-07-2016 16:10:00 23.3 C 67 % 16.83 C
196 08-07-2016 16:15:00 23.3 C 65 % 16.35 C
197 08-07-2016 16:20:00 23.4 C 68 % 17.16 C
198 08-07-2016 16:25:00 23.5 C 69 % 17.48 C
199 08-07-2016 16:30:00 23.6 C 67 % 17.11 C
200 08-07-2016 16:35:00 23.7 C 67 % 17.21 C
Sensor: Nr:Datum:Temp:Feuchte:Taupunkt:
Aussen-T/F 201 08-07-2016 16:40:00 23.7 C 67 % 17.21 C
202 08-07-2016 16:45:00 23.7 C 64 % 16.49 C
203 08-07-2016 16:50:00 23.7 C 68 % 17.44 C
204 08-07-2016 16:55:00 23.6 C 69 % 17.58 C
205 08-07-2016 17:00:00 23.4 C 70 % 17.62 C
206 08-07-2016 17:05:00 23.3 C 68 % 17.06 C
207 08-07-2016 17:10:00 23.4 C 73 % 18.28 C
208 08-07-2016 17:15:00 23.6 C 73 % 18.48 C
209 08-07-2016 17:20:00 23.9 C 71 % 18.32 C
210 08-07-2016 17:25:00 24.1 C 68 % 17.82 C
211 08-07-2016 17:30:00 24.2 C 68 % 17.92 C
212 08-07-2016 17:35:00 24.1 C 70 % 18.29 C
213 08-07-2016 17:40:00 23.8 C 70 % 18 C
214 08-07-2016 17:45:00 23.4 C 71 % 17.84 C
215 08-07-2016 17:50:00 23.2 C 72 % 17.87 C
216 08-07-2016 17:55:00 23 C 75 % 18.33 C
217 08-07-2016 18:00:00 22.8 C 75 % 18.14 C
218 08-07-2016 18:05:00 22.6 C 75 % 17.94 C
219 08-07-2016 18:10:00 22.4 C 77 % 18.17 C
220 08-07-2016 18:15:00 22.3 C 77 % 18.07 C
221 08-07-2016 18:20:00 22.2 C 76 % 17.77 C
222 08-07-2016 18:25:00 22.2 C 77 % 17.98 C
223 08-07-2016 18:30:00 22.1 C 77 % 17.88 C
224 08-07-2016 18:35:00 22.1 C 76 % 17.67 C
225 08-07-2016 18:40:00 22.1 C 76 % 17.67 C
Sensor: Nr:Datum:Temp:Feuchte:Taupunkt:
Aussen-T/F 226 08-07-2016 18:45:00 22.1 C 77 % 17.88 C
227 08-07-2016 18:50:00 22.1 C 76 % 17.67 C
228 08-07-2016 18:55:00 22.1 C 77 % 17.88 C
229 08-07-2016 19:00:00 22.1 C 77 % 17.88 C
230 08-07-2016 19:05:00 22.2 C 79 % 18.38 C
231 08-07-2016 19:10:00 22.2 C 79 % 18.38 C
232 08-07-2016 19:15:00 22.3 C 78 % 18.28 C
233 08-07-2016 19:20:00 22.3 C 78 % 18.28 C
234 08-07-2016 19:25:00 22.4 C 79 % 18.58 C
235 08-07-2016 19:30:00 22.4 C 78 % 18.37 C
236 08-07-2016 19:35:00 22.3 C 77 % 18.07 C
237 08-07-2016 19:40:00 22.3 C 77 % 18.07 C
238 08-07-2016 19:45:00 22.3 C 77 % 18.07 C
239 08-07-2016 19:50:00 22.2 C 77 % 17.98 C
240 08-07-2016 19:55:00 22.2 C 77 % 17.98 C
241 08-07-2016 20:00:00 22.2 C 78 % 18.18 C
242 08-07-2016 20:05:00 22.2 C 78 % 18.18 C
243 08-07-2016 20:10:00 22.1 C 78 % 18.08 C
244 08-07-2016 20:15:00 22.1 C 78 % 18.08 C
245 08-07-2016 20:20:00 22 C 78 % 17.99 C
246 08-07-2016 20:25:00 21.9 C 79 % 18.09 C
247 08-07-2016 20:30:00 22.1 C 79 % 18.29 C
248 08-07-2016 20:35:00 22.2 C 79 % 18.38 C
249 08-07-2016 20:40:00 22.2 C 78 % 18.18 C
250 08-07-2016 20:45:00 22.2 C 77 % 17.98 C
Sensor: Nr:Datum:Temp:Feuchte:Taupunkt:
Aussen-T/F 251 08-07-2016 20:50:00 22.1 C 77 % 17.88 C
252 08-07-2016 20:55:00 21.9 C 77 % 17.68 C
253 08-07-2016 21:00:00 21.8 C 78 % 17.79 C
254 08-07-2016 21:05:00 21.7 C 78 % 17.7 C
255 08-07-2016 21:10:00 21.6 C 77 % 17.39 C
256 08-07-2016 21:15:00 21.6 C 78 % 17.6 C
257 08-07-2016 21:20:00 21.5 C 78 % 17.5 C
258 08-07-2016 21:25:00 21.4 C 76 % 16.99 C
259 08-07-2016 21:30:00 21.3 C 78 % 17.31 C
260 08-07-2016 21:35:00 21.2 C 77 % 17.01 C
261 08-07-2016 21:40:00 21.1 C 75 % 16.5 C
262 08-07-2016 21:45:00 21.1 C 75 % 16.5 C
263 08-07-2016 21:50:00 21 C 76 % 16.61 C
264 08-07-2016 21:55:00 20.9 C 77 % 16.72 C
265 08-07-2016 22:00:00 20.8 C 78 % 16.82 C
266 08-07-2016 22:05:00 20.6 C 78 % 16.63 C
267 08-07-2016 22:10:00 20.3 C 79 % 16.54 C
268 08-07-2016 22:15:00 20.2 C 79 % 16.44 C
269 08-07-2016 22:20:00 20 C 80 % 16.44 C
270 08-07-2016 22:25:00 19.8 C 79 % 16.05 C
271 08-07-2016 22:30:00 19.9 C 79 % 16.15 C
272 08-07-2016 22:35:00 19.9 C 80 % 16.35 C
273 08-07-2016 22:40:00 19.8 C 80 % 16.25 C
274 08-07-2016 22:45:00 19.7 C 79 % 15.96 C
275 08-07-2016 22:50:00 19.8 C 80 % 16.25 C
Sensor: Nr:Datum:Temp:Feuchte:Taupunkt:
Aussen-T/F 276 08-07-2016 22:55:00 19.8 C 79 % 16.05 C
277 08-07-2016 23:00:00 19.8 C 80 % 16.25 C
278 08-07-2016 23:05:00 19.7 C 80 % 16.15 C
279 08-07-2016 23:10:00 19.5 C 81 % 16.15 C
280 08-07-2016 23:15:00 19.3 C 81 % 15.96 C
281 08-07-2016 23:20:00 19.3 C 82 % 16.15 C
282 08-07-2016 23:25:00 19.2 C 82 % 16.05 C
283 08-07-2016 23:30:00 19.2 C 82 % 16.05 C
284 08-07-2016 23:35:00 19.1 C 83 % 16.15 C
285 08-07-2016 23:40:00 19 C 83 % 16.05 C
286 08-07-2016 23:45:00 18.9 C 83 % 15.95 C
287 08-07-2016 23:50:00 18.9 C 83 % 15.95 C
288 08-07-2016 23:55:00 18.8 C 83 % 15.85 C
289 09-07-2016 00:00:00 18.8 C 83 % 15.85 C
290 09-07-2016 00:05:00 18.7 C 83 % 15.75 C
291 09-07-2016 00:10:00 18.7 C 84 % 15.94 C
292 09-07-2016 00:15:00 18.7 C 84 % 15.94 C
293 09-07-2016 00:20:00 18.7 C 84 % 15.94 C
294 09-07-2016 00:25:00 18.6 C 84 % 15.84 C
295 09-07-2016 00:30:00 18.5 C 84 % 15.75 C
296 09-07-2016 00:35:00 18.4 C 84 % 15.65 C
297 09-07-2016 00:40:00 18.3 C 84 % 15.55 C
298 09-07-2016 00:45:00 18.2 C 84 % 15.45 C
299 09-07-2016 00:50:00 18.1 C 85 % 15.54 C
300 09-07-2016 00:55:00 18 C 85 % 15.44 C
Sensor: Nr:Datum:Temp:Feuchte:Taupunkt:
Aussen-T/F 301 09-07-2016 01:00:00 17.9 C 85 % 15.34 C
302 09-07-2016 01:05:00 17.9 C 86 % 15.53 C
303 09-07-2016 01:10:00 17.9 C 85 % 15.34 C
304 09-07-2016 01:15:00 17.9 C 85 % 15.34 C
305 09-07-2016 01:20:00 17.9 C 85 % 15.34 C
306 09-07-2016 01:25:00 17.9 C 86 % 15.53 C
307 09-07-2016 01:30:00 17.9 C 86 % 15.53 C
308 09-07-2016 01:35:00 17.9 C 86 % 15.53 C
309 09-07-2016 01:40:00 17.9 C 86 % 15.53 C
310 09-07-2016 01:45:00 17.8 C 85 % 15.25 C
311 09-07-2016 01:50:00 17.7 C 85 % 15.15 C
312 09-07-2016 01:55:00 17.7 C 85 % 15.15 C
313 09-07-2016 02:00:00 17.7 C 85 % 15.15 C
314 09-07-2016 02:05:00 17.6 C 86 % 15.23 C
315 09-07-2016 02:10:00 17.6 C 86 % 15.23 C
316 09-07-2016 02:15:00 17.6 C 86 % 15.23 C
317 09-07-2016 02:20:00 17.5 C 87 % 15.31 C
318 09-07-2016 02:25:00 17.4 C 86 % 15.03 C
319 09-07-2016 02:30:00 17.3 C 86 % 14.94 C
320 09-07-2016 02:35:00 17.3 C 87 % 15.12 C
321 09-07-2016 02:40:00 17.3 C 87 % 15.12 C
322 09-07-2016 02:45:00 17.3 C 87 % 15.12 C
323 09-07-2016 02:50:00 17.2 C 88 % 15.2 C
324 09-07-2016 02:55:00 17.3 C 88 % 15.29 C
325 09-07-2016 03:00:00 17.3 C 88 % 15.29 C
Sensor: Nr:Datum:Temp:Feuchte:Taupunkt:
Aussen-T/F 326 09-07-2016 03:05:00 17.3 C 88 % 15.29 C
327 09-07-2016 03:10:00 17.3 C 87 % 15.12 C
328 09-07-2016 03:15:00 17.2 C 86 % 14.84 C
329 09-07-2016 03:20:00 17.3 C 86 % 14.94 C
330 09-07-2016 03:25:00 17.3 C 86 % 14.94 C
331 09-07-2016 03:30:00 17.3 C 86 % 14.94 C
332 09-07-2016 03:35:00 17.3 C 86 % 14.94 C
333 09-07-2016 03:40:00 17.4 C 85 % 14.85 C
334 09-07-2016 03:45:00 17.4 C 85 % 14.85 C
335 09-07-2016 03:50:00 17.4 C 85 % 14.85 C
336 09-07-2016 03:55:00 17.4 C 85 % 14.85 C
337 09-07-2016 04:00:00 17.4 C 85 % 14.85 C
338 09-07-2016 04:05:00 17.4 C 85 % 14.85 C
339 09-07-2016 04:10:00 17.4 C 86 % 15.03 C
340 09-07-2016 04:15:00 17.3 C 86 % 14.94 C
341 09-07-2016 04:20:00 17.3 C 86 % 14.94 C
342 09-07-2016 04:25:00 17.3 C 86 % 14.94 C
343 09-07-2016 04:30:00 17.2 C 86 % 14.84 C
344 09-07-2016 04:35:00 17.2 C 86 % 14.84 C
345 09-07-2016 04:40:00 17.2 C 86 % 14.84 C
346 09-07-2016 04:45:00 17.2 C 86 % 14.84 C
347 09-07-2016 04:50:00 17.2 C 86 % 14.84 C
348 09-07-2016 04:55:00 17.2 C 86 % 14.84 C
349 09-07-2016 05:00:00 17.2 C 86 % 14.84 C
350 09-07-2016 05:05:00 17.2 C 86 % 14.84 C
Sensor: Nr:Datum:Temp:Feuchte:Taupunkt:
Aussen-T/F 351 09-07-2016 05:10:00 17.2 C 86 % 14.84 C
352 09-07-2016 05:15:00 17.2 C 86 % 14.84 C
353 09-07-2016 05:20:00 17.2 C 87 % 15.02 C
354 09-07-2016 05:25:00 17.2 C 86 % 14.84 C
355 09-07-2016 05:30:00 17.2 C 87 % 15.02 C
356 09-07-2016 05:35:00 17.2 C 87 % 15.02 C
357 09-07-2016 05:40:00 17.2 C 87 % 15.02 C
358 09-07-2016 05:45:00 17.2 C 87 % 15.02 C
359 09-07-2016 05:50:00 17.2 C 87 % 15.02 C
360 09-07-2016 05:55:00 17.2 C 87 % 15.02 C
361 09-07-2016 06:00:00 17.2 C 87 % 15.02 C
362 09-07-2016 06:05:00 17.3 C 88 % 15.29 C
363 09-07-2016 06:10:00 17.3 C 88 % 15.29 C
364 09-07-2016 06:15:00 17.3 C 88 % 15.29 C
365 09-07-2016 06:20:00 17.3 C 87 % 15.12 C
366 09-07-2016 06:25:00 17.3 C 87 % 15.12 C
367 09-07-2016 06:30:00 17.4 C 88 % 15.39 C
368 09-07-2016 06:35:00 17.4 C 88 % 15.39 C
369 09-07-2016 06:40:00 17.4 C 87 % 15.21 C
370 09-07-2016 06:45:00 17.5 C 87 % 15.31 C
371 09-07-2016 06:50:00 17.6 C 86 % 15.23 C
372 09-07-2016 06:55:00 17.7 C 86 % 15.33 C
373 09-07-2016 07:00:00 17.7 C 86 % 15.33 C
374 09-07-2016 07:05:00 17.8 C 86 % 15.43 C
375 09-07-2016 07:10:00 17.8 C 85 % 15.25 C
Sensor: Nr:Datum:Temp:Feuchte:Taupunkt:
Aussen-T/F 376 09-07-2016 07:15:00 17.9 C 85 % 15.34 C
377 09-07-2016 07:20:00 18.1 C 84 % 15.35 C
378 09-07-2016 07:25:00 18.2 C 84 % 15.45 C
379 09-07-2016 07:30:00 18.2 C 84 % 15.45 C
380 09-07-2016 07:35:00 18.2 C 84 % 15.45 C
381 09-07-2016 07:40:00 18.3 C 84 % 15.55 C
382 09-07-2016 07:45:00 18.3 C 85 % 15.74 C
383 09-07-2016 07:50:00 18.3 C 85 % 15.74 C
384 09-07-2016 07:55:00 18.3 C 85 % 15.74 C
385 09-07-2016 08:00:00 18.3 C 86 % 15.92 C
386 09-07-2016 08:05:00 18.3 C 85 % 15.74 C
387 09-07-2016 08:10:00 18.4 C 85 % 15.83 C
388 09-07-2016 08:15:00 18.5 C 85 % 15.93 C
389 09-07-2016 08:20:00 18.7 C 85 % 16.13 C
390 09-07-2016 08:25:00 18.8 C 84 % 16.04 C
391 09-07-2016 08:30:00 18.8 C 84 % 16.04 C
392 09-07-2016 08:35:00 18.9 C 85 % 16.32 C
393 09-07-2016 08:40:00 19 C 83 % 16.05 C
394 09-07-2016 08:45:00 19.1 C 84 % 16.33 C
395 09-07-2016 08:50:00 19.2 C 83 % 16.24 C
396 09-07-2016 08:55:00 19.3 C 82 % 16.15 C
397 09-07-2016 09:00:00 19.4 C 81 % 16.06 C
398 09-07-2016 09:05:00 19.6 C 81 % 16.25 C
399 09-07-2016 09:10:00 19.7 C 79 % 15.96 C
400 09-07-2016 09:15:00 19.8 C 80 % 16.25 C
Sensor: Nr:Datum:Temp:Feuchte:Taupunkt:
Aussen-T/F 401 09-07-2016 09:20:00 19.9 C 80 % 16.35 C
402 09-07-2016 09:25:00 20 C 78 % 16.05 C
403 09-07-2016 09:30:00 20.1 C 78 % 16.14 C
404 09-07-2016 09:35:00 20.1 C 78 % 16.14 C
405 09-07-2016 09:40:00 20.1 C 79 % 16.34 C
406 09-07-2016 09:45:00 20.2 C 77 % 16.04 C
407 09-07-2016 09:50:00 20.3 C 77 % 16.14 C
408 09-07-2016 09:55:00 20.6 C 78 % 16.63 C
409 09-07-2016 10:00:00 20.6 C 75 % 16.01 C
410 09-07-2016 10:05:00 20.6 C 76 % 16.22 C
411 09-07-2016 10:10:00 20.6 C 76 % 16.22 C
412 09-07-2016 10:15:00 20.8 C 76 % 16.41 C
413 09-07-2016 10:20:00 21.1 C 75 % 16.5 C
414 09-07-2016 10:25:00 21.2 C 73 % 16.17 C
415 09-07-2016 10:30:00 21.2 C 73 % 16.17 C
416 09-07-2016 10:35:00 21.3 C 74 % 16.48 C
417 09-07-2016 10:40:00 21.3 C 73 % 16.26 C
418 09-07-2016 10:45:00 21.5 C 72 % 16.24 C
419 09-07-2016 10:50:00 21.5 C 74 % 16.67 C
420 09-07-2016 10:55:00 21.5 C 73 % 16.46 C
421 09-07-2016 11:00:00 21.5 C 72 % 16.24 C
422 09-07-2016 11:05:00 21.7 C 72 % 16.43 C
423 09-07-2016 11:10:00 21.8 C 73 % 16.75 C
424 09-07-2016 11:15:00 21.9 C 70 % 16.18 C
425 09-07-2016 11:20:00 22 C 74 % 17.15 C
Sensor: Nr:Datum:Temp:Feuchte:Taupunkt:
Aussen-T/F 426 09-07-2016 11:25:00 21.9 C 70 % 16.18 C
427 09-07-2016 11:30:00 21.8 C 70 % 16.09 C
428 09-07-2016 11:35:00 21.7 C 70 % 15.99 C
429 09-07-2016 11:40:00 21.7 C 72 % 16.43 C
430 09-07-2016 11:45:00 21.8 C 72 % 16.53 C
431 09-07-2016 11:50:00 21.9 C 71 % 16.4 C
432 09-07-2016 11:55:00 22.1 C 72 % 16.82 C
433 09-07-2016 12:00:00 22.1 C 71 % 16.6 C
434 09-07-2016 12:05:00 22.2 C 69 % 16.24 C
435 09-07-2016 12:10:00 22.2 C 68 % 16.01 C
436 09-07-2016 12:15:00 22.2 C 72 % 16.91 C
437 09-07-2016 12:20:00 22.2 C 68 % 16.01 C
438 09-07-2016 12:25:00 22.3 C 70 % 16.56 C
439 09-07-2016 12:30:00 22.5 C 68 % 16.3 C
440 09-07-2016 12:35:00 22.6 C 67 % 16.16 C
441 09-07-2016 12:40:00 22.8 C 69 % 16.82 C
442 09-07-2016 12:45:00 23.1 C 68 % 16.87 C
443 09-07-2016 12:50:00 23.2 C 67 % 16.73 C
444 09-07-2016 12:55:00 23.2 C 66 % 16.5 C
445 09-07-2016 13:00:00 23.2 C 69 % 17.2 C
446 09-07-2016 13:05:00 23.1 C 69 % 17.1 C
447 09-07-2016 13:10:00 23.1 C 72 % 17.78 C
448 09-07-2016 13:15:00 23.1 C 69 % 17.1 C
449 09-07-2016 13:20:00 23.2 C 65 % 16.26 C
450 09-07-2016 13:25:00 23.3 C 66 % 16.59 C
Sensor: Nr:Datum:Temp:Feuchte:Taupunkt:
Aussen-T/F 451 09-07-2016 13:30:00 23.5 C 65 % 16.54 C
452 09-07-2016 13:35:00 23.6 C 63 % 16.14 C
453 09-07-2016 13:40:00 23.7 C 64 % 16.49 C
454 09-07-2016 13:45:00 23.7 C 63 % 16.24 C
455 09-07-2016 13:50:00 23.7 C 64 % 16.49 C
456 09-07-2016 13:55:00 23.8 C 66 % 17.07 C
457 09-07-2016 14:00:00 23.8 C 65 % 16.83 C
458 09-07-2016 14:05:00 23.8 C 61 % 15.83 C
459 09-07-2016 14:10:00 23.8 C 64 % 16.58 C
460 09-07-2016 14:15:00 23.8 C 66 % 17.07 C
461 09-07-2016 14:20:00 23.9 C 63 % 16.43 C
462 09-07-2016 14:25:00 24.2 C 64 % 16.96 C
463 09-07-2016 14:30:00 24.3 C 64 % 17.05 C
464 09-07-2016 14:35:00 24.3 C 65 % 17.3 C
465 09-07-2016 14:40:00 24.3 C 66 % 17.54 C
466 09-07-2016 14:45:00 24.4 C 66 % 17.64 C
467 09-07-2016 14:50:00 24.4 C 65 % 17.39 C
468 09-07-2016 14:55:00 24.4 C 65 % 17.39 C
469 09-07-2016 15:00:00 24.7 C 63 % 17.18 C
470 09-07-2016 15:05:00 24.8 C 64 % 17.53 C
471 09-07-2016 15:10:00 24.9 C 61 % 16.86 C
472 09-07-2016 15:15:00 25.1 C 61 % 17.05 C
473 09-07-2016 15:20:00 25.5 C 58 % 16.63 C
474 09-07-2016 15:25:00 25.8 C 58 % 16.91 C
475 09-07-2016 15:30:00 26.1 C 58 % 17.19 C
Sensor: Nr:Datum:Temp:Feuchte:Taupunkt:
Aussen-T/F 476 09-07-2016 15:35:00 26.3 C 59 % 17.65 C
477 09-07-2016 15:40:00 26.7 C 56 % 17.19 C
478 09-07-2016 15:45:00 26.9 C 55 % 17.09 C
479 09-07-2016 15:50:00 26.7 C 57 % 17.47 C
480 09-07-2016 15:55:00 26.4 C 58 % 17.47 C
481 09-07-2016 16:00:00 26.1 C 62 % 18.25 C
482 09-07-2016 16:05:00 25.9 C 65 % 18.81 C
483 09-07-2016 16:10:00 25.6 C 64 % 18.28 C
484 09-07-2016 16:15:00 25.4 C 70 % 19.53 C
485 09-07-2016 16:20:00 25.5 C 66 % 18.68 C
486 09-07-2016 16:25:00 25.5 C 64 % 18.19 C
487 09-07-2016 16:30:00 25.5 C 65 % 18.44 C
488 09-07-2016 16:35:00 25.4 C 69 % 19.3 C
489 09-07-2016 16:40:00 25.6 C 61 % 17.52 C
490 09-07-2016 16:45:00 25.7 C 62 % 17.87 C
491 09-07-2016 16:50:00 25.5 C 63 % 17.94 C
492 09-07-2016 16:55:00 25.4 C 64 % 18.09 C
493 09-07-2016 17:00:00 25.9 C 60 % 17.54 C
494 09-07-2016 17:05:00 26.2 C 59 % 17.55 C
495 09-07-2016 17:10:00 26.4 C 63 % 18.79 C
496 09-07-2016 17:15:00 26.4 C 64 % 19.04 C
497 09-07-2016 17:20:00 26.3 C 63 % 18.69 C
498 09-07-2016 17:25:00 26 C 66 % 19.15 C
499 09-07-2016 17:30:00 25.7 C 67 % 19.11 C
500 09-07-2016 17:35:00 25.6 C 71 % 19.95 C
Sensor: Nr:Datum:Temp:Feuchte:Taupunkt:
Aussen-T/F 501 09-07-2016 17:40:00 25.9 C 61 % 17.8 C
502 09-07-2016 17:45:00 26.6 C 58 % 17.66 C
503 09-07-2016 17:50:00 27.2 C 55 % 17.37 C
504 09-07-2016 17:55:00 27.6 C 58 % 18.59 C
505 09-07-2016 18:00:00 27.5 C 60 % 19.04 C
506 09-07-2016 18:05:00 27.3 C 62 % 19.38 C
507 09-07-2016 18:10:00 27.1 C 62 % 19.19 C
508 09-07-2016 18:15:00 26.9 C 64 % 19.51 C
509 09-07-2016 18:20:00 26.7 C 65 % 19.57 C
510 09-07-2016 18:25:00 26.3 C 65 % 19.19 C
511 09-07-2016 18:30:00 26 C 69 % 19.87 C
512 09-07-2016 18:35:00 25.7 C 69 % 19.58 C
513 09-07-2016 18:40:00 25.5 C 71 % 19.85 C
514 09-07-2016 18:45:00 25.4 C 71 % 19.76 C
515 09-07-2016 18:50:00 25.3 C 71 % 19.66 C
516 09-07-2016 18:55:00 25.1 C 72 % 19.69 C
517 09-07-2016 19:00:00 24.8 C 72 % 19.41 C
518 09-07-2016 19:05:00 24.5 C 73 % 19.34 C
519 09-07-2016 19:10:00 24.4 C 73 % 19.24 C
520 09-07-2016 19:15:00 24.8 C 71 % 19.18 C
521 09-07-2016 19:20:00 25.2 C 70 % 19.34 C
522 09-07-2016 19:25:00 25.1 C 68 % 18.78 C
523 09-07-2016 19:30:00 24.8 C 69 % 18.72 C
524 09-07-2016 19:35:00 24.7 C 72 % 19.31 C
525 09-07-2016 19:40:00 24.7 C 71 % 19.09 C
Sensor: Nr:Datum:Temp:Feuchte:Taupunkt:
Aussen-T/F 526 09-07-2016 19:45:00 24.6 C 72 % 19.21 C
527 09-07-2016 19:50:00 24.6 C 71 % 18.99 C
528 09-07-2016 19:55:00 24.6 C 71 % 18.99 C
529 09-07-2016 20:00:00 24.7 C 72 % 19.31 C
530 09-07-2016 20:05:00 24.8 C 71 % 19.18 C
531 09-07-2016 20:10:00 24.8 C 71 % 19.18 C
532 09-07-2016 20:15:00 24.7 C 70 % 18.86 C
533 09-07-2016 20:20:00 24.6 C 71 % 18.99 C
534 09-07-2016 20:25:00 24.5 C 72 % 19.12 C
535 09-07-2016 20:30:00 24.4 C 71 % 18.8 C
536 09-07-2016 20:35:00 24.3 C 71 % 18.7 C
537 09-07-2016 20:40:00 24.2 C 72 % 18.83 C
538 09-07-2016 20:45:00 23.9 C 72 % 18.54 C
539 09-07-2016 20:50:00 23.6 C 72 % 18.26 C
540 09-07-2016 20:55:00 23.3 C 73 % 18.19 C
541 09-07-2016 21:00:00 23.1 C 73 % 17.99 C
542 09-07-2016 21:05:00 22.8 C 74 % 17.92 C
543 09-07-2016 21:10:00 22.5 C 75 % 17.85 C
544 09-07-2016 21:15:00 22.2 C 75 % 17.56 C
545 09-07-2016 21:20:00 21.9 C 75 % 17.27 C
546 09-07-2016 21:25:00 21.7 C 76 % 17.28 C
547 09-07-2016 21:30:00 21.5 C 77 % 17.3 C
548 09-07-2016 21:35:00 21.3 C 77 % 17.1 C
549 09-07-2016 21:40:00 21.2 C 77 % 17.01 C
550 09-07-2016 21:45:00 21.1 C 78 % 17.11 C
Sensor: Nr:Datum:Temp:Feuchte:Taupunkt:
Aussen-T/F 551 09-07-2016 21:50:00 20.9 C 78 % 16.92 C
552 09-07-2016 21:55:00 20.7 C 78 % 16.73 C
553 09-07-2016 22:00:00 20.6 C 78 % 16.63 C
554 09-07-2016 22:05:00 20.6 C 78 % 16.63 C
555 09-07-2016 22:10:00 20.4 C 79 % 16.64 C
556 09-07-2016 22:15:00 20.3 C 80 % 16.74 C
557 09-07-2016 22:20:00 20.2 C 80 % 16.64 C
558 09-07-2016 22:25:00 20 C 81 % 16.64 C
559 09-07-2016 22:30:00 19.8 C 81 % 16.45 C
560 09-07-2016 22:35:00 19.6 C 82 % 16.44 C
561 09-07-2016 22:40:00 19.4 C 82 % 16.25 C
562 09-07-2016 22:45:00 19.3 C 82 % 16.15 C
563 09-07-2016 22:50:00 19.2 C 83 % 16.24 C
564 09-07-2016 22:55:00 19.1 C 83 % 16.15 C
565 09-07-2016 23:00:00 19.1 C 83 % 16.15 C
566 09-07-2016 23:05:00 19 C 83 % 16.05 C
567 09-07-2016 23:10:00 18.9 C 84 % 16.14 C
568 09-07-2016 23:15:00 18.9 C 84 % 16.14 C
569 09-07-2016 23:20:00 18.8 C 84 % 16.04 C
570 09-07-2016 23:25:00 18.8 C 84 % 16.04 C
571 09-07-2016 23:30:00 18.7 C 84 % 15.94 C
572 09-07-2016 23:35:00 18.6 C 85 % 16.03 C
573 09-07-2016 23:40:00 18.5 C 85 % 15.93 C
574 09-07-2016 23:45:00 18.4 C 85 % 15.83 C
575 09-07-2016 23:50:00 18.4 C 85 % 15.83 C
Sensor: Nr:Datum:Temp:Feuchte:Taupunkt:
Aussen-T/F 576 09-07-2016 23:55:00 18.3 C 85 % 15.74 C
577 10-07-2016 00:00:00 18.3 C 86 % 15.92 C
578 10-07-2016 00:05:00 18.2 C 86 % 15.82 C
579 10-07-2016 00:10:00 18.2 C 86 % 15.82 C
580 10-07-2016 00:15:00 18.2 C 86 % 15.82 C
581 10-07-2016 00:20:00 18.1 C 87 % 15.9 C
582 10-07-2016 00:25:00 18 C 87 % 15.8 C
583 10-07-2016 00:30:00 17.9 C 87 % 15.71 C
584 10-07-2016 00:35:00 17.8 C 87 % 15.61 C
585 10-07-2016 00:40:00 17.7 C 88 % 15.69 C
586 10-07-2016 00:45:00 17.7 C 88 % 15.69 C
587 10-07-2016 00:50:00 17.6 C 88 % 15.59 C
588 10-07-2016 00:55:00 17.6 C 88 % 15.59 C
589 10-07-2016 01:00:00 17.6 C 88 % 15.59 C
590 10-07-2016 01:05:00 17.5 C 88 % 15.49 C
591 10-07-2016 01:10:00 17.4 C 88 % 15.39 C
592 10-07-2016 01:15:00 17.3 C 88 % 15.29 C
593 10-07-2016 01:20:00 17.2 C 88 % 15.2 C
594 10-07-2016 01:25:00 17.1 C 89 % 15.27 C
595 10-07-2016 01:30:00 17.1 C 89 % 15.27 C
596 10-07-2016 01:35:00 17 C 89 % 15.17 C
597 10-07-2016 01:40:00 16.9 C 89 % 15.08 C
598 10-07-2016 01:45:00 16.8 C 90 % 15.15 C
599 10-07-2016 01:50:00 16.8 C 90 % 15.15 C
600 10-07-2016 01:55:00 16.8 C 90 % 15.15 C
Sensor: Nr:Datum:Temp:Feuchte:Taupunkt:
Aussen-T/F 601 10-07-2016 02:00:00 16.8 C 90 % 15.15 C
602 10-07-2016 02:05:00 16.7 C 90 % 15.05 C
603 10-07-2016 02:10:00 16.7 C 90 % 15.05 C
604 10-07-2016 02:15:00 16.7 C 90 % 15.05 C
605 10-07-2016 02:20:00 16.6 C 90 % 14.95 C
606 10-07-2016 02:25:00 16.6 C 90 % 14.95 C
607 10-07-2016 02:30:00 16.5 C 90 % 14.85 C
608 10-07-2016 02:35:00 16.4 C 90 % 14.76 C
609 10-07-2016 02:40:00 16.3 C 91 % 14.83 C
610 10-07-2016 02:45:00 16.2 C 91 % 14.73 C
611 10-07-2016 02:50:00 16.2 C 91 % 14.73 C
612 10-07-2016 02:55:00 16.1 C 91 % 14.63 C
613 10-07-2016 03:00:00 15.9 C 91 % 14.43 C
614 10-07-2016 03:05:00 15.8 C 91 % 14.33 C
615 10-07-2016 03:10:00 15.8 C 92 % 14.5 C
616 10-07-2016 03:15:00 15.7 C 92 % 14.4 C
617 10-07-2016 03:20:00 15.6 C 92 % 14.31 C
618 10-07-2016 03:25:00 15.6 C 92 % 14.31 C
619 10-07-2016 03:30:00 15.5 C 92 % 14.21 C
620 10-07-2016 03:35:00 15.4 C 92 % 14.11 C
621 10-07-2016 03:40:00 15.3 C 92 % 14.01 C
622 10-07-2016 03:45:00 15.2 C 92 % 13.91 C
623 10-07-2016 03:50:00 15.2 C 93 % 14.08 C
624 10-07-2016 03:55:00 15.2 C 93 % 14.08 C
625 10-07-2016 04:00:00 15.1 C 93 % 13.98 C
Sensor: Nr:Datum:Temp:Feuchte:Taupunkt:
Aussen-T/F 626 10-07-2016 04:05:00 15 C 93 % 13.88 C
627 10-07-2016 04:10:00 15 C 93 % 13.88 C
628 10-07-2016 04:15:00 15 C 93 % 13.88 C
629 10-07-2016 04:20:00 14.9 C 93 % 13.78 C
630 10-07-2016 04:25:00 14.9 C 93 % 13.78 C
631 10-07-2016 04:30:00 14.9 C 93 % 13.78 C
632 10-07-2016 04:35:00 14.8 C 94 % 13.84 C
633 10-07-2016 04:40:00 14.8 C 94 % 13.84 C
634 10-07-2016 04:45:00 14.8 C 94 % 13.84 C
635 10-07-2016 04:50:00 14.7 C 94 % 13.74 C
636 10-07-2016 04:55:00 14.7 C 93 % 13.58 C
637 10-07-2016 05:00:00 14.6 C 94 % 13.65 C
638 10-07-2016 05:05:00 14.6 C 94 % 13.65 C
639 10-07-2016 05:10:00 14.6 C 94 % 13.65 C
640 10-07-2016 05:15:00 14.6 C 94 % 13.65 C
641 10-07-2016 05:20:00 14.7 C 94 % 13.74 C
642 10-07-2016 05:25:00 14.6 C 94 % 13.65 C
643 10-07-2016 05:30:00 14.6 C 94 % 13.65 C
644 10-07-2016 05:35:00 14.5 C 94 % 13.55 C
645 10-07-2016 05:40:00 14.5 C 94 % 13.55 C
646 10-07-2016 05:45:00 14.4 C 94 % 13.45 C
647 10-07-2016 05:50:00 14.5 C 94 % 13.55 C
648 10-07-2016 05:55:00 14.5 C 94 % 13.55 C
649 10-07-2016 06:00:00 14.5 C 94 % 13.55 C
650 10-07-2016 06:05:00 14.6 C 95 % 13.81 C
Sensor: Nr:Datum:Temp:Feuchte:Taupunkt:
Aussen-T/F 651 10-07-2016 06:10:00 14.6 C 95 % 13.81 C
652 10-07-2016 06:15:00 14.6 C 95 % 13.81 C
653 10-07-2016 06:20:00 14.7 C 95 % 13.91 C
654 10-07-2016 06:25:00 14.7 C 95 % 13.91 C
655 10-07-2016 06:30:00 14.7 C 95 % 13.91 C
656 10-07-2016 06:35:00 14.8 C 95 % 14.01 C
657 10-07-2016 06:40:00 14.9 C 95 % 14.11 C
658 10-07-2016 06:45:00 14.9 C 95 % 14.11 C
659 10-07-2016 06:50:00 14.9 C 95 % 14.11 C
660 10-07-2016 06:55:00 15 C 95 % 14.21 C
661 10-07-2016 07:00:00 15 C 95 % 14.21 C
662 10-07-2016 07:05:00 15.1 C 95 % 14.31 C
663 10-07-2016 07:10:00 15.1 C 95 % 14.31 C
664 10-07-2016 07:15:00 15.2 C 95 % 14.4 C
665 10-07-2016 07:20:00 15.2 C 95 % 14.4 C
666 10-07-2016 07:25:00 15.3 C 95 % 14.5 C
667 10-07-2016 07:30:00 15.3 C 95 % 14.5 C
668 10-07-2016 07:35:00 15.4 C 95 % 14.6 C
669 10-07-2016 07:40:00 15.5 C 95 % 14.7 C
670 10-07-2016 07:45:00 15.6 C 95 % 14.8 C
671 10-07-2016 07:50:00 15.7 C 95 % 14.9 C
672 10-07-2016 07:55:00 15.7 C 95 % 14.9 C
673 10-07-2016 08:00:00 15.8 C 95 % 15 C
674 10-07-2016 08:05:00 15.9 C 95 % 15.1 C
675 10-07-2016 08:10:00 16 C 95 % 15.2 C
Sensor: Nr:Datum:Temp:Feuchte:Taupunkt:
Aussen-T/F 676 10-07-2016 08:15:00 16.1 C 95 % 15.3 C
677 10-07-2016 08:20:00 16.3 C 95 % 15.5 C
678 10-07-2016 08:25:00 16.4 C 95 % 15.6 C
679 10-07-2016 08:30:00 16.6 C 95 % 15.8 C
680 10-07-2016 08:35:00 16.7 C 94 % 15.73 C
681 10-07-2016 08:40:00 16.8 C 94 % 15.83 C
682 10-07-2016 08:45:00 16.8 C 94 % 15.83 C
683 10-07-2016 08:50:00 16.9 C 94 % 15.93 C
684 10-07-2016 08:55:00 17 C 94 % 16.03 C
685 10-07-2016 09:00:00 17.2 C 94 % 16.23 C
686 10-07-2016 09:05:00 17.2 C 94 % 16.23 C
687 10-07-2016 09:10:00 17.3 C 94 % 16.33 C
688 10-07-2016 09:15:00 17.4 C 93 % 16.26 C
689 10-07-2016 09:20:00 17.4 C 93 % 16.26 C
690 10-07-2016 09:25:00 17.5 C 92 % 16.19 C
691 10-07-2016 09:30:00 17.7 C 93 % 16.55 C
692 10-07-2016 09:35:00 17.8 C 92 % 16.48 C
693 10-07-2016 09:40:00 17.9 C 92 % 16.58 C
694 10-07-2016 09:45:00 18.1 C 92 % 16.78 C
695 10-07-2016 09:50:00 18.2 C 91 % 16.71 C
696 10-07-2016 09:55:00 18.3 C 92 % 16.98 C
697 10-07-2016 10:00:00 18.5 C 91 % 17 C
698 10-07-2016 10:05:00 18.7 C 91 % 17.2 C
699 10-07-2016 10:10:00 18.9 C 90 % 17.22 C
700 10-07-2016 10:15:00 19.1 C 91 % 17.6 C
Sensor: Nr:Datum:Temp:Feuchte:Taupunkt:
Aussen-T/F 701 10-07-2016 10:20:00 19.3 C 91 % 17.79 C
702 10-07-2016 10:25:00 19.7 C 91 % 18.19 C
703 10-07-2016 10:30:00 20.1 C 90 % 18.41 C
704 10-07-2016 10:35:00 20.5 C 89 % 18.62 C
705 10-07-2016 10:40:00 20.9 C 88 % 18.84 C
706 10-07-2016 10:45:00 21.3 C 87 % 19.05 C
707 10-07-2016 10:50:00 21.8 C 85 % 19.16 C
708 10-07-2016 10:55:00 22.2 C 85 % 19.56 C
709 10-07-2016 11:00:00 22.4 C 83 % 19.37 C
710 10-07-2016 11:05:00 22.6 C 83 % 19.56 C
711 10-07-2016 11:10:00 22.5 C 84 % 19.66 C
712 10-07-2016 11:15:00 22.3 C 85 % 19.65 C
713 10-07-2016 11:20:00 22.2 C 85 % 19.56 C
714 10-07-2016 11:25:00 22.2 C 86 % 19.75 C
715 10-07-2016 11:30:00 22.2 C 83 % 19.17 C
716 10-07-2016 11:35:00 22.5 C 85 % 19.85 C
717 10-07-2016 11:40:00 22.7 C 82 % 19.47 C
718 10-07-2016 11:45:00 22.9 C 81 % 19.46 C
719 10-07-2016 11:50:00 23.2 C 82 % 19.95 C
720 10-07-2016 11:55:00 23.3 C 80 % 19.65 C
721 10-07-2016 12:00:00 23.4 C 81 % 19.95 C
722 10-07-2016 12:05:00 23.5 C 78 % 19.44 C
723 10-07-2016 12:10:00 23.7 C 78 % 19.63 C
724 10-07-2016 12:15:00 24.2 C 70 % 18.38 C
725 10-07-2016 12:20:00 24.7 C 75 % 19.97 C
Sensor: Nr:Datum:Temp:Feuchte:Taupunkt:
Aussen-T/F 726 10-07-2016 12:25:00 24.9 C 72 % 19.5 C
727 10-07-2016 12:30:00 25.1 C 70 % 19.24 C
728 10-07-2016 12:35:00 25.3 C 68 % 18.97 C
729 10-07-2016 12:40:00 25.5 C 70 % 19.62 C
730 10-07-2016 12:45:00 25.7 C 66 % 18.87 C
731 10-07-2016 12:50:00 25.8 C 68 % 19.44 C
732 10-07-2016 12:55:00 25.8 C 66 % 18.96 C
733 10-07-2016 13:00:00 25.9 C 65 % 18.81 C
734 10-07-2016 13:05:00 26.1 C 66 % 19.25 C
735 10-07-2016 13:10:00 26.2 C 67 % 19.59 C
736 10-07-2016 13:15:00 26.3 C 71 % 20.62 C
737 10-07-2016 13:20:00 26.3 C 69 % 20.16 C
738 10-07-2016 13:25:00 26.3 C 70 % 20.39 C
739 10-07-2016 13:30:00 26.4 C 64 % 19.04 C
740 10-07-2016 13:35:00 26.6 C 65 % 19.48 C
741 10-07-2016 13:40:00 26.7 C 73 % 21.45 C
742 10-07-2016 13:45:00 26.7 C 71 % 21 C
743 10-07-2016 13:50:00 26.6 C 72 % 21.13 C
744 10-07-2016 13:55:00 26.6 C 68 % 20.2 C
745 10-07-2016 14:00:00 26.8 C 63 % 19.16 C
746 10-07-2016 14:05:00 27 C 69 % 20.82 C
747 10-07-2016 14:10:00 27.2 C 64 % 19.79 C
748 10-07-2016 14:15:00 27.3 C 64 % 19.89 C
749 10-07-2016 14:20:00 27.3 C 65 % 20.14 C
750 10-07-2016 14:25:00 27.5 C 64 % 20.08 C
Sensor: Nr:Datum:Temp:Feuchte:Taupunkt:
Aussen-T/F 751 10-07-2016 14:30:00 27.6 C 61 % 19.4 C
752 10-07-2016 14:35:00 27.8 C 61 % 19.59 C
753 10-07-2016 14:40:00 28.1 C 60 % 19.6 C
754 10-07-2016 14:45:00 28.4 C 59 % 19.61 C
755 10-07-2016 14:50:00 28.7 C 60 % 20.16 C
756 10-07-2016 14:55:00 28.8 C 57 % 19.43 C
757 10-07-2016 15:00:00 28.9 C 59 % 20.08 C
758 10-07-2016 15:05:00 28.9 C 59 % 20.08 C
759 10-07-2016 15:10:00 29.1 C 58 % 19.99 C
760 10-07-2016 15:15:00 29.4 C 55 % 19.41 C
761 10-07-2016 15:20:00 29.4 C 58 % 20.27 C
762 10-07-2016 15:25:00 29.8 C 56 % 20.07 C
763 10-07-2016 15:30:00 30.2 C 61 % 21.84 C
764 10-07-2016 15:35:00 30.3 C 56 % 20.54 C
765 10-07-2016 15:40:00 30.7 C 53 % 20.02 C
766 10-07-2016 15:45:00 31.1 C 55 % 20.99 C
767 10-07-2016 15:50:00 31.2 C 54 % 20.78 C
768 10-07-2016 15:55:00 31.4 C 49 % 19.39 C
769 10-07-2016 16:00:00 31.4 C 52 % 20.35 C
770 10-07-2016 16:05:00 31.4 C 48 % 19.06 C
771 10-07-2016 16:10:00 31.4 C 53 % 20.66 C
772 10-07-2016 16:15:00 31.8 C 54 % 21.34 C
773 10-07-2016 16:20:00 32.2 C 49 % 20.12 C
774 10-07-2016 16:25:00 32.4 C 53 % 21.58 C
775 10-07-2016 16:30:00 32.7 C 51 % 21.23 C
Sensor: Nr:Datum:Temp:Feuchte:Taupunkt:
Aussen-T/F 776 10-07-2016 16:35:00 32.9 C 47 % 20.09 C
777 10-07-2016 16:40:00 33.2 C 45 % 19.66 C
778 10-07-2016 16:45:00 33.2 C 46 % 20.01 C
779 10-07-2016 16:50:00 32.9 C 48 % 20.43 C
780 10-07-2016 16:55:00 33.1 C 47 % 20.27 C
781 10-07-2016 17:00:00 33.1 C 54 % 22.54 C
782 10-07-2016 17:05:00 32.9 C 54 % 22.35 C
783 10-07-2016 17:10:00 32.6 C 51 % 21.14 C
784 10-07-2016 17:15:00 32.2 C 53 % 21.4 C
785 10-07-2016 17:20:00 31.8 C 54 % 21.34 C
786 10-07-2016 17:25:00 31.7 C 59 % 22.7 C
787 10-07-2016 17:30:00 32 C 46 % 18.93 C
788 10-07-2016 17:35:00 32.3 C 47 % 19.54 C
789 10-07-2016 17:40:00 32.5 C 51 % 21.05 C
790 10-07-2016 17:45:00 32.7 C 54 % 22.17 C
791 10-07-2016 17:50:00 32.6 C 47 % 19.81 C
792 10-07-2016 17:55:00 32.3 C 50 % 20.54 C
793 10-07-2016 18:00:00 32.3 C 54 % 21.8 C
794 10-07-2016 18:05:00 31.8 C 49 % 19.76 C
795 10-07-2016 18:10:00 31.1 C 53 % 20.39 C
796 10-07-2016 18:15:00 30.4 C 54 % 20.04 C
797 10-07-2016 18:20:00 29.9 C 59 % 21.01 C
798 10-07-2016 18:25:00 29.5 C 59 % 20.64 C
799 10-07-2016 18:30:00 29.3 C 64 % 21.78 C
800 10-07-2016 18:35:00 29.3 C 63 % 21.52 C
Sensor: Nr:Datum:Temp:Feuchte:Taupunkt:
Aussen-T/F 801 10-07-2016 18:40:00 29.4 C 63 % 21.61 C
802 10-07-2016 18:45:00 29.4 C 64 % 21.87 C
803 10-07-2016 18:50:00 29.4 C 64 % 21.87 C
804 10-07-2016 18:55:00 29.2 C 65 % 21.94 C
805 10-07-2016 19:00:00 28.8 C 65 % 21.56 C
806 10-07-2016 19:05:00 28.4 C 67 % 21.68 C
807 10-07-2016 19:10:00 27.9 C 67 % 21.2 C
808 10-07-2016 19:15:00 27.5 C 68 % 21.06 C
809 10-07-2016 19:20:00 27.2 C 69 % 21.01 C
810 10-07-2016 19:25:00 26.9 C 70 % 20.96 C
811 10-07-2016 19:30:00 26.7 C 71 % 21 C
812 10-07-2016 19:35:00 26.5 C 71 % 20.81 C
813 10-07-2016 19:40:00 26.3 C 72 % 20.85 C
814 10-07-2016 19:45:00 26.1 C 72 % 20.65 C
815 10-07-2016 19:50:00 25.8 C 73 % 20.59 C
816 10-07-2016 19:55:00 25.7 C 74 % 20.71 C
817 10-07-2016 20:00:00 25.5 C 75 % 20.74 C
818 10-07-2016 20:05:00 25.3 C 76 % 20.76 C
819 10-07-2016 20:10:00 25.3 C 76 % 20.76 C
820 10-07-2016 20:15:00 25.2 C 77 % 20.88 C
821 10-07-2016 20:20:00 25.1 C 77 % 20.78 C
822 10-07-2016 20:25:00 25 C 78 % 20.89 C
823 10-07-2016 20:30:00 24.9 C 77 % 20.59 C
824 10-07-2016 20:35:00 24.8 C 78 % 20.7 C
825 10-07-2016 20:40:00 24.7 C 78 % 20.6 C
Sensor: Nr:Datum:Temp:Feuchte:Taupunkt:
Aussen-T/F 826 10-07-2016 20:45:00 24.6 C 77 % 20.3 C
827 10-07-2016 20:50:00 24.5 C 77 % 20.2 C
828 10-07-2016 20:55:00 24.4 C 76 % 19.89 C
829 10-07-2016 21:00:00 24.3 C 76 % 19.8 C
830 10-07-2016 21:05:00 24.2 C 76 % 19.7 C
831 10-07-2016 21:10:00 24 C 77 % 19.72 C
832 10-07-2016 21:15:00 23.8 C 76 % 19.31 C
833 10-07-2016 21:20:00 23.7 C 77 % 19.43 C
834 10-07-2016 21:25:00 23.4 C 77 % 19.14 C
835 10-07-2016 21:30:00 23.3 C 78 % 19.25 C
836 10-07-2016 21:35:00 23.1 C 78 % 19.05 C
837 10-07-2016 21:40:00 23 C 78 % 18.96 C
838 10-07-2016 21:45:00 22.8 C 78 % 18.76 C
839 10-07-2016 21:50:00 22.8 C 79 % 18.97 C
840 10-07-2016 21:55:00 22.7 C 79 % 18.87 C
841 10-07-2016 22:00:00 22.7 C 79 % 18.87 C
842 10-07-2016 22:05:00 22.6 C 80 % 18.97 C
843 10-07-2016 22:10:00 22.6 C 80 % 18.97 C
844 10-07-2016 22:15:00 22.5 C 80 % 18.88 C
845 10-07-2016 22:20:00 22.4 C 80 % 18.78 C
846 10-07-2016 22:25:00 22.3 C 81 % 18.88 C
847 10-07-2016 22:30:00 22.3 C 81 % 18.88 C
848 10-07-2016 22:35:00 22.2 C 81 % 18.78 C
849 10-07-2016 22:40:00 22.1 C 81 % 18.69 C
850 10-07-2016 22:45:00 22 C 81 % 18.59 C
Sensor: Nr:Datum:Temp:Feuchte:Taupunkt:
Aussen-T/F 851 10-07-2016 22:50:00 21.9 C 82 % 18.69 C
852 10-07-2016 22:55:00 21.9 C 82 % 18.69 C
853 10-07-2016 23:00:00 21.8 C 82 % 18.59 C
854 10-07-2016 23:05:00 21.7 C 82 % 18.49 C
855 10-07-2016 23:10:00 21.7 C 82 % 18.49 C
856 10-07-2016 23:15:00 21.6 C 82 % 18.39 C
857 10-07-2016 23:20:00 21.5 C 83 % 18.49 C
858 10-07-2016 23:25:00 21.4 C 83 % 18.39 C
859 10-07-2016 23:30:00 21.3 C 83 % 18.29 C
860 10-07-2016 23:35:00 21.3 C 84 % 18.49 C
861 10-07-2016 23:40:00 21.2 C 84 % 18.39 C
862 10-07-2016 23:45:00 21.2 C 84 % 18.39 C
863 10-07-2016 23:50:00 21.1 C 84 % 18.29 C
864 10-07-2016 23:55:00 21.1 C 84 % 18.29 C
865 11-07-2016 00:00:00 21 C 84 % 18.19 C
866 11-07-2016 00:05:00 21 C 84 % 18.19 C
867 11-07-2016 00:10:00 20.9 C 85 % 18.28 C
868 11-07-2016 00:15:00 20.9 C 84 % 18.09 C
869 11-07-2016 00:20:00 20.8 C 85 % 18.18 C
870 11-07-2016 00:25:00 20.8 C 85 % 18.18 C
871 11-07-2016 00:30:00 20.7 C 85 % 18.09 C
872 11-07-2016 00:35:00 20.7 C 85 % 18.09 C
873 11-07-2016 00:40:00 20.6 C 85 % 17.99 C
874 11-07-2016 00:45:00 20.6 C 86 % 18.18 C
875 11-07-2016 00:50:00 20.5 C 86 % 18.08 C
Sensor: Nr:Datum:Temp:Feuchte:Taupunkt:
Aussen-T/F 876 11-07-2016 00:55:00 20.4 C 86 % 17.98 C
877 11-07-2016 01:00:00 20.4 C 86 % 17.98 C
878 11-07-2016 01:05:00 20.4 C 86 % 17.98 C
879 11-07-2016 01:10:00 20.3 C 86 % 17.88 C
880 11-07-2016 01:15:00 20.3 C 86 % 17.88 C
881 11-07-2016 01:20:00 20.3 C 86 % 17.88 C
882 11-07-2016 01:25:00 20.3 C 87 % 18.06 C
883 11-07-2016 01:30:00 20.2 C 87 % 17.97 C
884 11-07-2016 01:35:00 20.2 C 87 % 17.97 C
885 11-07-2016 01:40:00 20.2 C 87 % 17.97 C
886 11-07-2016 01:45:00 20.1 C 87 % 17.87 C
887 11-07-2016 01:50:00 20.1 C 87 % 17.87 C
888 11-07-2016 01:55:00 19.9 C 87 % 17.67 C
889 11-07-2016 02:00:00 19.9 C 87 % 17.67 C
890 11-07-2016 02:05:00 19.8 C 87 % 17.57 C
891 11-07-2016 02:10:00 19.7 C 87 % 17.47 C
892 11-07-2016 02:15:00 19.6 C 87 % 17.38 C
893 11-07-2016 02:20:00 19.6 C 87 % 17.38 C
894 11-07-2016 02:25:00 19.4 C 87 % 17.18 C
895 11-07-2016 02:30:00 19.3 C 88 % 17.26 C
896 11-07-2016 02:35:00 19.3 C 88 % 17.26 C
897 11-07-2016 02:40:00 19.2 C 88 % 17.16 C
898 11-07-2016 02:45:00 19.1 C 88 % 17.07 C
899 11-07-2016 02:50:00 19.1 C 89 % 17.24 C
900 11-07-2016 02:55:00 19.1 C 89 % 17.24 C
Sensor: Nr:Datum:Temp:Feuchte:Taupunkt:
Aussen-T/F 901 11-07-2016 03:00:00 19.2 C 89 % 17.34 C
902 11-07-2016 03:05:00 19.1 C 89 % 17.24 C
903 11-07-2016 03:10:00 19.2 C 90 % 17.52 C
904 11-07-2016 03:15:00 19.2 C 90 % 17.52 C
905 11-07-2016 03:20:00 19.3 C 90 % 17.62 C
906 11-07-2016 03:25:00 19.3 C 90 % 17.62 C
907 11-07-2016 03:30:00 19.3 C 90 % 17.62 C
908 11-07-2016 03:35:00 19.2 C 90 % 17.52 C
909 11-07-2016 03:40:00 19.2 C 89 % 17.34 C
910 11-07-2016 03:45:00 19.1 C 89 % 17.24 C
911 11-07-2016 03:50:00 19.1 C 90 % 17.42 C
912 11-07-2016 03:55:00 19 C 90 % 17.32 C
913 11-07-2016 04:00:00 19 C 89 % 17.15 C
914 11-07-2016 04:05:00 18.9 C 89 % 17.05 C
915 11-07-2016 04:10:00 18.9 C 89 % 17.05 C
916 11-07-2016 04:15:00 18.9 C 89 % 17.05 C
917 11-07-2016 04:20:00 18.8 C 89 % 16.95 C
918 11-07-2016 04:25:00 18.7 C 89 % 16.85 C
919 11-07-2016 04:30:00 18.6 C 90 % 16.93 C
920 11-07-2016 04:35:00 18.5 C 90 % 16.83 C
921 11-07-2016 04:40:00 18.4 C 90 % 16.73 C
922 11-07-2016 04:45:00 18.4 C 90 % 16.73 C
923 11-07-2016 04:50:00 18.4 C 91 % 16.9 C
924 11-07-2016 04:55:00 18.6 C 91 % 17.1 C
925 11-07-2016 05:00:00 18.6 C 91 % 17.1 C
Sensor: Nr:Datum:Temp:Feuchte:Taupunkt:
Aussen-T/F 926 11-07-2016 05:05:00 18.6 C 91 % 17.1 C
927 11-07-2016 05:10:00 18.6 C 91 % 17.1 C
928 11-07-2016 05:15:00 18.6 C 91 % 17.1 C
929 11-07-2016 05:20:00 18.6 C 91 % 17.1 C
930 11-07-2016 05:25:00 18.7 C 91 % 17.2 C
931 11-07-2016 05:30:00 18.7 C 91 % 17.2 C
932 11-07-2016 05:35:00 18.8 C 91 % 17.3 C
933 11-07-2016 05:40:00 18.8 C 91 % 17.3 C
934 11-07-2016 05:45:00 18.8 C 91 % 17.3 C
935 11-07-2016 05:50:00 18.8 C 91 % 17.3 C
936 11-07-2016 05:55:00 18.9 C 91 % 17.4 C
937 11-07-2016 06:00:00 18.9 C 91 % 17.4 C
938 11-07-2016 06:05:00 18.9 C 90 % 17.22 C
939 11-07-2016 06:10:00 18.9 C 90 % 17.22 C
940 11-07-2016 06:15:00 18.9 C 90 % 17.22 C
941 11-07-2016 06:20:00 18.9 C 90 % 17.22 C
942 11-07-2016 06:25:00 18.9 C 90 % 17.22 C
943 11-07-2016 06:30:00 18.9 C 91 % 17.4 C
944 11-07-2016 06:35:00 19 C 91 % 17.5 C
945 11-07-2016 06:40:00 19 C 91 % 17.5 C
946 11-07-2016 06:45:00 19 C 91 % 17.5 C
947 11-07-2016 06:50:00 19 C 91 % 17.5 C
948 11-07-2016 06:55:00 19 C 91 % 17.5 C
949 11-07-2016 07:00:00 19 C 91 % 17.5 C
950 11-07-2016 07:05:00 19.1 C 91 % 17.6 C
Sensor: Nr:Datum:Temp:Feuchte:Taupunkt:
Aussen-T/F 951 11-07-2016 07:10:00 19.1 C 91 % 17.6 C
952 11-07-2016 07:15:00 19.1 C 91 % 17.6 C
953 11-07-2016 07:20:00 19.1 C 91 % 17.6 C
954 11-07-2016 07:25:00 19.2 C 91 % 17.69 C
955 11-07-2016 07:30:00 19.2 C 91 % 17.69 C
956 11-07-2016 07:35:00 19.3 C 92 % 17.97 C
957 11-07-2016 07:40:00 19.4 C 92 % 18.07 C
958 11-07-2016 07:45:00 19.5 C 91 % 17.99 C
959 11-07-2016 07:50:00 19.6 C 91 % 18.09 C
960 11-07-2016 07:55:00 19.7 C 91 % 18.19 C
961 11-07-2016 08:00:00 19.8 C 91 % 18.29 C
962 11-07-2016 08:05:00 19.9 C 91 % 18.39 C
963 11-07-2016 08:10:00 20 C 91 % 18.49 C
964 11-07-2016 08:15:00 20.1 C 91 % 18.58 C
965 11-07-2016 08:20:00 20.1 C 90 % 18.41 C
966 11-07-2016 08:25:00 20.1 C 90 % 18.41 C
967 11-07-2016 08:30:00 20.2 C 90 % 18.51 C
968 11-07-2016 08:35:00 20.2 C 90 % 18.51 C
969 11-07-2016 08:40:00 20.3 C 90 % 18.61 C
970 11-07-2016 08:45:00 20.4 C 88 % 18.34 C
971 11-07-2016 08:50:00 20.6 C 86 % 18.18 C
972 11-07-2016 08:55:00 20.8 C 86 % 18.37 C
973 11-07-2016 09:00:00 21.2 C 84 % 18.39 C
974 11-07-2016 09:05:00 21.3 C 85 % 18.67 C
975 11-07-2016 09:10:00 21.5 C 83 % 18.49 C
Sensor: Nr:Datum:Temp:Feuchte:Taupunkt:
Aussen-T/F 976 11-07-2016 09:15:00 21.7 C 81 % 18.3 C
977 11-07-2016 09:20:00 22 C 80 % 18.39 C
978 11-07-2016 09:25:00 22.2 C 78 % 18.18 C
979 11-07-2016 09:30:00 22.3 C 78 % 18.28 C
980 11-07-2016 09:35:00 22.4 C 77 % 18.17 C
981 11-07-2016 09:40:00 22.7 C 74 % 17.83 C
982 11-07-2016 09:45:00 22.8 C 74 % 17.92 C
983 11-07-2016 09:50:00 23 C 73 % 17.9 C
984 11-07-2016 09:55:00 23.1 C 75 % 18.43 C
985 11-07-2016 10:00:00 23.1 C 74 % 18.21 C
986 11-07-2016 10:05:00 23.1 C 73 % 17.99 C
987 11-07-2016 10:10:00 23.2 C 73 % 18.09 C
988 11-07-2016 10:15:00 23.4 C 72 % 18.06 C
989 11-07-2016 10:20:00 23.5 C 70 % 17.71 C
990 11-07-2016 10:25:00 23.6 C 69 % 17.58 C
991 11-07-2016 10:30:00 23.7 C 67 % 17.21 C
992 11-07-2016 10:35:00 24.1 C 68 % 17.82 C
993 11-07-2016 10:40:00 24.3 C 65 % 17.3 C
994 11-07-2016 10:45:00 24.5 C 68 % 18.2 C
995 11-07-2016 10:50:00 24.4 C 64 % 17.15 C
996 11-07-2016 10:55:00 24.3 C 63 % 16.81 C
997 11-07-2016 11:00:00 24.1 C 62 % 16.37 C
998 11-07-2016 11:05:00 23.8 C 64 % 16.58 C
999 11-07-2016 11:10:00 23.6 C 66 % 16.88 C
1000 11-07-2016 11:15:00 23.4 C 66 % 16.69 C
Sensor: Nr:Datum:Temp:Feuchte:Taupunkt:
Aussen-T/F 1001 11-07-2016 11:20:00 23.3 C 66 % 16.59 C
1002 11-07-2016 11:25:00 23.3 C 70 % 17.52 C
1003 11-07-2016 11:30:00 23.2 C 70 % 17.42 C
1004 11-07-2016 11:35:00 23.2 C 70 % 17.42 C
1005 11-07-2016 11:40:00 23.3 C 71 % 17.75 C
1006 11-07-2016 11:45:00 23.5 C 69 % 17.48 C
1007 11-07-2016 11:50:00 23.6 C 68 % 17.35 C
1008 11-07-2016 11:55:00 23.7 C 69 % 17.67 C
1009 11-07-2016 12:00:00 23.7 C 68 % 17.44 C
1010 11-07-2016 12:05:00 23.7 C 69 % 17.67 C
1011 11-07-2016 12:10:00 23.6 C 68 % 17.35 C
1012 11-07-2016 12:15:00 23.6 C 69 % 17.58 C
1013 11-07-2016 12:20:00 23.6 C 69 % 17.58 C
1014 11-07-2016 12:25:00 23.7 C 68 % 17.44 C
1015 11-07-2016 12:30:00 23.8 C 67 % 17.3 C
1016 11-07-2016 12:35:00 23.8 C 69 % 17.77 C
1017 11-07-2016 12:40:00 23.9 C 70 % 18.09 C
1018 11-07-2016 12:45:00 24.1 C 66 % 17.35 C
1019 11-07-2016 12:50:00 24.3 C 65 % 17.3 C
1020 11-07-2016 12:55:00 24.4 C 64 % 17.15 C
1021 11-07-2016 13:00:00 24.5 C 62 % 16.74 C
1022 11-07-2016 13:05:00 24.4 C 61 % 16.39 C
1023 11-07-2016 13:10:00 24.4 C 64 % 17.15 C
1024 11-07-2016 13:15:00 24.4 C 65 % 17.39 C
1025 11-07-2016 13:20:00 24.4 C 65 % 17.39 C
Sensor: Nr:Datum:Temp:Feuchte:Taupunkt:
Aussen-T/F 1026 11-07-2016 13:25:00 24.4 C 63 % 16.9 C
1027 11-07-2016 13:30:00 24.4 C 63 % 16.9 C
1028 11-07-2016 13:35:00 24.4 C 62 % 16.65 C
1029 11-07-2016 13:40:00 24.4 C 64 % 17.15 C
1030 11-07-2016 13:45:00 24.4 C 61 % 16.39 C
1031 11-07-2016 13:50:00 24.4 C 62 % 16.65 C
1032 11-07-2016 13:55:00 24.4 C 62 % 16.65 C
1033 11-07-2016 14:00:00 24.5 C 58 % 15.7 C
1034 11-07-2016 14:05:00 24.5 C 56 % 15.15 C
1035 11-07-2016 14:10:00 24.6 C 58 % 15.79 C
1036 11-07-2016 14:15:00 24.7 C 54 % 14.77 C
1037 11-07-2016 14:20:00 24.6 C 55 % 14.96 C
1038 11-07-2016 14:25:00 24.4 C 56 % 15.06 C
1039 11-07-2016 14:30:00 24.4 C 56 % 15.06 C
1040 11-07-2016 14:35:00 24.4 C 57 % 15.33 C
1041 11-07-2016 14:40:00 24.4 C 56 % 15.06 C
1042 11-07-2016 14:45:00 24.3 C 55 % 14.68 C
1043 11-07-2016 14:50:00 24.2 C 57 % 15.14 C
1044 11-07-2016 14:55:00 24.3 C 56 % 14.96 C
1045 11-07-2016 15:00:00 24.3 C 58 % 15.51 C
1046 11-07-2016 15:05:00 24.3 C 55 % 14.68 C
1047 11-07-2016 15:10:00 24.4 C 59 % 15.87 C
1048 11-07-2016 15:15:00 24.5 C 55 % 14.87 C
1049 11-07-2016 15:20:00 24.5 C 57 % 15.42 C
1050 11-07-2016 15:25:00 24.3 C 57 % 15.24 C
Sensor: Nr:Datum:Temp:Feuchte:Taupunkt:
Aussen-T/F 1051 11-07-2016 15:30:00 24.3 C 58 % 15.51 C
1052 11-07-2016 15:35:00 24.2 C 57 % 15.14 C
1053 11-07-2016 15:40:00 24.2 C 56 % 14.87 C
1054 11-07-2016 15:45:00 24.2 C 56 % 14.87 C
1055 11-07-2016 15:50:00 24.1 C 58 % 15.32 C
1056 11-07-2016 15:55:00 24.2 C 58 % 15.42 C
1057 11-07-2016 16:00:00 24.2 C 56 % 14.87 C
1058 11-07-2016 16:05:00 24.3 C 58 % 15.51 C
1059 11-07-2016 16:10:00 24.3 C 57 % 15.24 C
1060 11-07-2016 16:15:00 24.3 C 58 % 15.51 C
1061 11-07-2016 16:20:00 24.3 C 60 % 16.04 C
1062 11-07-2016 16:25:00 24.3 C 58 % 15.51 C
1063 11-07-2016 16:30:00 24.3 C 59 % 15.78 C
1064 11-07-2016 16:35:00 24.4 C 63 % 16.9 C
1065 11-07-2016 16:40:00 24.4 C 60 % 16.13 C
1066 11-07-2016 16:45:00 24.4 C 63 % 16.9 C
1067 11-07-2016 16:50:00 24.6 C 61 % 16.58 C
1068 11-07-2016 16:55:00 24.7 C 59 % 16.15 C
1069 11-07-2016 17:00:00 24.7 C 60 % 16.41 C
1070 11-07-2016 17:05:00 24.7 C 59 % 16.15 C
1071 11-07-2016 17:10:00 24.5 C 62 % 16.74 C
1072 11-07-2016 17:15:00 24.3 C 62 % 16.55 C
1073 11-07-2016 17:20:00 24.2 C 64 % 16.96 C
1074 11-07-2016 17:25:00 24.1 C 63 % 16.62 C
1075 11-07-2016 17:30:00 24.1 C 63 % 16.62 C
Sensor: Nr:Datum:Temp:Feuchte:Taupunkt:
Aussen-T/F 1076 11-07-2016 17:35:00 24.1 C 64 % 16.86 C
1077 11-07-2016 17:40:00 23.9 C 70 % 18.09 C
1078 11-07-2016 17:45:00 23.8 C 66 % 17.07 C
1079 11-07-2016 17:50:00 23.9 C 64 % 16.68 C
1080 11-07-2016 17:55:00 24.2 C 61 % 16.2 C
1081 11-07-2016 18:00:00 24.4 C 59 % 15.87 C
1082 11-07-2016 18:05:00 24.3 C 59 % 15.78 C
1083 11-07-2016 18:10:00 24.2 C 59 % 15.68 C
1084 11-07-2016 18:15:00 24.1 C 58 % 15.32 C
1085 11-07-2016 18:20:00 24 C 61 % 16.02 C
1086 11-07-2016 18:25:00 24 C 58 % 15.23 C
1087 11-07-2016 18:30:00 24.2 C 57 % 15.14 C
1088 11-07-2016 18:35:00 24.2 C 56 % 14.87 C
1089 11-07-2016 18:40:00 24.1 C 56 % 14.78 C
1090 11-07-2016 18:45:00 24.1 C 57 % 15.05 C
1091 11-07-2016 18:50:00 24.3 C 59 % 15.78 C
1092 11-07-2016 18:55:00 24.4 C 56 % 15.06 C
1093 11-07-2016 19:00:00 24.4 C 56 % 15.06 C
1094 11-07-2016 19:05:00 24.2 C 54 % 14.31 C
1095 11-07-2016 19:10:00 23.9 C 54 % 14.03 C
1096 11-07-2016 19:15:00 23.6 C 56 % 14.31 C
1097 11-07-2016 19:20:00 23.6 C 56 % 14.31 C
1098 11-07-2016 19:25:00 23.7 C 56 % 14.4 C
1099 11-07-2016 19:30:00 23.6 C 55 % 14.03 C
1100 11-07-2016 19:35:00 23.4 C 56 % 14.13 C
Sensor: Nr:Datum:Temp:Feuchte:Taupunkt:
Aussen-T/F 1101 11-07-2016 19:40:00 23.2 C 57 % 14.21 C
1102 11-07-2016 19:45:00 23.1 C 58 % 14.39 C
1103 11-07-2016 19:50:00 23.2 C 59 % 14.75 C
1104 11-07-2016 19:55:00 23.3 C 59 % 14.84 C
1105 11-07-2016 20:00:00 23.2 C 59 % 14.75 C
1106 11-07-2016 20:05:00 22.8 C 58 % 14.11 C
1107 11-07-2016 20:10:00 22.6 C 60 % 14.44 C
1108 11-07-2016 20:15:00 22.2 C 61 % 14.32 C
1109 11-07-2016 20:20:00 21.9 C 61 % 14.04 C
1110 11-07-2016 20:25:00 21.7 C 63 % 14.35 C
1111 11-07-2016 20:30:00 21.4 C 62 % 13.82 C
1112 11-07-2016 20:35:00 21.3 C 64 % 14.22 C
1113 11-07-2016 20:40:00 21.2 C 64 % 14.12 C
1114 11-07-2016 20:45:00 21.1 C 64 % 14.03 C
1115 11-07-2016 20:50:00 20.9 C 64 % 13.84 C
1116 11-07-2016 20:55:00 20.8 C 65 % 13.98 C
1117 11-07-2016 21:00:00 20.8 C 65 % 13.98 C
1118 11-07-2016 21:05:00 20.7 C 66 % 14.12 C
1119 11-07-2016 21:10:00 20.6 C 66 % 14.03 C
1120 11-07-2016 21:15:00 20.5 C 66 % 13.93 C
1121 11-07-2016 21:20:00 20.4 C 65 % 13.6 C
1122 11-07-2016 21:25:00 20.4 C 66 % 13.84 C
1123 11-07-2016 21:30:00 20.3 C 67 % 13.97 C
1124 11-07-2016 21:35:00 20.2 C 67 % 13.88 C
1125 11-07-2016 21:40:00 20.1 C 66 % 13.55 C
Sensor: Nr:Datum:Temp:Feuchte:Taupunkt:
Aussen-T/F 1126 11-07-2016 21:45:00 20.1 C 66 % 13.55 C
1127 11-07-2016 21:50:00 20.1 C 67 % 13.78 C
1128 11-07-2016 21:55:00 20 C 67 % 13.69 C
1129 11-07-2016 22:00:00 19.9 C 68 % 13.82 C
1130 11-07-2016 22:05:00 19.9 C 69 % 14.05 C
1131 11-07-2016 22:10:00 19.8 C 68 % 13.73 C
1132 11-07-2016 22:15:00 19.8 C 70 % 14.17 C
1133 11-07-2016 22:20:00 19.7 C 70 % 14.08 C
1134 11-07-2016 22:25:00 19.7 C 71 % 14.3 C
1135 11-07-2016 22:30:00 19.6 C 70 % 13.98 C
1136 11-07-2016 22:35:00 19.6 C 71 % 14.2 C
1137 11-07-2016 22:40:00 19.4 C 71 % 14.01 C
1138 11-07-2016 22:45:00 19.4 C 71 % 14.01 C
1139 11-07-2016 22:50:00 19.3 C 73 % 14.34 C
1140 11-07-2016 22:55:00 19.3 C 72 % 14.13 C
1141 11-07-2016 23:00:00 19.2 C 73 % 14.25 C
1142 11-07-2016 23:05:00 19.2 C 73 % 14.25 C
1143 11-07-2016 23:10:00 19.1 C 74 % 14.36 C
1144 11-07-2016 23:15:00 19.1 C 74 % 14.36 C
1145 11-07-2016 23:20:00 18.9 C 75 % 14.37 C
1146 11-07-2016 23:25:00 18.9 C 75 % 14.37 C
1147 11-07-2016 23:30:00 18.8 C 76 % 14.48 C
1148 11-07-2016 23:35:00 18.8 C 75 % 14.28 C
1149 11-07-2016 23:40:00 18.7 C 75 % 14.18 C
1150 11-07-2016 23:45:00 18.7 C 75 % 14.18 C
Sensor: Nr:Datum:Temp:Feuchte:Taupunkt:
Aussen-T/F 1151 11-07-2016 23:50:00 18.6 C 76 % 14.29 C
1152 11-07-2016 23:55:00 18.6 C 77 % 14.49 C
1153 12-07-2016 00:00:00 18.6 C 77 % 14.49 C
1154 12-07-2016 00:05:00 18.4 C 77 % 14.3 C
1155 12-07-2016 00:10:00 18.4 C 77 % 14.3 C
1156 12-07-2016 00:15:00 18.3 C 77 % 14.2 C
1157 12-07-2016 00:20:00 18.3 C 79 % 14.6 C
1158 12-07-2016 00:25:00 18.3 C 79 % 14.6 C
1159 12-07-2016 00:30:00 18.3 C 80 % 14.79 C
1160 12-07-2016 00:35:00 18.2 C 79 % 14.5 C
1161 12-07-2016 00:40:00 18.2 C 79 % 14.5 C
1162 12-07-2016 00:45:00 18.1 C 79 % 14.4 C
1163 12-07-2016 00:50:00 18.1 C 78 % 14.21 C
1164 12-07-2016 00:55:00 18.1 C 78 % 14.21 C
1165 12-07-2016 01:00:00 18.1 C 78 % 14.21 C
1166 12-07-2016 01:05:00 18.1 C 77 % 14.01 C
1167 12-07-2016 01:10:00 18.1 C 78 % 14.21 C
1168 12-07-2016 01:15:00 17.9 C 78 % 14.01 C
1169 12-07-2016 01:20:00 17.8 C 78 % 13.91 C
1170 12-07-2016 01:25:00 17.7 C 79 % 14.01 C
1171 12-07-2016 01:30:00 17.5 C 78 % 13.62 C
1172 12-07-2016 01:35:00 17.4 C 78 % 13.53 C
1173 12-07-2016 01:40:00 17.4 C 79 % 13.72 C
1174 12-07-2016 01:45:00 17.4 C 78 % 13.53 C
1175 12-07-2016 01:50:00 17.3 C 79 % 13.63 C
Sensor: Nr:Datum:Temp:Feuchte:Taupunkt:
Aussen-T/F 1176 12-07-2016 01:55:00 17.3 C 80 % 13.82 C
1177 12-07-2016 02:00:00 17.2 C 80 % 13.72 C
1178 12-07-2016 02:05:00 17.1 C 80 % 13.62 C
1179 12-07-2016 02:10:00 16.9 C 81 % 13.62 C
1180 12-07-2016 02:15:00 16.8 C 81 % 13.52 C
1181 12-07-2016 02:20:00 16.6 C 81 % 13.33 C
1182 12-07-2016 02:25:00 16.4 C 82 % 13.32 C
1183 12-07-2016 02:30:00 16.3 C 82 % 13.22 C
1184 12-07-2016 02:35:00 16.1 C 83 % 13.21 C
1185 12-07-2016 02:40:00 15.9 C 83 % 13.02 C
1186 12-07-2016 02:45:00 15.8 C 84 % 13.1 C
1187 12-07-2016 02:50:00 15.7 C 84 % 13.01 C
1188 12-07-2016 02:55:00 15.6 C 85 % 13.09 C
1189 12-07-2016 03:00:00 15.5 C 85 % 12.99 C
1190 12-07-2016 03:05:00 15.4 C 86 % 13.07 C
1191 12-07-2016 03:10:00 15.3 C 86 % 12.97 C
1192 12-07-2016 03:15:00 15.2 C 86 % 12.88 C
1193 12-07-2016 03:20:00 15.1 C 86 % 12.78 C
1194 12-07-2016 03:25:00 15 C 87 % 12.86 C
1195 12-07-2016 03:30:00 14.9 C 87 % 12.76 C
1196 12-07-2016 03:35:00 14.8 C 87 % 12.66 C
1197 12-07-2016 03:40:00 14.8 C 88 % 12.83 C
1198 12-07-2016 03:45:00 14.7 C 88 % 12.73 C
1199 12-07-2016 03:50:00 14.7 C 88 % 12.73 C
1200 12-07-2016 03:55:00 14.7 C 88 % 12.73 C
Sensor: Nr:Datum:Temp:Feuchte:Taupunkt:
Aussen-T/F 1201 12-07-2016 04:00:00 14.6 C 89 % 12.81 C
1202 12-07-2016 04:05:00 14.6 C 89 % 12.81 C
1203 12-07-2016 04:10:00 14.6 C 89 % 12.81 C
1204 12-07-2016 04:15:00 14.6 C 89 % 12.81 C
1205 12-07-2016 04:20:00 14.5 C 89 % 12.71 C
1206 12-07-2016 04:25:00 14.4 C 89 % 12.61 C
1207 12-07-2016 04:30:00 14.4 C 90 % 12.78 C
1208 12-07-2016 04:35:00 14.4 C 90 % 12.78 C
1209 12-07-2016 04:40:00 14.4 C 90 % 12.78 C
1210 12-07-2016 04:45:00 14.4 C 90 % 12.78 C
1211 12-07-2016 04:50:00 14.4 C 90 % 12.78 C
1212 12-07-2016 04:55:00 14.4 C 91 % 12.95 C
1213 12-07-2016 05:00:00 14.4 C 91 % 12.95 C
1214 12-07-2016 05:05:00 14.4 C 91 % 12.95 C
1215 12-07-2016 05:10:00 14.4 C 91 % 12.95 C
1216 12-07-2016 05:15:00 14.3 C 91 % 12.85 C
1217 12-07-2016 05:20:00 14.3 C 91 % 12.85 C
1218 12-07-2016 05:25:00 14.3 C 91 % 12.85 C
1219 12-07-2016 05:30:00 14.3 C 91 % 12.85 C
1220 12-07-2016 05:35:00 14.2 C 91 % 12.75 C
1221 12-07-2016 05:40:00 14.2 C 92 % 12.92 C
1222 12-07-2016 05:45:00 14.2 C 92 % 12.92 C
1223 12-07-2016 05:50:00 14.2 C 92 % 12.92 C
1224 12-07-2016 05:55:00 14.3 C 92 % 13.02 C
1225 12-07-2016 06:00:00 14.3 C 92 % 13.02 C
Sensor: Nr:Datum:Temp:Feuchte:Taupunkt:
Aussen-T/F 1226 12-07-2016 06:05:00 14.3 C 92 % 13.02 C
1227 12-07-2016 06:10:00 14.5 C 92 % 13.22 C
1228 12-07-2016 06:15:00 14.6 C 92 % 13.32 C
1229 12-07-2016 06:20:00 14.7 C 92 % 13.41 C
1230 12-07-2016 06:25:00 14.7 C 91 % 13.25 C
1231 12-07-2016 06:30:00 14.7 C 91 % 13.25 C
1232 12-07-2016 06:35:00 14.8 C 91 % 13.35 C
1233 12-07-2016 06:40:00 14.8 C 91 % 13.35 C
1234 12-07-2016 06:45:00 14.8 C 91 % 13.35 C
1235 12-07-2016 06:50:00 14.8 C 91 % 13.35 C
1236 12-07-2016 06:55:00 14.9 C 91 % 13.44 C
1237 12-07-2016 07:00:00 14.8 C 90 % 13.18 C
1238 12-07-2016 07:05:00 14.9 C 91 % 13.44 C
1239 12-07-2016 07:10:00 14.9 C 90 % 13.28 C
1240 12-07-2016 07:15:00 15 C 91 % 13.54 C
1241 12-07-2016 07:20:00 15.1 C 91 % 13.64 C
1242 12-07-2016 07:25:00 15.2 C 91 % 13.74 C
1243 12-07-2016 07:30:00 15.3 C 90 % 13.67 C
1244 12-07-2016 07:35:00 15.5 C 89 % 13.7 C
1245 12-07-2016 07:40:00 15.6 C 89 % 13.79 C
1246 12-07-2016 07:45:00 15.7 C 89 % 13.89 C
1247 12-07-2016 07:50:00 15.7 C 90 % 14.06 C
1248 12-07-2016 07:55:00 15.8 C 90 % 14.16 C
1249 12-07-2016 08:00:00 15.9 C 89 % 14.09 C
1250 12-07-2016 08:05:00 16 C 89 % 14.19 C
Sensor: Nr:Datum:Temp:Feuchte:Taupunkt:
Aussen-T/F 1251 12-07-2016 08:10:00 16.1 C 87 % 13.94 C
1252 12-07-2016 08:15:00 16.3 C 87 % 14.13 C
1253 12-07-2016 08:20:00 16.4 C 87 % 14.23 C
1254 12-07-2016 08:25:00 16.7 C 87 % 14.53 C
1255 12-07-2016 08:30:00 16.9 C 86 % 14.54 C
1256 12-07-2016 08:35:00 17.1 C 85 % 14.56 C
1257 12-07-2016 08:40:00 17.3 C 83 % 14.39 C
1258 12-07-2016 08:45:00 17.5 C 83 % 14.58 C
1259 12-07-2016 08:50:00 17.7 C 84 % 14.96 C
1260 12-07-2016 08:55:00 17.8 C 85 % 15.25 C
1261 12-07-2016 09:00:00 17.9 C 85 % 15.34 C
1262 12-07-2016 09:05:00 18 C 85 % 15.44 C
1263 12-07-2016 09:10:00 18.1 C 84 % 15.35 C
1264 12-07-2016 09:15:00 18.2 C 82 % 15.08 C
1265 12-07-2016 09:20:00 18.3 C 83 % 15.36 C
1266 12-07-2016 09:25:00 18.3 C 80 % 14.79 C
1267 12-07-2016 09:30:00 18.4 C 82 % 15.27 C
1268 12-07-2016 09:35:00 18.5 C 80 % 14.99 C
1269 12-07-2016 09:40:00 18.6 C 79 % 14.89 C
1270 12-07-2016 09:45:00 18.7 C 77 % 14.59 C
1271 12-07-2016 09:50:00 18.8 C 76 % 14.48 C
1272 12-07-2016 09:55:00 18.9 C 79 % 15.18 C
1273 12-07-2016 10:00:00 19.1 C 79 % 15.37 C
1274 12-07-2016 10:05:00 19.3 C 78 % 15.37 C
1275 12-07-2016 10:10:00 19.4 C 75 % 14.86 C
Sensor: Nr:Datum:Temp:Feuchte:Taupunkt:
Aussen-T/F 1276 12-07-2016 10:15:00 19.7 C 73 % 14.73 C
1277 12-07-2016 10:20:00 19.8 C 73 % 14.82 C
1278 12-07-2016 10:25:00 20.1 C 71 % 14.68 C
1279 12-07-2016 10:30:00 20.2 C 69 % 14.33 C
1280 12-07-2016 10:35:00 20.3 C 73 % 15.3 C
1281 12-07-2016 10:40:00 20.2 C 70 % 14.56 C
1282 12-07-2016 10:45:00 20.2 C 70 % 14.56 C
1283 12-07-2016 10:50:00 20.3 C 69 % 14.43 C
1284 12-07-2016 10:55:00 20.4 C 70 % 14.75 C
1285 12-07-2016 11:00:00 20.6 C 70 % 14.94 C
1286 12-07-2016 11:05:00 20.8 C 67 % 14.45 C
1287 12-07-2016 11:10:00 20.8 C 70 % 15.13 C
1288 12-07-2016 11:15:00 20.9 C 66 % 14.31 C
1289 12-07-2016 11:20:00 20.9 C 67 % 14.55 C
1290 12-07-2016 11:25:00 21 C 65 % 14.17 C
1291 12-07-2016 11:30:00 21.1 C 67 % 14.74 C
1292 12-07-2016 11:35:00 21.1 C 67 % 14.74 C
1293 12-07-2016 11:40:00 21.1 C 69 % 15.19 C
1294 12-07-2016 11:45:00 21 C 71 % 15.54 C
1295 12-07-2016 11:50:00 21.1 C 67 % 14.74 C
1296 12-07-2016 11:55:00 21.3 C 64 % 14.22 C
1297 12-07-2016 12:00:00 21.6 C 63 % 14.26 C
1298 12-07-2016 12:05:00 21.8 C 64 % 14.69 C
1299 12-07-2016 12:10:00 21.9 C 66 % 15.26 C
1300 12-07-2016 12:15:00 22.1 C 62 % 14.48 C
Sensor: Nr:Datum:Temp:Feuchte:Taupunkt:
Aussen-T/F 1301 12-07-2016 12:20:00 22.2 C 63 % 14.82 C
1302 12-07-2016 12:25:00 22.2 C 67 % 15.78 C
1303 12-07-2016 12:30:00 22.1 C 61 % 14.23 C
1304 12-07-2016 12:35:00 21.9 C 63 % 14.54 C
1305 12-07-2016 12:40:00 21.8 C 70 % 16.09 C
1306 12-07-2016 12:45:00 21.7 C 73 % 16.65 C
1307 12-07-2016 12:50:00 21.7 C 69 % 15.77 C
1308 12-07-2016 12:55:00 21.6 C 65 % 14.74 C
1309 12-07-2016 13:00:00 21.7 C 62 % 14.1 C
1310 12-07-2016 13:05:00 21.9 C 68 % 15.73 C
1311 12-07-2016 13:10:00 22.1 C 67 % 15.69 C
1312 12-07-2016 13:15:00 22.2 C 68 % 16.01 C
1313 12-07-2016 13:20:00 22.2 C 69 % 16.24 C
1314 12-07-2016 13:25:00 22.1 C 69 % 16.15 C
1315 12-07-2016 13:30:00 22.1 C 65 % 15.21 C
1316 12-07-2016 13:35:00 22.1 C 62 % 14.48 C
1317 12-07-2016 13:40:00 22.2 C 60 % 14.07 C
1318 12-07-2016 13:45:00 22.3 C 58 % 13.64 C
1319 12-07-2016 13:50:00 22.6 C 58 % 13.92 C
1320 12-07-2016 13:55:00 22.7 C 57 % 13.75 C
1321 12-07-2016 14:00:00 22.8 C 57 % 13.84 C
1322 12-07-2016 14:05:00 22.8 C 56 % 13.57 C
1323 12-07-2016 14:10:00 22.8 C 62 % 15.14 C
1324 12-07-2016 14:15:00 22.7 C 55 % 13.2 C
1325 12-07-2016 14:20:00 22.8 C 60 % 14.63 C
Sensor: Nr:Datum:Temp:Feuchte:Taupunkt:
Aussen-T/F 1326 12-07-2016 14:25:00 22.8 C 56 % 13.57 C
1327 12-07-2016 14:30:00 22.9 C 56 % 13.66 C
1328 12-07-2016 14:35:00 23.2 C 56 % 13.94 C
1329 12-07-2016 14:40:00 23.4 C 52 % 12.99 C
1330 12-07-2016 14:45:00 23.6 C 56 % 14.31 C
1331 12-07-2016 14:50:00 23.8 C 52 % 13.36 C
1332 12-07-2016 14:55:00 23.9 C 52 % 13.45 C
1333 12-07-2016 15:00:00 24.2 C 52 % 13.73 C
1334 12-07-2016 15:05:00 24.3 C 54 % 14.4 C
1335 12-07-2016 15:10:00 24.4 C 49 % 13 C
1336 12-07-2016 15:15:00 24.6 C 48 % 12.87 C
1337 12-07-2016 15:20:00 24.8 C 47 % 12.73 C
1338 12-07-2016 15:25:00 24.9 C 49 % 13.46 C
1339 12-07-2016 15:30:00 25.1 C 49 % 13.64 C
1340 12-07-2016 15:35:00 25.3 C 48 % 13.5 C
1341 12-07-2016 15:40:00 25.4 C 48 % 13.6 C
1342 12-07-2016 15:45:00 25.3 C 48 % 13.5 C
1343 12-07-2016 15:50:00 25.1 C 48 % 13.32 C
1344 12-07-2016 15:55:00 25.1 C 51 % 14.25 C
1345 12-07-2016 16:00:00 25.6 C 51 % 14.71 C
1346 12-07-2016 16:05:00 26 C 45 % 13.15 C
1347 12-07-2016 16:10:00 25.6 C 48 % 13.78 C
1348 12-07-2016 16:15:00 25.3 C 46 % 12.85 C
1349 12-07-2016 16:20:00 24.8 C 47 % 12.73 C
1350 12-07-2016 16:25:00 24.4 C 52 % 13.91 C
Sensor: Nr:Datum:Temp:Feuchte:Taupunkt:
Aussen-T/F 1351 12-07-2016 16:30:00 24.3 C 52 % 13.82 C
1352 12-07-2016 16:35:00 24.2 C 56 % 14.87 C
1353 12-07-2016 16:40:00 24.1 C 53 % 13.93 C
1354 12-07-2016 16:45:00 24.1 C 51 % 13.34 C
1355 12-07-2016 16:50:00 23.8 C 55 % 14.22 C
1356 12-07-2016 16:55:00 23.7 C 58 % 14.95 C
1357 12-07-2016 17:00:00 23.9 C 58 % 15.14 C
1358 12-07-2016 17:05:00 24.2 C 55 % 14.59 C
1359 12-07-2016 17:10:00 24.3 C 54 % 14.4 C
1360 12-07-2016 17:15:00 24.4 C 53 % 14.2 C
1361 12-07-2016 17:20:00 24.1 C 53 % 13.93 C
1362 12-07-2016 17:25:00 23.9 C 54 % 14.03 C
1363 12-07-2016 17:30:00 24 C 55 % 14.41 C
1364 12-07-2016 17:35:00 24 C 55 % 14.41 C
1365 12-07-2016 17:40:00 24.1 C 55 % 14.5 C
1366 12-07-2016 17:45:00 24.2 C 52 % 13.73 C
1367 12-07-2016 17:50:00 24.6 C 53 % 14.39 C
1368 12-07-2016 17:55:00 24.7 C 53 % 14.48 C
1369 12-07-2016 18:00:00 24.6 C 53 % 14.39 C
1370 12-07-2016 18:05:00 24.2 C 54 % 14.31 C
1371 12-07-2016 18:10:00 24.3 C 55 % 14.68 C
1372 12-07-2016 18:15:00 24.2 C 53 % 14.02 C
1373 12-07-2016 18:20:00 23.8 C 54 % 13.94 C
1374 12-07-2016 18:25:00 23.3 C 56 % 14.03 C
1375 12-07-2016 18:30:00 22.9 C 57 % 13.93 C
Sensor: Nr:Datum:Temp:Feuchte:Taupunkt:
Aussen-T/F 1376 12-07-2016 18:35:00 22.8 C 59 % 14.37 C
1377 12-07-2016 18:40:00 22.7 C 64 % 15.54 C
1378 12-07-2016 18:45:00 23.1 C 65 % 16.16 C
1379 12-07-2016 18:50:00 23.1 C 63 % 15.67 C
1380 12-07-2016 18:55:00 23.2 C 63 % 15.77 C
1381 12-07-2016 19:00:00 23.1 C 58 % 14.39 C
1382 12-07-2016 19:05:00 22.6 C 59 % 14.18 C
1383 12-07-2016 19:10:00 22.3 C 59 % 13.9 C
1384 12-07-2016 19:15:00 22.3 C 59 % 13.9 C
1385 12-07-2016 19:20:00 22.2 C 58 % 13.55 C
1386 12-07-2016 19:25:00 22.1 C 60 % 13.98 C
1387 12-07-2016 19:30:00 22.1 C 61 % 14.23 C
1388 12-07-2016 19:35:00 21.9 C 61 % 14.04 C
1389 12-07-2016 19:40:00 21.8 C 62 % 14.2 C
1390 12-07-2016 19:45:00 21.7 C 63 % 14.35 C
1391 12-07-2016 19:50:00 21.6 C 63 % 14.26 C
1392 12-07-2016 19:55:00 21.3 C 64 % 14.22 C
1393 12-07-2016 20:00:00 21.1 C 64 % 14.03 C
1394 12-07-2016 20:05:00 20.8 C 66 % 14.22 C
1395 12-07-2016 20:10:00 20.5 C 69 % 14.62 C
1396 12-07-2016 20:15:00 20.3 C 73 % 15.3 C
1397 12-07-2016 20:20:00 19.9 C 75 % 15.34 C
1398 12-07-2016 20:25:00 19.6 C 77 % 15.46 C
1399 12-07-2016 20:30:00 19.1 C 77 % 14.97 C
1400 12-07-2016 20:35:00 18.6 C 78 % 14.69 C
Sensor: Nr:Datum:Temp:Feuchte:Taupunkt:
Aussen-T/F 1401 12-07-2016 20:40:00 18.2 C 80 % 14.69 C
1402 12-07-2016 20:45:00 17.9 C 80 % 14.4 C
1403 12-07-2016 20:50:00 17.7 C 81 % 14.4 C
1404 12-07-2016 20:55:00 17.6 C 83 % 14.68 C
1405 12-07-2016 21:00:00 17.4 C 81 % 14.11 C
1406 12-07-2016 21:05:00 17.4 C 83 % 14.48 C
1407 12-07-2016 21:10:00 17.3 C 84 % 14.57 C
1408 12-07-2016 21:15:00 17.2 C 84 % 14.47 C
1409 12-07-2016 21:20:00 17.3 C 81 % 14.01 C
1410 12-07-2016 21:25:00 17.4 C 79 % 13.72 C
1411 12-07-2016 21:30:00 17.7 C 78 % 13.82 C
1412 12-07-2016 21:35:00 17.8 C 78 % 13.91 C
1413 12-07-2016 21:40:00 17.9 C 80 % 14.4 C
1414 12-07-2016 21:45:00 17.8 C 83 % 14.88 C
1415 12-07-2016 21:50:00 17.7 C 86 % 15.33 C
1416 12-07-2016 21:55:00 17.5 C 86 % 15.13 C
1417 12-07-2016 22:00:00 17.3 C 87 % 15.12 C
1418 12-07-2016 22:05:00 17 C 87 % 14.82 C
1419 12-07-2016 22:10:00 16.8 C 88 % 14.8 C
1420 12-07-2016 22:15:00 16.6 C 89 % 14.78 C
1421 12-07-2016 22:20:00 16.5 C 90 % 14.85 C
1422 12-07-2016 22:25:00 16.4 C 90 % 14.76 C
1423 12-07-2016 22:30:00 16.3 C 91 % 14.83 C
1424 12-07-2016 22:35:00 16.3 C 91 % 14.83 C
1425 12-07-2016 22:40:00 16.3 C 92 % 15 C
Sensor: Nr:Datum:Temp:Feuchte:Taupunkt:
Aussen-T/F 1426 12-07-2016 22:45:00 16.2 C 92 % 14.9 C
1427 12-07-2016 22:50:00 16.2 C 92 % 14.9 C
1428 12-07-2016 22:55:00 16.1 C 92 % 14.8 C
1429 12-07-2016 23:00:00 16 C 92 % 14.7 C
1430 12-07-2016 23:05:00 15.9 C 92 % 14.6 C
1431 12-07-2016 23:10:00 15.8 C 92 % 14.5 C
1432 12-07-2016 23:15:00 15.7 C 92 % 14.4 C
1433 12-07-2016 23:20:00 15.7 C 92 % 14.4 C
1434 12-07-2016 23:25:00 15.6 C 92 % 14.31 C
1435 12-07-2016 23:30:00 15.5 C 93 % 14.37 C
1436 12-07-2016 23:35:00 15.4 C 93 % 14.27 C
1437 12-07-2016 23:40:00 15.3 C 93 % 14.18 C
1438 12-07-2016 23:45:00 15.3 C 93 % 14.18 C
1439 12-07-2016 23:50:00 15.3 C 93 % 14.18 C
1440 12-07-2016 23:55:00 15.3 C 94 % 14.34 C
1441 13-07-2016 00:00:00 15.3 C 94 % 14.34 C
1442 13-07-2016 00:05:00 15.2 C 94 % 14.24 C
1443 13-07-2016 00:10:00 15.2 C 94 % 14.24 C
1444 13-07-2016 00:15:00 15.1 C 94 % 14.14 C
1445 13-07-2016 00:20:00 15.1 C 93 % 13.98 C
1446 13-07-2016 00:25:00 15 C 93 % 13.88 C
1447 13-07-2016 00:30:00 14.9 C 94 % 13.94 C
1448 13-07-2016 00:35:00 14.9 C 94 % 13.94 C
1449 13-07-2016 00:40:00 14.8 C 94 % 13.84 C
1450 13-07-2016 00:45:00 14.7 C 93 % 13.58 C
Sensor: Nr:Datum:Temp:Feuchte:Taupunkt:
Aussen-T/F 1451 13-07-2016 00:50:00 14.6 C 93 % 13.48 C
1452 13-07-2016 00:55:00 14.5 C 93 % 13.38 C
1453 13-07-2016 01:00:00 14.4 C 93 % 13.28 C
1454 13-07-2016 01:05:00 14.3 C 93 % 13.18 C
1455 13-07-2016 01:10:00 14.2 C 93 % 13.08 C
1456 13-07-2016 01:15:00 14.2 C 94 % 13.25 C
1457 13-07-2016 01:20:00 14.1 C 94 % 13.15 C
1458 13-07-2016 01:25:00 14.1 C 94 % 13.15 C
1459 13-07-2016 01:30:00 14 C 94 % 13.05 C
1460 13-07-2016 01:35:00 13.9 C 94 % 12.95 C
1461 13-07-2016 01:40:00 13.9 C 94 % 12.95 C
1462 13-07-2016 01:45:00 13.9 C 94 % 12.95 C
1463 13-07-2016 01:50:00 13.8 C 94 % 12.85 C
1464 13-07-2016 01:55:00 13.8 C 94 % 12.85 C
1465 13-07-2016 02:00:00 13.8 C 94 % 12.85 C
1466 13-07-2016 02:05:00 13.8 C 94 % 12.85 C
1467 13-07-2016 02:10:00 13.7 C 94 % 12.75 C
1468 13-07-2016 02:15:00 13.7 C 94 % 12.75 C
1469 13-07-2016 02:20:00 13.7 C 94 % 12.75 C
1470 13-07-2016 02:25:00 13.6 C 94 % 12.65 C
1471 13-07-2016 02:30:00 13.6 C 95 % 12.81 C
1472 13-07-2016 02:35:00 13.6 C 95 % 12.81 C
1473 13-07-2016 02:40:00 13.5 C 95 % 12.72 C
1474 13-07-2016 02:45:00 13.4 C 94 % 12.45 C
1475 13-07-2016 02:50:00 13.4 C 94 % 12.45 C
Sensor: Nr:Datum:Temp:Feuchte:Taupunkt:
Aussen-T/F 1476 13-07-2016 02:55:00 13.3 C 94 % 12.36 C
1477 13-07-2016 03:00:00 13.3 C 94 % 12.36 C
1478 13-07-2016 03:05:00 13.3 C 95 % 12.52 C
1479 13-07-2016 03:10:00 13.3 C 95 % 12.52 C
1480 13-07-2016 03:15:00 13.3 C 95 % 12.52 C
1481 13-07-2016 03:20:00 13.3 C 95 % 12.52 C
1482 13-07-2016 03:25:00 13.2 C 95 % 12.42 C
1483 13-07-2016 03:30:00 13.2 C 95 % 12.42 C
1484 13-07-2016 03:35:00 13.2 C 95 % 12.42 C
1485 13-07-2016 03:40:00 13.1 C 95 % 12.32 C
1486 13-07-2016 03:45:00 13.1 C 95 % 12.32 C
1487 13-07-2016 03:50:00 13 C 95 % 12.22 C
1488 13-07-2016 03:55:00 12.9 C 95 % 12.12 C
1489 13-07-2016 04:00:00 12.9 C 95 % 12.12 C
1490 13-07-2016 04:05:00 12.8 C 95 % 12.02 C
1491 13-07-2016 04:10:00 12.8 C 95 % 12.02 C
1492 13-07-2016 04:15:00 12.7 C 95 % 11.92 C
1493 13-07-2016 04:20:00 12.7 C 95 % 11.92 C
1494 13-07-2016 04:25:00 12.6 C 95 % 11.82 C
1495 13-07-2016 04:30:00 12.5 C 95 % 11.72 C
1496 13-07-2016 04:35:00 12.4 C 95 % 11.62 C
1497 13-07-2016 04:40:00 12.4 C 95 % 11.62 C
1498 13-07-2016 04:45:00 12.4 C 95 % 11.62 C
1499 13-07-2016 04:50:00 12.4 C 95 % 11.62 C
1500 13-07-2016 04:55:00 12.4 C 95 % 11.62 C
Sensor: Nr:Datum:Temp:Feuchte:Taupunkt:
Aussen-T/F 1501 13-07-2016 05:00:00 12.3 C 95 % 11.52 C
1502 13-07-2016 05:05:00 12.3 C 95 % 11.52 C
1503 13-07-2016 05:10:00 12.3 C 95 % 11.52 C
1504 13-07-2016 05:15:00 12.4 C 95 % 11.62 C
1505 13-07-2016 05:20:00 12.4 C 95 % 11.62 C
1506 13-07-2016 05:25:00 12.3 C 95 % 11.52 C
1507 13-07-2016 05:30:00 12.3 C 95 % 11.52 C
1508 13-07-2016 05:35:00 12.2 C 95 % 11.42 C
1509 13-07-2016 05:40:00 12.3 C 96 % 11.68 C
1510 13-07-2016 05:45:00 12.3 C 96 % 11.68 C
1511 13-07-2016 05:50:00 12.4 C 96 % 11.78 C
1512 13-07-2016 05:55:00 12.5 C 96 % 11.88 C
1513 13-07-2016 06:00:00 12.6 C 96 % 11.98 C
1514 13-07-2016 06:05:00 12.7 C 96 % 12.08 C
1515 13-07-2016 06:10:00 12.8 C 96 % 12.18 C
1516 13-07-2016 06:15:00 12.8 C 96 % 12.18 C
1517 13-07-2016 06:20:00 12.9 C 96 % 12.28 C
1518 13-07-2016 06:25:00 12.9 C 96 % 12.28 C
1519 13-07-2016 06:30:00 12.9 C 96 % 12.28 C
1520 13-07-2016 06:35:00 12.9 C 96 % 12.28 C
1521 13-07-2016 06:40:00 12.9 C 96 % 12.28 C
1522 13-07-2016 06:45:00 13 C 96 % 12.38 C
1523 13-07-2016 06:50:00 12.9 C 96 % 12.28 C
1524 13-07-2016 06:55:00 12.9 C 96 % 12.28 C
1525 13-07-2016 07:00:00 12.9 C 96 % 12.28 C
Sensor: Nr:Datum:Temp:Feuchte:Taupunkt:
Aussen-T/F 1526 13-07-2016 07:05:00 12.9 C 96 % 12.28 C
1527 13-07-2016 07:10:00 12.9 C 96 % 12.28 C
1528 13-07-2016 07:15:00 12.9 C 96 % 12.28 C
1529 13-07-2016 07:20:00 13.1 C 96 % 12.48 C
1530 13-07-2016 07:25:00 13.1 C 96 % 12.48 C
1531 13-07-2016 07:30:00 13.1 C 96 % 12.48 C
1532 13-07-2016 07:35:00 13.2 C 96 % 12.58 C
1533 13-07-2016 07:40:00 13.3 C 96 % 12.68 C
1534 13-07-2016 07:45:00 13.3 C 96 % 12.68 C
1535 13-07-2016 07:50:00 13.3 C 96 % 12.68 C
1536 13-07-2016 07:55:00 13.3 C 96 % 12.68 C
1537 13-07-2016 08:00:00 13.4 C 96 % 12.78 C
1538 13-07-2016 08:05:00 13.4 C 96 % 12.78 C
1539 13-07-2016 08:10:00 13.4 C 96 % 12.78 C
1540 13-07-2016 08:15:00 13.5 C 96 % 12.87 C
1541 13-07-2016 08:20:00 13.6 C 96 % 12.97 C
1542 13-07-2016 08:25:00 13.7 C 96 % 13.07 C
1543 13-07-2016 08:30:00 13.9 C 96 % 13.27 C
1544 13-07-2016 08:35:00 14 C 96 % 13.37 C
1545 13-07-2016 08:40:00 13.9 C 96 % 13.27 C
1546 13-07-2016 08:45:00 13.9 C 96 % 13.27 C
1547 13-07-2016 08:50:00 14 C 96 % 13.37 C
1548 13-07-2016 08:55:00 14.1 C 96 % 13.47 C
1549 13-07-2016 09:00:00 14.2 C 96 % 13.57 C
1550 13-07-2016 09:05:00 14.4 C 96 % 13.77 C
Sensor: Nr:Datum:Temp:Feuchte:Taupunkt:
Aussen-T/F 1551 13-07-2016 09:10:00 14.6 C 96 % 13.97 C
1552 13-07-2016 09:15:00 14.8 C 96 % 14.17 C
1553 13-07-2016 09:20:00 15 C 95 % 14.21 C
1554 13-07-2016 09:25:00 15.2 C 95 % 14.4 C
1555 13-07-2016 09:30:00 15.4 C 95 % 14.6 C
1556 13-07-2016 09:35:00 15.6 C 94 % 14.64 C
1557 13-07-2016 09:40:00 15.7 C 93 % 14.57 C
1558 13-07-2016 09:45:00 15.8 C 90 % 14.16 C
1559 13-07-2016 09:50:00 15.8 C 90 % 14.16 C
1560 13-07-2016 09:55:00 16 C 89 % 14.19 C
1561 13-07-2016 10:00:00 16.2 C 90 % 14.56 C
1562 13-07-2016 10:05:00 16.3 C 89 % 14.48 C
1563 13-07-2016 10:10:00 16.2 C 88 % 14.21 C
1564 13-07-2016 10:15:00 16.2 C 87 % 14.03 C
1565 13-07-2016 10:20:00 16.1 C 85 % 13.58 C
1566 13-07-2016 10:25:00 16 C 85 % 13.48 C
1567 13-07-2016 10:30:00 15.1 C 85 % 12.6 C
1568 13-07-2016 10:35:00 14.2 C 87 % 12.07 C
1569 13-07-2016 10:40:00 13.7 C 89 % 11.92 C
1570 13-07-2016 10:45:00 13.3 C 91 % 11.86 C
1571 13-07-2016 10:50:00 13.2 C 92 % 11.93 C
1572 13-07-2016 10:55:00 13 C 92 % 11.73 C
1573 13-07-2016 11:00:00 12.9 C 93 % 11.8 C
1574 13-07-2016 11:05:00 12.9 C 93 % 11.8 C
1575 13-07-2016 11:10:00 12.9 C 94 % 11.96 C
Sensor: Nr:Datum:Temp:Feuchte:Taupunkt:
Aussen-T/F 1576 13-07-2016 11:15:00 12.9 C 94 % 11.96 C
1577 13-07-2016 11:20:00 12.9 C 94 % 11.96 C
1578 13-07-2016 11:25:00 12.9 C 94 % 11.96 C
1579 13-07-2016 11:30:00 13 C 94 % 12.06 C
1580 13-07-2016 11:35:00 13.1 C 95 % 12.32 C
1581 13-07-2016 11:40:00 13.3 C 95 % 12.52 C
1582 13-07-2016 11:45:00 13.5 C 95 % 12.72 C
1583 13-07-2016 11:50:00 13.7 C 95 % 12.91 C
1584 13-07-2016 11:55:00 13.9 C 96 % 13.27 C
1585 13-07-2016 12:00:00 14.3 C 96 % 13.67 C
1586 13-07-2016 12:05:00 14.4 C 96 % 13.77 C
1587 13-07-2016 12:10:00 14.5 C 95 % 13.71 C
1588 13-07-2016 12:15:00 14.8 C 96 % 14.17 C
1589 13-07-2016 12:20:00 14.9 C 96 % 14.27 C
1590 13-07-2016 12:25:00 14.7 C 94 % 13.74 C
1591 13-07-2016 12:30:00 14.8 C 95 % 14.01 C
1592 13-07-2016 12:35:00 14.8 C 94 % 13.84 C
1593 13-07-2016 12:40:00 14.9 C 94 % 13.94 C
1594 13-07-2016 12:45:00 15 C 93 % 13.88 C
1595 13-07-2016 12:50:00 15.2 C 93 % 14.08 C
1596 13-07-2016 12:55:00 15.4 C 93 % 14.27 C
1597 13-07-2016 13:00:00 15.4 C 92 % 14.11 C
1598 13-07-2016 13:05:00 15.4 C 92 % 14.11 C
1599 13-07-2016 13:10:00 15.6 C 93 % 14.47 C
1600 13-07-2016 13:15:00 15.7 C 93 % 14.57 C
Sensor: Nr:Datum:Temp:Feuchte:Taupunkt:
Aussen-T/F 1601 13-07-2016 13:20:00 15.8 C 93 % 14.67 C
1602 13-07-2016 13:25:00 15.8 C 93 % 14.67 C
1603 13-07-2016 13:30:00 15.9 C 93 % 14.77 C
1604 13-07-2016 13:35:00 15.9 C 92 % 14.6 C
1605 13-07-2016 13:40:00 16 C 91 % 14.53 C
1606 13-07-2016 13:45:00 15.9 C 89 % 14.09 C
1607 13-07-2016 13:50:00 16.1 C 90 % 14.46 C
1608 13-07-2016 13:55:00 16.1 C 88 % 14.11 C
1609 13-07-2016 14:00:00 16.2 C 89 % 14.39 C
1610 13-07-2016 14:05:00 16.2 C 86 % 13.86 C
1611 13-07-2016 14:10:00 16.5 C 90 % 14.85 C
1612 13-07-2016 14:15:00 16.7 C 90 % 15.05 C
1613 13-07-2016 14:20:00 16.8 C 87 % 14.62 C
1614 13-07-2016 14:25:00 16.9 C 86 % 14.54 C
1615 13-07-2016 14:30:00 17.1 C 81 % 13.82 C
1616 13-07-2016 14:35:00 17.3 C 80 % 13.82 C
1617 13-07-2016 14:40:00 17.5 C 85 % 14.95 C
1618 13-07-2016 14:45:00 17.5 C 81 % 14.2 C
1619 13-07-2016 14:50:00 17.6 C 81 % 14.3 C
1620 13-07-2016 14:55:00 17.6 C 80 % 14.11 C
1621 13-07-2016 15:00:00 17.6 C 79 % 13.92 C
1622 13-07-2016 15:05:00 17.9 C 77 % 13.81 C
1623 13-07-2016 15:10:00 18.1 C 76 % 13.81 C
1624 13-07-2016 15:15:00 18.2 C 81 % 14.89 C
1625 13-07-2016 15:20:00 18.1 C 80 % 14.6 C
Sensor: Nr:Datum:Temp:Feuchte:Taupunkt:
Aussen-T/F 1626 13-07-2016 15:25:00 17.9 C 76 % 13.61 C
1627 13-07-2016 15:30:00 18.1 C 75 % 13.6 C
1628 13-07-2016 15:35:00 18.4 C 73 % 13.48 C
1629 13-07-2016 15:40:00 18.9 C 76 % 14.58 C
1630 13-07-2016 15:45:00 19.4 C 72 % 14.22 C
1631 13-07-2016 15:50:00 19.8 C 72 % 14.61 C
1632 13-07-2016 15:55:00 19.9 C 71 % 14.49 C
1633 13-07-2016 16:00:00 19.8 C 66 % 13.27 C
1634 13-07-2016 16:05:00 19.8 C 66 % 13.27 C
1635 13-07-2016 16:10:00 19.7 C 72 % 14.51 C
1636 13-07-2016 16:15:00 19.9 C 73 % 14.92 C
1637 13-07-2016 16:20:00 20.3 C 70 % 14.65 C
1638 13-07-2016 16:25:00 20.7 C 68 % 14.58 C
1639 13-07-2016 16:30:00 20.8 C 73 % 15.78 C
1640 13-07-2016 16:35:00 20.6 C 78 % 16.63 C
1641 13-07-2016 16:40:00 20.3 C 77 % 16.14 C
1642 13-07-2016 16:45:00 19.8 C 79 % 16.05 C
1643 13-07-2016 16:50:00 18.4 C 72 % 13.26 C
1644 13-07-2016 16:55:00 17.3 C 79 % 13.63 C
1645 13-07-2016 17:00:00 16.4 C 80 % 12.94 C
1646 13-07-2016 17:05:00 15.8 C 83 % 12.92 C
1647 13-07-2016 17:10:00 15.4 C 84 % 12.71 C
1648 13-07-2016 17:15:00 15.2 C 86 % 12.88 C
1649 13-07-2016 17:20:00 15.1 C 87 % 12.95 C
1650 13-07-2016 17:25:00 15.1 C 89 % 13.3 C
Sensor: Nr:Datum:Temp:Feuchte:Taupunkt:
Aussen-T/F 1651 13-07-2016 17:30:00 15.1 C 90 % 13.47 C
1652 13-07-2016 17:35:00 15.1 C 90 % 13.47 C
1653 13-07-2016 17:40:00 15 C 90 % 13.37 C
1654 13-07-2016 17:45:00 15 C 90 % 13.37 C
1655 13-07-2016 17:50:00 15.1 C 90 % 13.47 C
1656 13-07-2016 17:55:00 15.2 C 91 % 13.74 C
1657 13-07-2016 18:00:00 15.3 C 90 % 13.67 C
1658 13-07-2016 18:05:00 15.4 C 90 % 13.77 C
1659 13-07-2016 18:10:00 15.5 C 90 % 13.87 C
1660 13-07-2016 18:15:00 15.8 C 91 % 14.33 C
1661 13-07-2016 18:20:00 16 C 91 % 14.53 C
1662 13-07-2016 18:25:00 16.2 C 91 % 14.73 C
1663 13-07-2016 18:30:00 16.2 C 90 % 14.56 C
1664 13-07-2016 18:35:00 16.1 C 89 % 14.29 C
1665 13-07-2016 18:40:00 15.9 C 88 % 13.92 C
1666 13-07-2016 18:45:00 15.8 C 88 % 13.82 C
1667 13-07-2016 18:50:00 15.9 C 90 % 14.26 C
1668 13-07-2016 18:55:00 16.5 C 92 % 15.2 C
1669 13-07-2016 19:00:00 16.6 C 89 % 14.78 C
1670 13-07-2016 19:05:00 16.7 C 89 % 14.88 C
1671 13-07-2016 19:10:00 16.8 C 90 % 15.15 C
1672 13-07-2016 19:15:00 16.8 C 89 % 14.98 C
1673 13-07-2016 19:20:00 16.7 C 88 % 14.7 C
1674 13-07-2016 19:25:00 16.5 C 89 % 14.68 C
1675 13-07-2016 19:30:00 16.4 C 89 % 14.58 C
Sensor: Nr:Datum:Temp:Feuchte:Taupunkt:
Aussen-T/F 1676 13-07-2016 19:35:00 16.3 C 90 % 14.66 C
1677 13-07-2016 19:40:00 16.1 C 90 % 14.46 C
1678 13-07-2016 19:45:00 16 C 90 % 14.36 C
1679 13-07-2016 19:50:00 15.9 C 91 % 14.43 C
1680 13-07-2016 19:55:00 15.8 C 91 % 14.33 C
1681 13-07-2016 20:00:00 15.7 C 91 % 14.24 C
1682 13-07-2016 20:05:00 15.7 C 91 % 14.24 C
1683 13-07-2016 20:10:00 15.6 C 91 % 14.14 C
1684 13-07-2016 20:15:00 15.6 C 92 % 14.31 C
1685 13-07-2016 20:20:00 15.4 C 92 % 14.11 C
1686 13-07-2016 20:25:00 15.3 C 92 % 14.01 C
1687 13-07-2016 20:30:00 15.2 C 92 % 13.91 C
1688 13-07-2016 20:35:00 15.1 C 92 % 13.81 C
1689 13-07-2016 20:40:00 15 C 93 % 13.88 C
1690 13-07-2016 20:45:00 14.9 C 93 % 13.78 C
1691 13-07-2016 20:50:00 14.7 C 92 % 13.41 C
1692 13-07-2016 20:55:00 14.5 C 92 % 13.22 C
1693 13-07-2016 21:00:00 14.4 C 92 % 13.12 C
1694 13-07-2016 21:05:00 14.3 C 93 % 13.18 C
1695 13-07-2016 21:10:00 14.2 C 93 % 13.08 C
1696 13-07-2016 21:15:00 14.2 C 93 % 13.08 C
1697 13-07-2016 21:20:00 14.2 C 94 % 13.25 C
1698 13-07-2016 21:25:00 14.1 C 94 % 13.15 C
1699 13-07-2016 21:30:00 14 C 94 % 13.05 C
1700 13-07-2016 21:35:00 13.9 C 94 % 12.95 C
Sensor: Nr:Datum:Temp:Feuchte:Taupunkt:
Aussen-T/F 1701 13-07-2016 21:40:00 13.8 C 94 % 12.85 C
1702 13-07-2016 21:45:00 13.8 C 94 % 12.85 C
1703 13-07-2016 21:50:00 13.7 C 94 % 12.75 C
1704 13-07-2016 21:55:00 13.7 C 94 % 12.75 C
1705 13-07-2016 22:00:00 13.6 C 94 % 12.65 C
1706 13-07-2016 22:05:00 13.6 C 94 % 12.65 C
1707 13-07-2016 22:10:00 13.4 C 94 % 12.45 C
1708 13-07-2016 22:15:00 13.4 C 94 % 12.45 C
1709 13-07-2016 22:20:00 13.3 C 94 % 12.36 C
1710 13-07-2016 22:25:00 13.4 C 95 % 12.62 C
1711 13-07-2016 22:30:00 13.4 C 95 % 12.62 C
1712 13-07-2016 22:35:00 13.3 C 95 % 12.52 C
1713 13-07-2016 22:40:00 13.3 C 95 % 12.52 C
1714 13-07-2016 22:45:00 13.3 C 95 % 12.52 C
1715 13-07-2016 22:50:00 13.3 C 95 % 12.52 C
1716 13-07-2016 22:55:00 13.3 C 95 % 12.52 C
1717 13-07-2016 23:00:00 13.3 C 95 % 12.52 C
1718 13-07-2016 23:05:00 13.3 C 95 % 12.52 C
1719 13-07-2016 23:10:00 13.3 C 95 % 12.52 C
1720 13-07-2016 23:15:00 13.3 C 95 % 12.52 C
1721 13-07-2016 23:20:00 13.3 C 95 % 12.52 C
1722 13-07-2016 23:25:00 13.3 C 95 % 12.52 C
1723 13-07-2016 23:30:00 13.3 C 95 % 12.52 C
1724 13-07-2016 23:35:00 13.3 C 95 % 12.52 C
1725 13-07-2016 23:40:00 13.3 C 96 % 12.68 C
Sensor: Nr:Datum:Temp:Feuchte:Taupunkt:
Aussen-T/F 1726 13-07-2016 23:45:00 13.3 C 96 % 12.68 C
1727 13-07-2016 23:50:00 13.4 C 96 % 12.78 C
1728 13-07-2016 23:55:00 13.4 C 96 % 12.78 C
1729 14-07-2016 00:00:00 13.4 C 96 % 12.78 C
1730 14-07-2016 00:05:00 13.4 C 96 % 12.78 C
1731 14-07-2016 00:10:00 13.4 C 96 % 12.78 C
1732 14-07-2016 00:15:00 13.4 C 96 % 12.78 C
1733 14-07-2016 00:20:00 13.3 C 96 % 12.68 C
1734 14-07-2016 00:25:00 13.4 C 96 % 12.78 C
1735 14-07-2016 00:30:00 13.3 C 96 % 12.68 C
1736 14-07-2016 00:35:00 13.4 C 96 % 12.78 C
1737 14-07-2016 00:40:00 13.3 C 96 % 12.68 C
1738 14-07-2016 00:45:00 13.3 C 96 % 12.68 C
1739 14-07-2016 00:50:00 13.4 C 96 % 12.78 C
1740 14-07-2016 00:55:00 13.3 C 96 % 12.68 C
1741 14-07-2016 01:00:00 13.3 C 96 % 12.68 C
1742 14-07-2016 01:05:00 13.2 C 95 % 12.42 C
1743 14-07-2016 01:10:00 13.1 C 95 % 12.32 C
1744 14-07-2016 01:15:00 13.1 C 95 % 12.32 C
1745 14-07-2016 01:20:00 13 C 95 % 12.22 C
1746 14-07-2016 01:25:00 12.9 C 95 % 12.12 C
1747 14-07-2016 01:30:00 12.8 C 95 % 12.02 C
1748 14-07-2016 01:35:00 12.7 C 95 % 11.92 C
1749 14-07-2016 01:40:00 12.6 C 95 % 11.82 C
1750 14-07-2016 01:45:00 12.5 C 95 % 11.72 C
Sensor: Nr:Datum:Temp:Feuchte:Taupunkt:
Aussen-T/F 1751 14-07-2016 01:50:00 12.4 C 95 % 11.62 C
1752 14-07-2016 01:55:00 12.4 C 95 % 11.62 C
1753 14-07-2016 02:00:00 12.3 C 95 % 11.52 C
1754 14-07-2016 02:05:00 12.3 C 95 % 11.52 C
1755 14-07-2016 02:10:00 12.3 C 95 % 11.52 C
1756 14-07-2016 02:15:00 12.3 C 95 % 11.52 C
1757 14-07-2016 02:20:00 12.2 C 95 % 11.42 C
1758 14-07-2016 02:25:00 12.2 C 95 % 11.42 C
1759 14-07-2016 02:30:00 12.2 C 95 % 11.42 C
1760 14-07-2016 02:35:00 12.2 C 95 % 11.42 C
1761 14-07-2016 02:40:00 12.1 C 95 % 11.32 C
1762 14-07-2016 02:45:00 11.9 C 95 % 11.13 C
1763 14-07-2016 02:50:00 11.9 C 95 % 11.13 C
1764 14-07-2016 02:55:00 11.8 C 95 % 11.03 C
1765 14-07-2016 03:00:00 11.7 C 95 % 10.93 C
1766 14-07-2016 03:05:00 11.7 C 95 % 10.93 C
1767 14-07-2016 03:10:00 11.6 C 95 % 10.83 C
1768 14-07-2016 03:15:00 11.6 C 95 % 10.83 C
1769 14-07-2016 03:20:00 11.6 C 95 % 10.83 C
1770 14-07-2016 03:25:00 11.5 C 95 % 10.73 C
1771 14-07-2016 03:30:00 11.5 C 95 % 10.73 C
1772 14-07-2016 03:35:00 11.5 C 95 % 10.73 C
1773 14-07-2016 03:40:00 11.4 C 95 % 10.63 C
1774 14-07-2016 03:45:00 11.4 C 95 % 10.63 C
1775 14-07-2016 03:50:00 11.4 C 95 % 10.63 C
Sensor: Nr:Datum:Temp:Feuchte:Taupunkt:
Aussen-T/F 1776 14-07-2016 03:55:00 11.4 C 95 % 10.63 C
1777 14-07-2016 04:00:00 11.4 C 96 % 10.79 C
1778 14-07-2016 04:05:00 11.4 C 96 % 10.79 C
1779 14-07-2016 04:10:00 11.4 C 96 % 10.79 C
1780 14-07-2016 04:15:00 11.4 C 96 % 10.79 C
1781 14-07-2016 04:20:00 11.4 C 96 % 10.79 C
1782 14-07-2016 04:25:00 11.4 C 96 % 10.79 C
1783 14-07-2016 04:30:00 11.4 C 96 % 10.79 C
1784 14-07-2016 04:35:00 11.3 C 96 % 10.69 C
1785 14-07-2016 04:40:00 11.3 C 96 % 10.69 C
1786 14-07-2016 04:45:00 11.2 C 96 % 10.59 C
1787 14-07-2016 04:50:00 11.2 C 96 % 10.59 C
1788 14-07-2016 04:55:00 11.2 C 95 % 10.43 C
1789 14-07-2016 05:00:00 11.1 C 96 % 10.49 C
1790 14-07-2016 05:05:00 11.1 C 96 % 10.49 C
1791 14-07-2016 05:10:00 11.1 C 96 % 10.49 C
1792 14-07-2016 05:15:00 11.1 C 96 % 10.49 C
1793 14-07-2016 05:20:00 11.1 C 96 % 10.49 C
1794 14-07-2016 05:25:00 11 C 96 % 10.39 C
1795 14-07-2016 05:30:00 10.9 C 96 % 10.29 C
1796 14-07-2016 05:35:00 11 C 96 % 10.39 C
1797 14-07-2016 05:40:00 11 C 96 % 10.39 C
1798 14-07-2016 05:45:00 11.1 C 96 % 10.49 C
1799 14-07-2016 05:50:00 11.1 C 96 % 10.49 C
1800 14-07-2016 05:55:00 11.1 C 96 % 10.49 C
Sensor: Nr:Datum:Temp:Feuchte:Taupunkt:
Aussen-T/F 1801 14-07-2016 06:00:00 11.2 C 96 % 10.59 C
1802 14-07-2016 06:05:00 11.2 C 96 % 10.59 C
1803 14-07-2016 06:10:00 11.2 C 96 % 10.59 C
1804 14-07-2016 06:15:00 11.1 C 96 % 10.49 C
1805 14-07-2016 06:20:00 11.1 C 96 % 10.49 C
1806 14-07-2016 06:25:00 11 C 96 % 10.39 C
1807 14-07-2016 06:30:00 10.9 C 96 % 10.29 C
1808 14-07-2016 06:35:00 10.9 C 96 % 10.29 C
1809 14-07-2016 06:40:00 10.9 C 96 % 10.29 C
1810 14-07-2016 06:45:00 10.9 C 96 % 10.29 C
1811 14-07-2016 06:50:00 10.9 C 96 % 10.29 C
1812 14-07-2016 06:55:00 11 C 96 % 10.39 C
1813 14-07-2016 07:00:00 11.1 C 96 % 10.49 C
1814 14-07-2016 07:05:00 11.2 C 96 % 10.59 C
1815 14-07-2016 07:10:00 11.2 C 96 % 10.59 C
1816 14-07-2016 07:15:00 11.3 C 96 % 10.69 C
1817 14-07-2016 07:20:00 11.3 C 96 % 10.69 C
1818 14-07-2016 07:25:00 11.4 C 96 % 10.79 C
1819 14-07-2016 07:30:00 11.4 C 96 % 10.79 C
1820 14-07-2016 07:35:00 11.5 C 96 % 10.88 C
1821 14-07-2016 07:40:00 11.6 C 96 % 10.98 C
1822 14-07-2016 07:45:00 11.6 C 96 % 10.98 C
1823 14-07-2016 07:50:00 11.7 C 96 % 11.08 C
1824 14-07-2016 07:55:00 11.8 C 96 % 11.18 C
1825 14-07-2016 08:00:00 12.1 C 97 % 11.64 C
Sensor: Nr:Datum:Temp:Feuchte:Taupunkt:
Aussen-T/F 1826 14-07-2016 08:05:00 12.2 C 97 % 11.74 C
1827 14-07-2016 08:10:00 12.3 C 96 % 11.68 C
1828 14-07-2016 08:15:00 12.4 C 97 % 11.94 C
1829 14-07-2016 08:20:00 12.4 C 96 % 11.78 C
1830 14-07-2016 08:25:00 12.6 C 96 % 11.98 C
1831 14-07-2016 08:30:00 12.6 C 95 % 11.82 C
1832 14-07-2016 08:35:00 12.6 C 94 % 11.66 C
1833 14-07-2016 08:40:00 12.6 C 94 % 11.66 C
1834 14-07-2016 08:45:00 12.7 C 93 % 11.6 C
1835 14-07-2016 08:50:00 12.9 C 93 % 11.8 C
1836 14-07-2016 08:55:00 13.2 C 92 % 11.93 C
1837 14-07-2016 09:00:00 13.4 C 91 % 11.96 C
1838 14-07-2016 09:05:00 13.7 C 91 % 12.26 C
1839 14-07-2016 09:10:00 13.8 C 89 % 12.02 C
1840 14-07-2016 09:15:00 13.9 C 87 % 11.77 C
1841 14-07-2016 09:20:00 14 C 86 % 11.7 C
1842 14-07-2016 09:25:00 14.1 C 86 % 11.8 C
1843 14-07-2016 09:30:00 14.1 C 86 % 11.8 C
1844 14-07-2016 09:35:00 14.2 C 86 % 11.89 C
1845 14-07-2016 09:40:00 14.2 C 86 % 11.89 C
1846 14-07-2016 09:45:00 14.3 C 82 % 11.27 C
1847 14-07-2016 09:50:00 14.4 C 85 % 11.91 C
1848 14-07-2016 09:55:00 14.5 C 83 % 11.65 C
1849 14-07-2016 10:00:00 14.6 C 83 % 11.75 C
1850 14-07-2016 10:05:00 14.7 C 82 % 11.66 C
Sensor: Nr:Datum:Temp:Feuchte:Taupunkt:
Aussen-T/F 1851 14-07-2016 10:10:00 14.8 C 84 % 12.12 C
1852 14-07-2016 10:15:00 15.1 C 82 % 12.05 C
1853 14-07-2016 10:20:00 15.2 C 81 % 11.96 C
1854 14-07-2016 10:25:00 15.2 C 77 % 11.2 C
1855 14-07-2016 10:30:00 15.3 C 80 % 11.87 C
1856 14-07-2016 10:35:00 15.4 C 78 % 11.59 C
1857 14-07-2016 10:40:00 15.5 C 79 % 11.88 C
1858 14-07-2016 10:45:00 15.5 C 79 % 11.88 C
1859 14-07-2016 10:50:00 15.5 C 78 % 11.68 C
1860 14-07-2016 10:55:00 15.4 C 79 % 11.78 C
1861 14-07-2016 11:00:00 15.5 C 77 % 11.49 C
1862 14-07-2016 11:05:00 15.7 C 75 % 11.28 C
1863 14-07-2016 11:10:00 15.8 C 74 % 11.18 C
1864 14-07-2016 11:15:00 15.9 C 74 % 11.28 C
1865 14-07-2016 11:20:00 16 C 75 % 11.57 C
1866 14-07-2016 11:25:00 16.1 C 76 % 11.87 C
1867 14-07-2016 11:30:00 16.1 C 72 % 11.06 C
1868 14-07-2016 11:35:00 16.1 C 73 % 11.26 C
1869 14-07-2016 11:40:00 16.1 C 69 % 10.42 C
1870 14-07-2016 11:45:00 16 C 70 % 10.54 C
1871 14-07-2016 11:50:00 16.1 C 68 % 10.2 C
1872 14-07-2016 11:55:00 16.1 C 69 % 10.42 C
1873 14-07-2016 12:00:00 16.1 C 68 % 10.2 C
1874 14-07-2016 12:05:00 16.2 C 68 % 10.29 C
1875 14-07-2016 12:10:00 16.3 C 68 % 10.39 C
Sensor: Nr:Datum:Temp:Feuchte:Taupunkt:
Aussen-T/F 1876 14-07-2016 12:15:00 16.4 C 67 % 10.26 C
1877 14-07-2016 12:20:00 16.4 C 72 % 11.34 C
1878 14-07-2016 12:25:00 16.3 C 69 % 10.61 C
1879 14-07-2016 12:30:00 16.4 C 71 % 11.13 C
1880 14-07-2016 12:35:00 16.7 C 68 % 10.77 C
1881 14-07-2016 12:40:00 16.9 C 67 % 10.74 C
1882 14-07-2016 12:45:00 16.9 C 66 % 10.51 C
1883 14-07-2016 12:50:00 16.9 C 65 % 10.28 C
1884 14-07-2016 12:55:00 17 C 66 % 10.61 C
1885 14-07-2016 13:00:00 17.2 C 66 % 10.8 C
1886 14-07-2016 13:05:00 17.3 C 65 % 10.66 C
1887 14-07-2016 13:10:00 17.4 C 65 % 10.76 C
1888 14-07-2016 13:15:00 17.6 C 61 % 10 C
1889 14-07-2016 13:20:00 17.7 C 58 % 9.34 C
1890 14-07-2016 13:25:00 17.7 C 59 % 9.59 C
1891 14-07-2016 13:30:00 17.6 C 61 % 10 C
1892 14-07-2016 13:35:00 17.5 C 61 % 9.9 C
1893 14-07-2016 13:40:00 17.4 C 64 % 10.53 C
1894 14-07-2016 13:45:00 17.4 C 63 % 10.29 C
1895 14-07-2016 13:50:00 17.6 C 64 % 10.72 C
1896 14-07-2016 13:55:00 17.6 C 61 % 10 C
1897 14-07-2016 14:00:00 17.6 C 62 % 10.24 C
1898 14-07-2016 14:05:00 17.7 C 63 % 10.57 C
1899 14-07-2016 14:10:00 17.9 C 61 % 10.28 C
1900 14-07-2016 14:15:00 18.2 C 60 % 10.31 C
Sensor: Nr:Datum:Temp:Feuchte:Taupunkt:
Aussen-T/F 1901 14-07-2016 14:20:00 18.2 C 59 % 10.06 C
1902 14-07-2016 14:25:00 18.3 C 61 % 10.66 C
1903 14-07-2016 14:30:00 18.3 C 61 % 10.66 C
1904 14-07-2016 14:35:00 18.1 C 61 % 10.47 C
1905 14-07-2016 14:40:00 18.1 C 60 % 10.22 C
1906 14-07-2016 14:45:00 18.1 C 58 % 9.71 C
1907 14-07-2016 14:50:00 18.1 C 59 % 9.97 C
1908 14-07-2016 14:55:00 18.2 C 59 % 10.06 C
1909 14-07-2016 15:00:00 18.2 C 57 % 9.55 C
1910 14-07-2016 15:05:00 18.1 C 56 % 9.19 C
1911 14-07-2016 15:10:00 18.1 C 57 % 9.46 C
1912 14-07-2016 15:15:00 18.1 C 58 % 9.71 C
1913 14-07-2016 15:20:00 18.1 C 59 % 9.97 C
1914 14-07-2016 15:25:00 18.1 C 60 % 10.22 C
1915 14-07-2016 15:30:00 18.3 C 60 % 10.41 C
1916 14-07-2016 15:35:00 18.6 C 60 % 10.69 C
1917 14-07-2016 15:40:00 18.9 C 60 % 10.97 C
1918 14-07-2016 15:45:00 18.7 C 60 % 10.78 C
1919 14-07-2016 15:50:00 18 C 61 % 10.37 C
1920 14-07-2016 15:55:00 17.5 C 62 % 10.15 C
1921 14-07-2016 16:00:00 17.1 C 64 % 10.24 C
1922 14-07-2016 16:05:00 16.9 C 68 % 10.96 C
1923 14-07-2016 16:10:00 16.7 C 70 % 11.21 C
1924 14-07-2016 16:15:00 16.6 C 71 % 11.32 C
1925 14-07-2016 16:20:00 16.6 C 68 % 10.67 C
Sensor: Nr:Datum:Temp:Feuchte:Taupunkt:
Aussen-T/F 1926 14-07-2016 16:25:00 16.7 C 73 % 11.84 C
1927 14-07-2016 16:30:00 17.5 C 69 % 11.75 C
1928 14-07-2016 16:35:00 18.4 C 67 % 12.17 C
1929 14-07-2016 16:40:00 18.8 C 60 % 10.88 C
1930 14-07-2016 16:45:00 19.4 C 59 % 11.19 C
1931 14-07-2016 16:50:00 19.8 C 57 % 11.04 C
1932 14-07-2016 16:55:00 20.1 C 57 % 11.32 C
1933 14-07-2016 17:00:00 20 C 52 % 9.85 C
1934 14-07-2016 17:05:00 19.6 C 56 % 10.59 C
1935 14-07-2016 17:10:00 19.1 C 56 % 10.12 C
1936 14-07-2016 17:15:00 18.5 C 60 % 10.6 C
1937 14-07-2016 17:20:00 17.6 C 65 % 10.95 C
1938 14-07-2016 17:25:00 17 C 67 % 10.83 C
1939 14-07-2016 17:30:00 16.9 C 68 % 10.96 C
1940 14-07-2016 17:35:00 17.1 C 67 % 10.93 C
1941 14-07-2016 17:40:00 17.2 C 64 % 10.34 C
1942 14-07-2016 17:45:00 17.3 C 63 % 10.2 C
1943 14-07-2016 17:50:00 17.5 C 62 % 10.15 C
1944 14-07-2016 17:55:00 17.6 C 66 % 11.18 C
1945 14-07-2016 18:00:00 17.7 C 67 % 11.5 C
1946 14-07-2016 18:05:00 18.1 C 69 % 12.33 C
1947 14-07-2016 18:10:00 18.6 C 66 % 12.13 C
1948 14-07-2016 18:15:00 18.8 C 60 % 10.88 C
1949 14-07-2016 18:20:00 18.7 C 60 % 10.78 C
1950 14-07-2016 18:25:00 18.6 C 61 % 10.94 C
Sensor: Nr:Datum:Temp:Feuchte:Taupunkt:
Aussen-T/F 1951 14-07-2016 18:30:00 18.7 C 60 % 10.78 C
1952 14-07-2016 18:35:00 18.6 C 59 % 10.44 C
1953 14-07-2016 18:40:00 18.4 C 60 % 10.5 C
1954 14-07-2016 18:45:00 18.5 C 63 % 11.33 C
1955 14-07-2016 18:50:00 18.7 C 61 % 11.03 C
1956 14-07-2016 18:55:00 18.9 C 62 % 11.47 C
1957 14-07-2016 19:00:00 19.4 C 58 % 10.93 C
1958 14-07-2016 19:05:00 19.8 C 59 % 11.56 C
1959 14-07-2016 19:10:00 20.1 C 56 % 11.06 C
1960 14-07-2016 19:15:00 20.1 C 54 % 10.51 C
1961 14-07-2016 19:20:00 20.2 C 57 % 11.42 C
1962 14-07-2016 19:25:00 20.1 C 56 % 11.06 C
1963 14-07-2016 19:30:00 19.9 C 58 % 11.4 C
1964 14-07-2016 19:35:00 19.5 C 61 % 11.78 C
1965 14-07-2016 19:40:00 19.3 C 63 % 12.09 C
1966 14-07-2016 19:45:00 18.8 C 59 % 10.63 C
1967 14-07-2016 19:50:00 18.4 C 62 % 10.99 C
1968 14-07-2016 19:55:00 18.2 C 65 % 11.52 C
1969 14-07-2016 20:00:00 18.1 C 65 % 11.42 C
1970 14-07-2016 20:05:00 18.1 C 64 % 11.19 C
1971 14-07-2016 20:10:00 17.8 C 66 % 11.37 C
1972 14-07-2016 20:15:00 17.7 C 69 % 11.95 C
1973 14-07-2016 20:20:00 17.7 C 70 % 12.16 C
1974 14-07-2016 20:25:00 17.6 C 70 % 12.07 C
1975 14-07-2016 20:30:00 17.4 C 72 % 12.3 C
Sensor: Nr:Datum:Temp:Feuchte:Taupunkt:
Aussen-T/F 1976 14-07-2016 20:35:00 17.3 C 72 % 12.21 C
1977 14-07-2016 20:40:00 17.2 C 72 % 12.11 C
1978 14-07-2016 20:45:00 17.1 C 72 % 12.02 C
1979 14-07-2016 20:50:00 16.8 C 73 % 11.94 C
1980 14-07-2016 20:55:00 16.6 C 73 % 11.74 C
1981 14-07-2016 21:00:00 16.3 C 75 % 11.86 C
1982 14-07-2016 21:05:00 16.1 C 75 % 11.67 C
1983 14-07-2016 21:10:00 15.8 C 76 % 11.58 C
1984 14-07-2016 21:15:00 15.6 C 78 % 11.78 C
1985 14-07-2016 21:20:00 15.4 C 78 % 11.59 C
1986 14-07-2016 21:25:00 15.3 C 79 % 11.68 C
1987 14-07-2016 21:30:00 15.2 C 78 % 11.39 C
1988 14-07-2016 21:35:00 15.1 C 79 % 11.49 C
1989 14-07-2016 21:40:00 15.1 C 79 % 11.49 C
1990 14-07-2016 21:45:00 15.1 C 80 % 11.68 C
1991 14-07-2016 21:50:00 15.1 C 81 % 11.87 C
1992 14-07-2016 21:55:00 15.1 C 82 % 12.05 C
1993 14-07-2016 22:00:00 15.1 C 82 % 12.05 C
1994 14-07-2016 22:05:00 15 C 82 % 11.95 C
1995 14-07-2016 22:10:00 14.9 C 82 % 11.86 C
1996 14-07-2016 22:15:00 14.9 C 83 % 12.04 C
1997 14-07-2016 22:20:00 14.9 C 83 % 12.04 C
1998 14-07-2016 22:25:00 14.8 C 83 % 11.94 C
1999 14-07-2016 22:30:00 14.8 C 83 % 11.94 C
2000 14-07-2016 22:35:00 14.7 C 83 % 11.85 C
Sensor: Nr:Datum:Temp:Feuchte:Taupunkt:
Aussen-T/F 2001 14-07-2016 22:40:00 14.7 C 84 % 12.03 C
2002 14-07-2016 22:45:00 14.6 C 84 % 11.93 C
2003 14-07-2016 22:50:00 14.6 C 82 % 11.56 C
2004 14-07-2016 22:55:00 14.6 C 77 % 10.62 C
2005 14-07-2016 23:00:00 14.8 C 76 % 10.61 C
2006 14-07-2016 23:05:00 14.9 C 79 % 11.29 C
2007 14-07-2016 23:10:00 14.8 C 77 % 10.81 C
2008 14-07-2016 23:15:00 14.7 C 78 % 10.91 C
2009 14-07-2016 23:20:00 14.5 C 77 % 10.52 C
2010 14-07-2016 23:25:00 14.3 C 78 % 10.52 C
2011 14-07-2016 23:30:00 14.2 C 77 % 10.23 C
2012 14-07-2016 23:35:00 14.2 C 76 % 10.03 C
2013 14-07-2016 23:40:00 14.2 C 77 % 10.23 C
2014 14-07-2016 23:45:00 14.2 C 79 % 10.61 C
2015 14-07-2016 23:50:00 14.1 C 78 % 10.33 C
2016 14-07-2016 23:55:00 13.9 C 77 % 9.94 C
2017 15-07-2016 00:00:00 13.8 C 78 % 10.03 C
2018 15-07-2016 00:05:00 13.7 C 79 % 10.13 C
2019 15-07-2016 00:10:00 13.6 C 79 % 10.03 C
2020 15-07-2016 00:15:00 13.5 C 80 % 10.12 C
2021 15-07-2016 00:20:00 13.4 C 80 % 10.02 C
2022 15-07-2016 00:25:00 13.4 C 81 % 10.21 C
2023 15-07-2016 00:30:00 13.4 C 81 % 10.21 C
2024 15-07-2016 00:35:00 13.3 C 81 % 10.11 C
2025 15-07-2016 00:40:00 13.3 C 82 % 10.3 C
Sensor: Nr:Datum:Temp:Feuchte:Taupunkt:
Aussen-T/F 2026 15-07-2016 00:45:00 13.2 C 83 % 10.38 C
2027 15-07-2016 00:50:00 13.1 C 83 % 10.28 C
2028 15-07-2016 00:55:00 13.1 C 83 % 10.28 C
2029 15-07-2016 01:00:00 13 C 83 % 10.18 C
2030 15-07-2016 01:05:00 12.9 C 84 % 10.26 C
2031 15-07-2016 01:10:00 12.9 C 84 % 10.26 C
2032 15-07-2016 01:15:00 12.9 C 84 % 10.26 C
2033 15-07-2016 01:20:00 12.9 C 85 % 10.44 C
2034 15-07-2016 01:25:00 13 C 85 % 10.54 C
2035 15-07-2016 01:30:00 13 C 84 % 10.36 C
2036 15-07-2016 01:35:00 13 C 84 % 10.36 C
2037 15-07-2016 01:40:00 13 C 84 % 10.36 C
2038 15-07-2016 01:45:00 13 C 85 % 10.54 C
2039 15-07-2016 01:50:00 12.9 C 85 % 10.44 C
2040 15-07-2016 01:55:00 12.9 C 85 % 10.44 C
2041 15-07-2016 02:00:00 12.9 C 86 % 10.62 C
2042 15-07-2016 02:05:00 12.9 C 87 % 10.79 C
2043 15-07-2016 02:10:00 12.9 C 87 % 10.79 C
2044 15-07-2016 02:15:00 12.9 C 86 % 10.62 C
2045 15-07-2016 02:20:00 12.9 C 87 % 10.79 C
2046 15-07-2016 02:25:00 13 C 87 % 10.89 C
2047 15-07-2016 02:30:00 13.1 C 87 % 10.99 C
2048 15-07-2016 02:35:00 13 C 86 % 10.72 C
2049 15-07-2016 02:40:00 12.9 C 86 % 10.62 C
2050 15-07-2016 02:45:00 12.9 C 86 % 10.62 C
Sensor: Nr:Datum:Temp:Feuchte:Taupunkt:
Aussen-T/F 2051 15-07-2016 02:50:00 12.8 C 86 % 10.52 C
2052 15-07-2016 02:55:00 12.7 C 86 % 10.42 C
2053 15-07-2016 03:00:00 12.6 C 86 % 10.32 C
2054 15-07-2016 03:05:00 12.4 C 87 % 10.3 C
2055 15-07-2016 03:10:00 12.3 C 87 % 10.2 C
2056 15-07-2016 03:15:00 12.2 C 88 % 10.27 C
2057 15-07-2016 03:20:00 12.2 C 88 % 10.27 C
2058 15-07-2016 03:25:00 12.2 C 88 % 10.27 C
2059 15-07-2016 03:30:00 12.2 C 89 % 10.44 C
2060 15-07-2016 03:35:00 12.1 C 89 % 10.34 C
2061 15-07-2016 03:40:00 12 C 88 % 10.08 C
2062 15-07-2016 03:45:00 11.9 C 88 % 9.98 C
2063 15-07-2016 03:50:00 11.9 C 88 % 9.98 C
2064 15-07-2016 03:55:00 11.8 C 88 % 9.88 C
2065 15-07-2016 04:00:00 11.8 C 88 % 9.88 C
2066 15-07-2016 04:05:00 11.7 C 89 % 9.95 C
2067 15-07-2016 04:10:00 11.7 C 89 % 9.95 C
2068 15-07-2016 04:15:00 11.7 C 88 % 9.78 C
2069 15-07-2016 04:20:00 11.7 C 89 % 9.95 C
2070 15-07-2016 04:25:00 11.8 C 89 % 10.05 C
2071 15-07-2016 04:30:00 11.8 C 89 % 10.05 C
2072 15-07-2016 04:35:00 11.8 C 89 % 10.05 C
2073 15-07-2016 04:40:00 11.8 C 89 % 10.05 C
2074 15-07-2016 04:45:00 11.9 C 88 % 9.98 C
2075 15-07-2016 04:50:00 11.9 C 89 % 10.15 C
Sensor: Nr:Datum:Temp:Feuchte:Taupunkt:
Aussen-T/F 2076 15-07-2016 04:55:00 11.9 C 88 % 9.98 C
2077 15-07-2016 05:00:00 11.9 C 88 % 9.98 C
2078 15-07-2016 05:05:00 11.9 C 88 % 9.98 C
2079 15-07-2016 05:10:00 11.9 C 88 % 9.98 C
2080 15-07-2016 05:15:00 11.9 C 87 % 9.81 C
2081 15-07-2016 05:20:00 11.9 C 88 % 9.98 C
2082 15-07-2016 05:25:00 11.9 C 88 % 9.98 C
2083 15-07-2016 05:30:00 12 C 88 % 10.08 C
2084 15-07-2016 05:35:00 12 C 88 % 10.08 C
2085 15-07-2016 05:40:00 12 C 87 % 9.91 C
2086 15-07-2016 05:45:00 12.1 C 88 % 10.17 C
2087 15-07-2016 05:50:00 12.2 C 88 % 10.27 C
2088 15-07-2016 05:55:00 12.2 C 88 % 10.27 C
2089 15-07-2016 06:00:00 12.2 C 88 % 10.27 C
2090 15-07-2016 06:05:00 12.2 C 88 % 10.27 C
2091 15-07-2016 06:10:00 12.3 C 88 % 10.37 C
2092 15-07-2016 06:15:00 12.3 C 89 % 10.54 C
2093 15-07-2016 06:20:00 12.3 C 88 % 10.37 C
2094 15-07-2016 06:25:00 12.3 C 88 % 10.37 C
2095 15-07-2016 06:30:00 12.3 C 88 % 10.37 C
2096 15-07-2016 06:35:00 12.3 C 87 % 10.2 C
2097 15-07-2016 06:40:00 12.2 C 87 % 10.1 C
2098 15-07-2016 06:45:00 12.3 C 87 % 10.2 C
2099 15-07-2016 06:50:00 12.3 C 86 % 10.03 C
2100 15-07-2016 06:55:00 12.3 C 86 % 10.03 C
Sensor: Nr:Datum:Temp:Feuchte:Taupunkt:
Aussen-T/F 2101 15-07-2016 07:00:00 12.3 C 87 % 10.2 C
2102 15-07-2016 07:05:00 12.4 C 87 % 10.3 C
2103 15-07-2016 07:10:00 12.4 C 87 % 10.3 C
2104 15-07-2016 07:15:00 12.4 C 86 % 10.13 C
2105 15-07-2016 07:20:00 12.4 C 86 % 10.13 C
2106 15-07-2016 07:25:00 12.5 C 86 % 10.22 C
2107 15-07-2016 07:30:00 12.5 C 85 % 10.05 C
2108 15-07-2016 07:35:00 12.6 C 86 % 10.32 C
2109 15-07-2016 07:40:00 12.6 C 86 % 10.32 C
2110 15-07-2016 07:45:00 12.6 C 85 % 10.15 C
2111 15-07-2016 07:50:00 12.7 C 85 % 10.25 C
2112 15-07-2016 07:55:00 12.7 C 85 % 10.25 C
2113 15-07-2016 08:00:00 12.7 C 85 % 10.25 C
2114 15-07-2016 08:05:00 12.7 C 85 % 10.25 C
2115 15-07-2016 08:10:00 12.7 C 85 % 10.25 C
2116 15-07-2016 08:15:00 12.7 C 86 % 10.42 C
2117 15-07-2016 08:20:00 12.7 C 85 % 10.25 C
2118 15-07-2016 08:25:00 12.8 C 86 % 10.52 C
2119 15-07-2016 08:30:00 12.9 C 87 % 10.79 C
2120 15-07-2016 08:35:00 13.1 C 86 % 10.81 C
2121 15-07-2016 08:40:00 13.3 C 87 % 11.18 C
2122 15-07-2016 08:45:00 13.4 C 87 % 11.28 C
2123 15-07-2016 08:50:00 13.7 C 86 % 11.4 C
2124 15-07-2016 08:55:00 13.8 C 84 % 11.15 C
2125 15-07-2016 09:00:00 13.9 C 83 % 11.06 C
Sensor: Nr:Datum:Temp:Feuchte:Taupunkt:
Aussen-T/F 2126 15-07-2016 09:05:00 13.9 C 83 % 11.06 C
2127 15-07-2016 09:10:00 14.1 C 83 % 11.26 C
2128 15-07-2016 09:15:00 14.1 C 83 % 11.26 C
2129 15-07-2016 09:20:00 14.1 C 82 % 11.08 C
2130 15-07-2016 09:25:00 14.2 C 82 % 11.17 C
2131 15-07-2016 09:30:00 14.3 C 82 % 11.27 C
2132 15-07-2016 09:35:00 14.4 C 81 % 11.18 C
2133 15-07-2016 09:40:00 14.7 C 81 % 11.48 C
2134 15-07-2016 09:45:00 14.9 C 81 % 11.67 C
2135 15-07-2016 09:50:00 15 C 78 % 11.2 C
2136 15-07-2016 09:55:00 15.1 C 78 % 11.3 C
2137 15-07-2016 10:00:00 15.1 C 76 % 10.9 C
2138 15-07-2016 10:05:00 15.1 C 77 % 11.1 C
2139 15-07-2016 10:10:00 15.1 C 76 % 10.9 C
2140 15-07-2016 10:15:00 15.1 C 77 % 11.1 C
2141 15-07-2016 10:20:00 15.1 C 78 % 11.3 C
2142 15-07-2016 10:25:00 15.1 C 79 % 11.49 C
2143 15-07-2016 10:30:00 15.1 C 78 % 11.3 C
2144 15-07-2016 10:35:00 15.1 C 78 % 11.3 C
2145 15-07-2016 10:40:00 15.2 C 78 % 11.39 C
2146 15-07-2016 10:45:00 15.3 C 77 % 11.3 C
2147 15-07-2016 10:50:00 15.3 C 75 % 10.9 C
2148 15-07-2016 10:55:00 15.2 C 75 % 10.8 C
2149 15-07-2016 11:00:00 15.3 C 75 % 10.9 C
2150 15-07-2016 11:05:00 15.4 C 73 % 10.59 C
Sensor: Nr:Datum:Temp:Feuchte:Taupunkt:
Aussen-T/F 2151 15-07-2016 11:10:00 15.6 C 71 % 10.37 C
2152 15-07-2016 11:15:00 15.8 C 73 % 10.97 C
2153 15-07-2016 11:20:00 16.2 C 70 % 10.73 C
2154 15-07-2016 11:25:00 16.6 C 67 % 10.45 C
2155 15-07-2016 11:30:00 16.8 C 67 % 10.64 C
2156 15-07-2016 11:35:00 16.9 C 65 % 10.28 C
2157 15-07-2016 11:40:00 17.2 C 67 % 11.02 C
2158 15-07-2016 11:45:00 17.3 C 66 % 10.89 C
2159 15-07-2016 11:50:00 17.2 C 67 % 11.02 C
2160 15-07-2016 11:55:00 17.1 C 69 % 11.37 C
2161 15-07-2016 12:00:00 16.9 C 67 % 10.74 C
2162 15-07-2016 12:05:00 16.9 C 68 % 10.96 C
2163 15-07-2016 12:10:00 17.1 C 63 % 10.01 C
2164 15-07-2016 12:15:00 17.3 C 63 % 10.2 C
2165 15-07-2016 12:20:00 17.6 C 63 % 10.48 C
2166 15-07-2016 12:25:00 17.8 C 63 % 10.67 C
2167 15-07-2016 12:30:00 18.1 C 62 % 10.71 C
2168 15-07-2016 12:35:00 18.2 C 63 % 11.05 C
2169 15-07-2016 12:40:00 18.3 C 59 % 10.16 C
2170 15-07-2016 12:45:00 18.2 C 60 % 10.31 C
2171 15-07-2016 12:50:00 18.2 C 62 % 10.81 C
2172 15-07-2016 12:55:00 18.3 C 60 % 10.41 C
2173 15-07-2016 13:00:00 18.4 C 61 % 10.75 C
2174 15-07-2016 13:05:00 18.3 C 59 % 10.16 C
2175 15-07-2016 13:10:00 18.3 C 61 % 10.66 C
Sensor: Nr:Datum:Temp:Feuchte:Taupunkt:
Aussen-T/F 2176 15-07-2016 13:15:00 18.3 C 62 % 10.9 C
2177 15-07-2016 13:20:00 18.3 C 61 % 10.66 C
2178 15-07-2016 13:25:00 18.4 C 62 % 10.99 C
2179 15-07-2016 13:30:00 18.6 C 59 % 10.44 C
2180 15-07-2016 13:35:00 18.6 C 60 % 10.69 C
2181 15-07-2016 13:40:00 18.6 C 61 % 10.94 C
2182 15-07-2016 13:45:00 18.6 C 62 % 11.18 C
2183 15-07-2016 13:50:00 18.6 C 61 % 10.94 C
2184 15-07-2016 13:55:00 18.8 C 62 % 11.37 C
2185 15-07-2016 14:00:00 19.1 C 61 % 11.41 C
2186 15-07-2016 14:05:00 19.2 C 59 % 11 C
2187 15-07-2016 14:10:00 19.1 C 59 % 10.91 C
2188 15-07-2016 14:15:00 19 C 59 % 10.81 C
2189 15-07-2016 14:20:00 18.9 C 60 % 10.97 C
2190 15-07-2016 14:25:00 18.9 C 61 % 11.22 C
2191 15-07-2016 14:30:00 19.2 C 60 % 11.25 C
2192 15-07-2016 14:35:00 19.4 C 59 % 11.19 C
2193 15-07-2016 14:40:00 19.5 C 59 % 11.28 C
2194 15-07-2016 14:45:00 19.6 C 58 % 11.12 C
2195 15-07-2016 14:50:00 19.6 C 58 % 11.12 C
2196 15-07-2016 14:55:00 19.7 C 58 % 11.21 C
2197 15-07-2016 15:00:00 19.8 C 59 % 11.56 C
2198 15-07-2016 15:05:00 19.7 C 60 % 11.72 C
2199 15-07-2016 15:10:00 19.5 C 59 % 11.28 C
2200 15-07-2016 15:15:00 19.4 C 63 % 12.18 C
Sensor: Nr:Datum:Temp:Feuchte:Taupunkt:
Aussen-T/F 2201 15-07-2016 15:20:00 19.3 C 61 % 11.6 C
2202 15-07-2016 15:25:00 19.2 C 63 % 11.99 C
2203 15-07-2016 15:30:00 19.3 C 61 % 11.6 C
2204 15-07-2016 15:35:00 19.6 C 62 % 12.13 C
2205 15-07-2016 15:40:00 20.3 C 60 % 12.29 C
2206 15-07-2016 15:45:00 20.9 C 58 % 12.33 C
2207 15-07-2016 15:50:00 21.2 C 59 % 12.87 C
2208 15-07-2016 15:55:00 21.3 C 61 % 13.48 C
2209 15-07-2016 16:00:00 21.4 C 54 % 11.71 C
2210 15-07-2016 16:05:00 21.3 C 55 % 11.9 C
2211 15-07-2016 16:10:00 21.3 C 56 % 12.17 C
2212 15-07-2016 16:15:00 21.4 C 55 % 11.99 C
2213 15-07-2016 16:20:00 21.3 C 55 % 11.9 C
2214 15-07-2016 16:25:00 20.8 C 57 % 11.97 C
2215 15-07-2016 16:30:00 20.5 C 61 % 12.73 C
2216 15-07-2016 16:35:00 20.2 C 62 % 12.69 C
2217 15-07-2016 16:40:00 19.9 C 61 % 12.16 C
2218 15-07-2016 16:45:00 19.6 C 61 % 11.88 C
2219 15-07-2016 16:50:00 19.6 C 61 % 11.88 C
2220 15-07-2016 16:55:00 19.8 C 69 % 13.95 C
2221 15-07-2016 17:00:00 20.3 C 64 % 13.27 C
2222 15-07-2016 17:05:00 20.7 C 65 % 13.89 C
2223 15-07-2016 17:10:00 20.8 C 63 % 13.5 C
2224 15-07-2016 17:15:00 20.9 C 66 % 14.31 C
2225 15-07-2016 17:20:00 21 C 66 % 14.41 C
Sensor: Nr:Datum:Temp:Feuchte:Taupunkt:
Aussen-T/F 2226 15-07-2016 17:25:00 21.1 C 69 % 15.19 C
2227 15-07-2016 17:30:00 21.2 C 60 % 13.13 C
2228 15-07-2016 17:35:00 21.2 C 57 % 12.35 C
2229 15-07-2016 17:40:00 21.2 C 56 % 12.08 C
2230 15-07-2016 17:45:00 21.4 C 60 % 13.32 C
2231 15-07-2016 17:50:00 21.7 C 59 % 13.34 C
2232 15-07-2016 17:55:00 21.9 C 56 % 12.73 C
2233 15-07-2016 18:00:00 22.2 C 54 % 12.45 C
2234 15-07-2016 18:05:00 21.9 C 52 % 11.61 C
2235 15-07-2016 18:10:00 22 C 49 % 10.8 C
2236 15-07-2016 18:15:00 22.2 C 49 % 10.98 C
2237 15-07-2016 18:20:00 22.3 C 50 % 11.38 C
2238 15-07-2016 18:25:00 22.2 C 49 % 10.98 C
2239 15-07-2016 18:30:00 22.2 C 50 % 11.29 C
2240 15-07-2016 18:35:00 22.1 C 49 % 10.89 C
2241 15-07-2016 18:40:00 22.1 C 48 % 10.58 C
2242 15-07-2016 18:45:00 22 C 49 % 10.8 C
2243 15-07-2016 18:50:00 22.1 C 49 % 10.89 C
2244 15-07-2016 18:55:00 22.2 C 48 % 10.67 C
2245 15-07-2016 19:00:00 22.4 C 48 % 10.86 C
2246 15-07-2016 19:05:00 22.7 C 47 % 10.81 C
2247 15-07-2016 19:10:00 22.9 C 46 % 10.67 C
2248 15-07-2016 19:15:00 23 C 46 % 10.76 C
2249 15-07-2016 19:20:00 22.9 C 44 % 10.01 C
2250 15-07-2016 19:25:00 22.7 C 45 % 10.16 C
Sensor: Nr:Datum:Temp:Feuchte:Taupunkt:
Aussen-T/F 2251 15-07-2016 19:30:00 22.4 C 45 % 9.89 C
2252 15-07-2016 19:35:00 22.2 C 46 % 10.04 C
2253 15-07-2016 19:40:00 22 C 49 % 10.8 C
2254 15-07-2016 19:45:00 21.9 C 56 % 12.73 C
2255 15-07-2016 19:50:00 21.8 C 61 % 13.95 C
2256 15-07-2016 19:55:00 21.6 C 63 % 14.26 C
2257 15-07-2016 20:00:00 21.4 C 65 % 14.55 C
2258 15-07-2016 20:05:00 21.1 C 60 % 13.04 C
2259 15-07-2016 20:10:00 20.9 C 62 % 13.35 C
2260 15-07-2016 20:15:00 20.7 C 56 % 11.61 C
2261 15-07-2016 20:20:00 20.6 C 65 % 13.79 C
2262 15-07-2016 20:25:00 20.2 C 66 % 13.65 C
2263 15-07-2016 20:30:00 19.7 C 67 % 13.4 C
2264 15-07-2016 20:35:00 19.2 C 69 % 13.38 C
2265 15-07-2016 20:40:00 18.7 C 71 % 13.34 C
2266 15-07-2016 20:45:00 18.3 C 71 % 12.95 C
2267 15-07-2016 20:50:00 18 C 72 % 12.88 C
2268 15-07-2016 20:55:00 17.7 C 72 % 12.59 C
2269 15-07-2016 21:00:00 17.5 C 72 % 12.4 C
2270 15-07-2016 21:05:00 17.4 C 74 % 12.72 C
2271 15-07-2016 21:10:00 17.3 C 74 % 12.62 C
2272 15-07-2016 21:15:00 17.2 C 75 % 12.73 C
2273 15-07-2016 21:20:00 17.1 C 75 % 12.64 C
2274 15-07-2016 21:25:00 16.9 C 76 % 12.65 C
2275 15-07-2016 21:30:00 16.8 C 77 % 12.75 C
Sensor: Nr:Datum:Temp:Feuchte:Taupunkt:
Aussen-T/F 2276 15-07-2016 21:35:00 16.7 C 78 % 12.85 C
2277 15-07-2016 21:40:00 16.6 C 77 % 12.55 C
2278 15-07-2016 21:45:00 16.4 C 78 % 12.56 C
2279 15-07-2016 21:50:00 16.3 C 79 % 12.65 C
2280 15-07-2016 21:55:00 16.2 C 79 % 12.56 C
2281 15-07-2016 22:00:00 16 C 79 % 12.36 C
2282 15-07-2016 22:05:00 15.8 C 80 % 12.36 C
2283 15-07-2016 22:10:00 15.6 C 79 % 11.97 C
2284 15-07-2016 22:15:00 15.4 C 80 % 11.97 C
2285 15-07-2016 22:20:00 15.3 C 80 % 11.87 C
2286 15-07-2016 22:25:00 15.2 C 81 % 11.96 C
2287 15-07-2016 22:30:00 15.1 C 82 % 12.05 C
2288 15-07-2016 22:35:00 15 C 83 % 12.14 C
2289 15-07-2016 22:40:00 14.8 C 83 % 11.94 C
2290 15-07-2016 22:45:00 14.7 C 84 % 12.03 C
2291 15-07-2016 22:50:00 14.6 C 84 % 11.93 C
2292 15-07-2016 22:55:00 14.3 C 85 % 11.81 C
2293 15-07-2016 23:00:00 14.2 C 85 % 11.72 C
2294 15-07-2016 23:05:00 14.1 C 86 % 11.8 C
2295 15-07-2016 23:10:00 13.9 C 86 % 11.6 C
2296 15-07-2016 23:15:00 13.8 C 86 % 11.5 C
2297 15-07-2016 23:20:00 13.7 C 86 % 11.4 C
2298 15-07-2016 23:25:00 13.7 C 87 % 11.58 C
2299 15-07-2016 23:30:00 13.6 C 87 % 11.48 C
2300 15-07-2016 23:35:00 13.4 C 87 % 11.28 C
Sensor: Nr:Datum:Temp:Feuchte:Taupunkt:
Aussen-T/F 2301 15-07-2016 23:40:00 13.3 C 87 % 11.18 C
2302 15-07-2016 23:45:00 13.2 C 88 % 11.26 C
2303 15-07-2016 23:50:00 13.1 C 88 % 11.16 C
2304 15-07-2016 23:55:00 13 C 88 % 11.06 C
2305 16-07-2016 00:00:00 12.9 C 88 % 10.96 C
2306 16-07-2016 00:05:00 12.8 C 88 % 10.86 C
2307 16-07-2016 00:10:00 12.8 C 88 % 10.86 C
2308 16-07-2016 00:15:00 12.8 C 89 % 11.03 C
2309 16-07-2016 00:20:00 12.7 C 89 % 10.94 C
2310 16-07-2016 00:25:00 12.7 C 89 % 10.94 C
2311 16-07-2016 00:30:00 12.6 C 89 % 10.84 C
2312 16-07-2016 00:35:00 12.6 C 89 % 10.84 C
2313 16-07-2016 00:40:00 12.6 C 90 % 11 C
2314 16-07-2016 00:45:00 12.6 C 89 % 10.84 C
2315 16-07-2016 00:50:00 12.5 C 89 % 10.74 C
2316 16-07-2016 00:55:00 12.4 C 90 % 10.81 C
2317 16-07-2016 01:00:00 12.3 C 90 % 10.71 C
2318 16-07-2016 01:05:00 12.3 C 90 % 10.71 C
2319 16-07-2016 01:10:00 12.3 C 91 % 10.87 C
2320 16-07-2016 01:15:00 12.2 C 91 % 10.78 C
2321 16-07-2016 01:20:00 12.2 C 91 % 10.78 C
2322 16-07-2016 01:25:00 12.2 C 91 % 10.78 C
2323 16-07-2016 01:30:00 12.1 C 91 % 10.68 C
2324 16-07-2016 01:35:00 12.1 C 91 % 10.68 C
2325 16-07-2016 01:40:00 12.1 C 91 % 10.68 C
Sensor: Nr:Datum:Temp:Feuchte:Taupunkt:
Aussen-T/F 2326 16-07-2016 01:45:00 11.9 C 91 % 10.48 C
2327 16-07-2016 01:50:00 11.9 C 91 % 10.48 C
2328 16-07-2016 01:55:00 11.9 C 92 % 10.64 C
2329 16-07-2016 02:00:00 11.8 C 91 % 10.38 C
2330 16-07-2016 02:05:00 11.8 C 92 % 10.54 C
2331 16-07-2016 02:10:00 11.7 C 92 % 10.44 C
2332 16-07-2016 02:15:00 11.7 C 92 % 10.44 C
2333 16-07-2016 02:20:00 11.7 C 92 % 10.44 C
2334 16-07-2016 02:25:00 11.6 C 92 % 10.35 C
2335 16-07-2016 02:30:00 11.6 C 92 % 10.35 C
2336 16-07-2016 02:35:00 11.6 C 92 % 10.35 C
2337 16-07-2016 02:40:00 11.5 C 92 % 10.25 C
2338 16-07-2016 02:45:00 11.4 C 92 % 10.15 C
2339 16-07-2016 02:50:00 11.4 C 92 % 10.15 C
2340 16-07-2016 02:55:00 11.4 C 93 % 10.31 C
2341 16-07-2016 03:00:00 11.3 C 93 % 10.21 C
2342 16-07-2016 03:05:00 11.3 C 93 % 10.21 C
2343 16-07-2016 03:10:00 11.3 C 93 % 10.21 C
2344 16-07-2016 03:15:00 11.3 C 93 % 10.21 C
2345 16-07-2016 03:20:00 11.2 C 93 % 10.11 C
2346 16-07-2016 03:25:00 11.2 C 93 % 10.11 C
2347 16-07-2016 03:30:00 11.2 C 93 % 10.11 C
2348 16-07-2016 03:35:00 11.2 C 93 % 10.11 C
2349 16-07-2016 03:40:00 11.2 C 93 % 10.11 C
2350 16-07-2016 03:45:00 11.2 C 94 % 10.27 C
Sensor: Nr:Datum:Temp:Feuchte:Taupunkt:
Aussen-T/F 2351 16-07-2016 03:50:00 11.2 C 94 % 10.27 C
2352 16-07-2016 03:55:00 11.2 C 94 % 10.27 C
2353 16-07-2016 04:00:00 11.3 C 94 % 10.37 C
2354 16-07-2016 04:05:00 11.4 C 94 % 10.47 C
2355 16-07-2016 04:10:00 11.4 C 94 % 10.47 C
2356 16-07-2016 04:15:00 11.5 C 94 % 10.57 C
2357 16-07-2016 04:20:00 11.6 C 94 % 10.67 C
2358 16-07-2016 04:25:00 11.6 C 94 % 10.67 C
2359 16-07-2016 04:30:00 11.7 C 94 % 10.77 C
2360 16-07-2016 04:35:00 11.7 C 94 % 10.77 C
2361 16-07-2016 04:40:00 11.7 C 94 % 10.77 C
2362 16-07-2016 04:45:00 11.7 C 94 % 10.77 C
2363 16-07-2016 04:50:00 11.8 C 94 % 10.87 C
2364 16-07-2016 04:55:00 11.8 C 94 % 10.87 C
2365 16-07-2016 05:00:00 11.8 C 94 % 10.87 C
2366 16-07-2016 05:05:00 11.9 C 94 % 10.97 C
2367 16-07-2016 05:10:00 11.9 C 94 % 10.97 C
2368 16-07-2016 05:15:00 11.9 C 94 % 10.97 C
2369 16-07-2016 05:20:00 11.9 C 94 % 10.97 C
2370 16-07-2016 05:25:00 11.9 C 94 % 10.97 C
2371 16-07-2016 05:30:00 11.9 C 93 % 10.81 C
2372 16-07-2016 05:35:00 11.9 C 93 % 10.81 C
2373 16-07-2016 05:40:00 11.9 C 93 % 10.81 C
2374 16-07-2016 05:45:00 11.9 C 93 % 10.81 C
2375 16-07-2016 05:50:00 11.9 C 93 % 10.81 C
Sensor: Nr:Datum:Temp:Feuchte:Taupunkt:
Aussen-T/F 2376 16-07-2016 05:55:00 11.8 C 93 % 10.71 C
2377 16-07-2016 06:00:00 11.9 C 93 % 10.81 C
2378 16-07-2016 06:05:00 11.9 C 94 % 10.97 C
2379 16-07-2016 06:10:00 11.9 C 94 % 10.97 C
2380 16-07-2016 06:15:00 12 C 94 % 11.07 C
2381 16-07-2016 06:20:00 12.1 C 93 % 11 C
2382 16-07-2016 06:25:00 12.1 C 93 % 11 C
2383 16-07-2016 06:30:00 12.2 C 93 % 11.1 C
2384 16-07-2016 06:35:00 12.2 C 93 % 11.1 C
2385 16-07-2016 06:40:00 12.3 C 93 % 11.2 C
2386 16-07-2016 06:45:00 12.3 C 93 % 11.2 C
2387 16-07-2016 06:50:00 12.4 C 93 % 11.3 C
2388 16-07-2016 06:55:00 12.5 C 93 % 11.4 C
2389 16-07-2016 07:00:00 12.6 C 92 % 11.34 C
2390 16-07-2016 07:05:00 12.7 C 92 % 11.43 C
2391 16-07-2016 07:10:00 12.8 C 91 % 11.37 C
2392 16-07-2016 07:15:00 12.9 C 91 % 11.47 C
2393 16-07-2016 07:20:00 12.9 C 91 % 11.47 C
2394 16-07-2016 07:25:00 13.1 C 92 % 11.83 C
2395 16-07-2016 07:30:00 13.2 C 92 % 11.93 C
2396 16-07-2016 07:35:00 13.3 C 91 % 11.86 C
2397 16-07-2016 07:40:00 13.3 C 90 % 11.7 C
2398 16-07-2016 07:45:00 13.4 C 90 % 11.79 C
2399 16-07-2016 07:50:00 13.6 C 90 % 11.99 C
2400 16-07-2016 07:55:00 13.7 C 89 % 11.92 C
Sensor: Nr:Datum:Temp:Feuchte:Taupunkt:
Aussen-T/F 2401 16-07-2016 08:00:00 13.7 C 89 % 11.92 C
2402 16-07-2016 08:05:00 13.8 C 89 % 12.02 C
2403 16-07-2016 08:10:00 13.9 C 88 % 11.95 C
2404 16-07-2016 08:15:00 13.9 C 88 % 11.95 C
2405 16-07-2016 08:20:00 14.1 C 89 % 12.32 C
2406 16-07-2016 08:25:00 14.2 C 88 % 12.24 C
2407 16-07-2016 08:30:00 14.3 C 89 % 12.51 C
2408 16-07-2016 08:35:00 14.5 C 89 % 12.71 C
2409 16-07-2016 08:40:00 14.7 C 88 % 12.73 C
2410 16-07-2016 08:45:00 14.8 C 86 % 12.48 C
2411 16-07-2016 08:50:00 14.9 C 86 % 12.58 C
2412 16-07-2016 08:55:00 15.1 C 86 % 12.78 C
2413 16-07-2016 09:00:00 15.2 C 85 % 12.7 C
2414 16-07-2016 09:05:00 15.3 C 84 % 12.61 C
2415 16-07-2016 09:10:00 15.4 C 84 % 12.71 C
2416 16-07-2016 09:15:00 15.6 C 85 % 13.09 C
2417 16-07-2016 09:20:00 15.7 C 83 % 12.82 C
2418 16-07-2016 09:25:00 15.8 C 84 % 13.1 C
2419 16-07-2016 09:30:00 15.9 C 84 % 13.2 C
2420 16-07-2016 09:35:00 16 C 83 % 13.12 C
2421 16-07-2016 09:40:00 16.1 C 82 % 13.03 C
2422 16-07-2016 09:45:00 16.2 C 83 % 13.31 C
2423 16-07-2016 09:50:00 16.3 C 82 % 13.22 C
2424 16-07-2016 09:55:00 16.3 C 82 % 13.22 C
2425 16-07-2016 10:00:00 16.4 C 81 % 13.13 C
Sensor: Nr:Datum:Temp:Feuchte:Taupunkt:
Aussen-T/F 2426 16-07-2016 10:05:00 16.7 C 80 % 13.23 C
2427 16-07-2016 10:10:00 16.8 C 79 % 13.14 C
2428 16-07-2016 10:15:00 17 C 81 % 13.72 C
2429 16-07-2016 10:20:00 17.2 C 79 % 13.53 C
2430 16-07-2016 10:25:00 17.4 C 78 % 13.53 C
2431 16-07-2016 10:30:00 17.5 C 78 % 13.62 C
2432 16-07-2016 10:35:00 17.6 C 78 % 13.72 C
2433 16-07-2016 10:40:00 17.8 C 77 % 13.72 C
2434 16-07-2016 10:45:00 17.9 C 76 % 13.61 C
2435 16-07-2016 10:50:00 18.1 C 76 % 13.81 C
2436 16-07-2016 10:55:00 18.2 C 74 % 13.49 C
2437 16-07-2016 11:00:00 18.3 C 74 % 13.59 C
2438 16-07-2016 11:05:00 18.3 C 75 % 13.79 C
2439 16-07-2016 11:10:00 18.4 C 76 % 14.1 C
2440 16-07-2016 11:15:00 18.5 C 76 % 14.19 C
2441 16-07-2016 11:20:00 18.6 C 76 % 14.29 C
2442 16-07-2016 11:25:00 18.7 C 77 % 14.59 C
2443 16-07-2016 11:30:00 18.8 C 76 % 14.48 C
2444 16-07-2016 11:35:00 18.9 C 74 % 14.17 C
2445 16-07-2016 11:40:00 19.1 C 78 % 15.18 C
2446 16-07-2016 11:45:00 19.1 C 77 % 14.97 C
2447 16-07-2016 11:50:00 19.1 C 76 % 14.77 C
2448 16-07-2016 11:55:00 19 C 71 % 13.63 C
2449 16-07-2016 12:00:00 19.1 C 69 % 13.28 C
2450 16-07-2016 12:05:00 19.3 C 69 % 13.47 C
Sensor: Nr:Datum:Temp:Feuchte:Taupunkt:
Aussen-T/F 2451 16-07-2016 12:10:00 19.5 C 66 % 12.98 C
2452 16-07-2016 12:15:00 19.7 C 66 % 13.17 C
2453 16-07-2016 12:20:00 19.8 C 65 % 13.03 C
2454 16-07-2016 12:25:00 19.9 C 65 % 13.13 C
2455 16-07-2016 12:30:00 20.1 C 66 % 13.55 C
2456 16-07-2016 12:35:00 20.3 C 68 % 14.2 C
2457 16-07-2016 12:40:00 20.6 C 68 % 14.49 C
2458 16-07-2016 12:45:00 20.8 C 68 % 14.68 C
2459 16-07-2016 12:50:00 20.9 C 67 % 14.55 C
2460 16-07-2016 12:55:00 20.9 C 67 % 14.55 C
2461 16-07-2016 13:00:00 20.9 C 65 % 14.08 C
2462 16-07-2016 13:05:00 21.1 C 65 % 14.27 C
2463 16-07-2016 13:10:00 21.1 C 65 % 14.27 C
2464 16-07-2016 13:15:00 21.1 C 66 % 14.5 C
2465 16-07-2016 13:20:00 21.1 C 71 % 15.64 C
2466 16-07-2016 13:25:00 21.1 C 65 % 14.27 C
2467 16-07-2016 13:30:00 21.2 C 66 % 14.6 C
2468 16-07-2016 13:35:00 21.3 C 67 % 14.93 C
2469 16-07-2016 13:40:00 21.4 C 67 % 15.02 C
2470 16-07-2016 13:45:00 21.4 C 65 % 14.55 C
2471 16-07-2016 13:50:00 21.6 C 69 % 15.67 C
2472 16-07-2016 13:55:00 21.5 C 67 % 15.12 C
2473 16-07-2016 14:00:00 21.4 C 66 % 14.79 C
2474 16-07-2016 14:05:00 21.4 C 68 % 15.25 C
2475 16-07-2016 14:10:00 21.3 C 69 % 15.38 C
Sensor: Nr:Datum:Temp:Feuchte:Taupunkt:
Aussen-T/F 2476 16-07-2016 14:15:00 21.4 C 72 % 16.14 C
2477 16-07-2016 14:20:00 21.3 C 71 % 15.83 C
2478 16-07-2016 14:25:00 21.3 C 71 % 15.83 C
2479 16-07-2016 14:30:00 21.2 C 71 % 15.73 C
2480 16-07-2016 14:35:00 21.2 C 68 % 15.06 C
2481 16-07-2016 14:40:00 21.1 C 69 % 15.19 C
2482 16-07-2016 14:45:00 21.1 C 69 % 15.19 C
2483 16-07-2016 14:50:00 21.1 C 70 % 15.42 C
2484 16-07-2016 14:55:00 21.2 C 70 % 15.51 C
2485 16-07-2016 15:00:00 21.2 C 70 % 15.51 C
2486 16-07-2016 15:05:00 21.3 C 69 % 15.38 C
2487 16-07-2016 15:10:00 21.4 C 69 % 15.48 C
2488 16-07-2016 15:15:00 21.5 C 69 % 15.57 C
2489 16-07-2016 15:20:00 21.6 C 69 % 15.67 C
2490 16-07-2016 15:25:00 21.7 C 69 % 15.77 C
2491 16-07-2016 15:30:00 21.7 C 70 % 15.99 C
2492 16-07-2016 15:35:00 21.8 C 70 % 16.09 C
2493 16-07-2016 15:40:00 21.9 C 69 % 15.96 C
2494 16-07-2016 15:45:00 21.9 C 68 % 15.73 C
2495 16-07-2016 15:50:00 21.9 C 69 % 15.96 C
2496 16-07-2016 15:55:00 22 C 70 % 16.28 C
2497 16-07-2016 16:00:00 22.1 C 70 % 16.37 C
2498 16-07-2016 16:05:00 22 C 70 % 16.28 C
2499 16-07-2016 16:10:00 22.1 C 74 % 17.25 C
2500 16-07-2016 16:15:00 22.1 C 71 % 16.6 C
Sensor: Nr:Datum:Temp:Feuchte:Taupunkt:
Aussen-T/F 2501 16-07-2016 16:20:00 22.2 C 73 % 17.13 C
2502 16-07-2016 16:25:00 22.3 C 75 % 17.65 C
2503 16-07-2016 16:30:00 22.3 C 73 % 17.23 C
2504 16-07-2016 16:35:00 22.3 C 75 % 17.65 C
2505 16-07-2016 16:40:00 22.3 C 73 % 17.23 C
2506 16-07-2016 16:45:00 22.4 C 76 % 17.96 C
2507 16-07-2016 16:50:00 22.3 C 76 % 17.86 C
2508 16-07-2016 16:55:00 22.3 C 77 % 18.07 C
2509 16-07-2016 17:00:00 22.2 C 77 % 17.98 C
2510 16-07-2016 17:05:00 22.1 C 76 % 17.67 C
2511 16-07-2016 17:10:00 21.9 C 77 % 17.68 C
2512 16-07-2016 17:15:00 21.7 C 79 % 17.9 C
2513 16-07-2016 17:20:00 21.5 C 79 % 17.7 C
2514 16-07-2016 17:25:00 21.4 C 80 % 17.81 C
2515 16-07-2016 17:30:00 21.3 C 80 % 17.71 C
2516 16-07-2016 17:35:00 21.3 C 81 % 17.91 C
2517 16-07-2016 17:40:00 21.3 C 81 % 17.91 C
2518 16-07-2016 17:45:00 21.3 C 81 % 17.91 C
2519 16-07-2016 17:50:00 21.3 C 76 % 16.9 C
2520 16-07-2016 17:55:00 21.3 C 80 % 17.71 C
2521 16-07-2016 18:00:00 21.4 C 80 % 17.81 C
2522 16-07-2016 18:05:00 21.3 C 75 % 16.69 C
2523 16-07-2016 18:10:00 21.3 C 81 % 17.91 C
2524 16-07-2016 18:15:00 21.4 C 80 % 17.81 C
2525 16-07-2016 18:20:00 21.3 C 78 % 17.31 C
Sensor: Nr:Datum:Temp:Feuchte:Taupunkt:
Aussen-T/F 2526 16-07-2016 18:25:00 21.3 C 80 % 17.71 C
2527 16-07-2016 18:30:00 21.2 C 81 % 17.81 C
2528 16-07-2016 18:35:00 21.2 C 81 % 17.81 C
2529 16-07-2016 18:40:00 21 C 82 % 17.81 C
2530 16-07-2016 18:45:00 20.9 C 82 % 17.71 C
2531 16-07-2016 18:50:00 20.8 C 83 % 17.81 C
2532 16-07-2016 18:55:00 20.7 C 83 % 17.71 C
2533 16-07-2016 19:00:00 20.7 C 83 % 17.71 C
2534 16-07-2016 19:05:00 20.6 C 83 % 17.61 C
2535 16-07-2016 19:10:00 20.6 C 83 % 17.61 C
2536 16-07-2016 19:15:00 20.6 C 83 % 17.61 C
2537 16-07-2016 19:20:00 20.5 C 83 % 17.51 C
2538 16-07-2016 19:25:00 20.5 C 83 % 17.51 C
2539 16-07-2016 19:30:00 20.5 C 83 % 17.51 C
2540 16-07-2016 19:35:00 20.4 C 82 % 17.22 C
2541 16-07-2016 19:40:00 20.4 C 82 % 17.22 C
2542 16-07-2016 19:45:00 20.5 C 83 % 17.51 C
2543 16-07-2016 19:50:00 20.5 C 83 % 17.51 C
2544 16-07-2016 19:55:00 20.5 C 83 % 17.51 C
2545 16-07-2016 20:00:00 20.4 C 83 % 17.42 C
2546 16-07-2016 20:05:00 20.4 C 83 % 17.42 C
2547 16-07-2016 20:10:00 20.4 C 83 % 17.42 C
2548 16-07-2016 20:15:00 20.3 C 83 % 17.32 C
2549 16-07-2016 20:20:00 20.3 C 83 % 17.32 C
2550 16-07-2016 20:25:00 20.2 C 83 % 17.22 C
Sensor: Nr:Datum:Temp:Feuchte:Taupunkt:
Aussen-T/F 2551 16-07-2016 20:30:00 20.3 C 83 % 17.32 C
2552 16-07-2016 20:35:00 20.4 C 82 % 17.22 C
2553 16-07-2016 20:40:00 20.4 C 81 % 17.03 C
2554 16-07-2016 20:45:00 20.3 C 81 % 16.93 C
2555 16-07-2016 20:50:00 20.2 C 81 % 16.84 C
2556 16-07-2016 20:55:00 20.1 C 82 % 16.93 C
2557 16-07-2016 21:00:00 19.9 C 82 % 16.74 C
2558 16-07-2016 21:05:00 19.7 C 82 % 16.54 C
2559 16-07-2016 21:10:00 19.6 C 83 % 16.63 C
2560 16-07-2016 21:15:00 19.4 C 84 % 16.63 C
2561 16-07-2016 21:20:00 19.3 C 84 % 16.53 C
2562 16-07-2016 21:25:00 19.2 C 85 % 16.62 C
2563 16-07-2016 21:30:00 19 C 85 % 16.42 C
2564 16-07-2016 21:35:00 18.8 C 85 % 16.23 C
2565 16-07-2016 21:40:00 18.7 C 85 % 16.13 C
2566 16-07-2016 21:45:00 18.6 C 85 % 16.03 C
2567 16-07-2016 21:50:00 18.5 C 85 % 15.93 C
2568 16-07-2016 21:55:00 18.5 C 85 % 15.93 C
2569 16-07-2016 22:00:00 18.4 C 85 % 15.83 C
2570 16-07-2016 22:05:00 18.5 C 85 % 15.93 C
2571 16-07-2016 22:10:00 18.5 C 86 % 16.11 C
2572 16-07-2016 22:15:00 18.5 C 86 % 16.11 C
2573 16-07-2016 22:20:00 18.5 C 86 % 16.11 C
2574 16-07-2016 22:25:00 18.5 C 87 % 16.3 C
2575 16-07-2016 22:30:00 18.4 C 87 % 16.2 C
Sensor: Nr:Datum:Temp:Feuchte:Taupunkt:
Aussen-T/F 2576 16-07-2016 22:35:00 18.3 C 87 % 16.1 C
2577 16-07-2016 22:40:00 18.3 C 88 % 16.28 C
2578 16-07-2016 22:45:00 18.2 C 88 % 16.18 C
2579 16-07-2016 22:50:00 18.1 C 88 % 16.08 C
2580 16-07-2016 22:55:00 18.1 C 89 % 16.26 C
2581 16-07-2016 23:00:00 18 C 89 % 16.16 C
2582 16-07-2016 23:05:00 17.9 C 89 % 16.06 C
2583 16-07-2016 23:10:00 17.9 C 90 % 16.24 C
2584 16-07-2016 23:15:00 17.8 C 90 % 16.14 C
2585 16-07-2016 23:20:00 17.8 C 90 % 16.14 C
2586 16-07-2016 23:25:00 17.7 C 90 % 16.04 C
2587 16-07-2016 23:30:00 17.6 C 90 % 15.94 C
2588 16-07-2016 23:35:00 17.5 C 90 % 15.84 C
2589 16-07-2016 23:40:00 17.4 C 90 % 15.74 C
2590 16-07-2016 23:45:00 17.2 C 90 % 15.55 C
2591 16-07-2016 23:50:00 17.1 C 91 % 15.62 C
2592 16-07-2016 23:55:00 17 C 91 % 15.52 C
2593 17-07-2016 00:00:00 16.9 C 91 % 15.42 C
2594 17-07-2016 00:05:00 16.8 C 92 % 15.49 C
2595 17-07-2016 00:10:00 16.8 C 92 % 15.49 C
2596 17-07-2016 00:15:00 16.7 C 92 % 15.39 C
2597 17-07-2016 00:20:00 16.6 C 92 % 15.3 C
2598 17-07-2016 00:25:00 16.5 C 92 % 15.2 C
2599 17-07-2016 00:30:00 16.4 C 92 % 15.1 C
2600 17-07-2016 00:35:00 16.3 C 92 % 15 C
Sensor: Nr:Datum:Temp:Feuchte:Taupunkt:
Aussen-T/F 2601 17-07-2016 00:40:00 16.2 C 92 % 14.9 C
2602 17-07-2016 00:45:00 16.2 C 93 % 15.07 C
2603 17-07-2016 00:50:00 16.2 C 93 % 15.07 C
2604 17-07-2016 00:55:00 16.2 C 93 % 15.07 C
2605 17-07-2016 01:00:00 16.3 C 94 % 15.33 C
2606 17-07-2016 01:05:00 16.3 C 94 % 15.33 C
2607 17-07-2016 01:10:00 16.4 C 94 % 15.43 C
2608 17-07-2016 01:15:00 16.5 C 94 % 15.53 C
2609 17-07-2016 01:20:00 16.5 C 94 % 15.53 C
2610 17-07-2016 01:25:00 16.6 C 94 % 15.63 C
2611 17-07-2016 01:30:00 16.6 C 94 % 15.63 C
2612 17-07-2016 01:35:00 16.7 C 94 % 15.73 C
2613 17-07-2016 01:40:00 16.7 C 94 % 15.73 C
2614 17-07-2016 01:45:00 16.7 C 94 % 15.73 C
2615 17-07-2016 01:50:00 16.7 C 94 % 15.73 C
2616 17-07-2016 01:55:00 16.8 C 94 % 15.83 C
2617 17-07-2016 02:00:00 16.8 C 94 % 15.83 C
2618 17-07-2016 02:05:00 16.9 C 94 % 15.93 C
2619 17-07-2016 02:10:00 16.9 C 94 % 15.93 C
2620 17-07-2016 02:15:00 16.9 C 94 % 15.93 C
2621 17-07-2016 02:20:00 17 C 94 % 16.03 C
2622 17-07-2016 02:25:00 17.1 C 94 % 16.13 C
2623 17-07-2016 02:30:00 17.1 C 94 % 16.13 C
2624 17-07-2016 02:35:00 17.1 C 94 % 16.13 C
2625 17-07-2016 02:40:00 17.1 C 94 % 16.13 C
Sensor: Nr:Datum:Temp:Feuchte:Taupunkt:
Aussen-T/F 2626 17-07-2016 02:45:00 17.2 C 94 % 16.23 C
2627 17-07-2016 02:50:00 17.2 C 93 % 16.06 C
2628 17-07-2016 02:55:00 17.2 C 93 % 16.06 C
2629 17-07-2016 03:00:00 17.2 C 93 % 16.06 C
2630 17-07-2016 03:05:00 17.3 C 93 % 16.16 C
2631 17-07-2016 03:10:00 17.3 C 93 % 16.16 C
2632 17-07-2016 03:15:00 17.3 C 93 % 16.16 C
2633 17-07-2016 03:20:00 17.2 C 93 % 16.06 C
2634 17-07-2016 03:25:00 17.2 C 93 % 16.06 C
2635 17-07-2016 03:30:00 17.2 C 93 % 16.06 C
2636 17-07-2016 03:35:00 17.2 C 93 % 16.06 C
2637 17-07-2016 03:40:00 17.2 C 93 % 16.06 C
2638 17-07-2016 03:45:00 17.2 C 93 % 16.06 C
2639 17-07-2016 03:50:00 17.2 C 93 % 16.06 C
2640 17-07-2016 03:55:00 17.1 C 93 % 15.96 C
2641 17-07-2016 04:00:00 17.1 C 93 % 15.96 C
2642 17-07-2016 04:05:00 17.1 C 94 % 16.13 C
2643 17-07-2016 04:10:00 17.1 C 94 % 16.13 C
2644 17-07-2016 04:15:00 17.2 C 94 % 16.23 C
2645 17-07-2016 04:20:00 17.2 C 94 % 16.23 C
2646 17-07-2016 04:25:00 17.2 C 94 % 16.23 C
2647 17-07-2016 04:30:00 17.2 C 94 % 16.23 C
2648 17-07-2016 04:35:00 17.1 C 94 % 16.13 C
2649 17-07-2016 04:40:00 17.1 C 94 % 16.13 C
2650 17-07-2016 04:45:00 17 C 93 % 15.86 C
Sensor: Nr:Datum:Temp:Feuchte:Taupunkt:
Aussen-T/F 2651 17-07-2016 04:50:00 16.9 C 93 % 15.76 C
2652 17-07-2016 04:55:00 16.7 C 93 % 15.56 C
2653 17-07-2016 05:00:00 16.6 C 93 % 15.46 C
2654 17-07-2016 05:05:00 16.5 C 93 % 15.36 C
2655 17-07-2016 05:10:00 16.5 C 93 % 15.36 C
2656 17-07-2016 05:15:00 16.5 C 94 % 15.53 C
2657 17-07-2016 05:20:00 16.5 C 94 % 15.53 C
2658 17-07-2016 05:25:00 16.5 C 94 % 15.53 C
2659 17-07-2016 05:30:00 16.5 C 94 % 15.53 C
2660 17-07-2016 05:35:00 16.5 C 94 % 15.53 C
2661 17-07-2016 05:40:00 16.4 C 94 % 15.43 C
2662 17-07-2016 05:45:00 16.4 C 94 % 15.43 C
2663 17-07-2016 05:50:00 16.4 C 94 % 15.43 C
2664 17-07-2016 05:55:00 16.5 C 95 % 15.7 C
2665 17-07-2016 06:00:00 16.6 C 95 % 15.8 C
2666 17-07-2016 06:05:00 16.6 C 95 % 15.8 C
2667 17-07-2016 06:10:00 16.6 C 95 % 15.8 C
2668 17-07-2016 06:15:00 16.7 C 95 % 15.9 C
2669 17-07-2016 06:20:00 16.7 C 95 % 15.9 C
2670 17-07-2016 06:25:00 16.8 C 95 % 15.99 C
2671 17-07-2016 06:30:00 16.8 C 95 % 15.99 C
2672 17-07-2016 06:35:00 16.9 C 95 % 16.09 C
2673 17-07-2016 06:40:00 17 C 95 % 16.19 C
2674 17-07-2016 06:45:00 17.1 C 95 % 16.29 C
2675 17-07-2016 06:50:00 17.1 C 95 % 16.29 C
Sensor: Nr:Datum:Temp:Feuchte:Taupunkt:
Aussen-T/F 2676 17-07-2016 06:55:00 17.1 C 95 % 16.29 C
2677 17-07-2016 07:00:00 17.2 C 95 % 16.39 C
2678 17-07-2016 07:05:00 17.2 C 95 % 16.39 C
2679 17-07-2016 07:10:00 17.3 C 95 % 16.49 C
2680 17-07-2016 07:15:00 17.4 C 95 % 16.59 C
2681 17-07-2016 07:20:00 17.4 C 95 % 16.59 C
2682 17-07-2016 07:25:00 17.5 C 95 % 16.69 C
2683 17-07-2016 07:30:00 17.6 C 95 % 16.79 C
2684 17-07-2016 07:35:00 17.7 C 95 % 16.89 C
2685 17-07-2016 07:40:00 17.7 C 94 % 16.72 C
2686 17-07-2016 07:45:00 17.8 C 94 % 16.82 C
2687 17-07-2016 07:50:00 17.9 C 94 % 16.92 C
2688 17-07-2016 07:55:00 18.1 C 93 % 16.95 C
2689 17-07-2016 08:00:00 18.2 C 93 % 17.05 C
2690 17-07-2016 08:05:00 18.3 C 92 % 16.98 C
2691 17-07-2016 08:10:00 18.4 C 92 % 17.08 C
2692 17-07-2016 08:15:00 18.5 C 92 % 17.18 C
2693 17-07-2016 08:20:00 18.6 C 92 % 17.27 C
2694 17-07-2016 08:25:00 18.8 C 92 % 17.47 C
2695 17-07-2016 08:30:00 18.8 C 92 % 17.47 C
2696 17-07-2016 08:35:00 18.9 C 91 % 17.4 C
2697 17-07-2016 08:40:00 19.1 C 90 % 17.42 C
2698 17-07-2016 08:45:00 19.1 C 90 % 17.42 C
2699 17-07-2016 08:50:00 19.3 C 90 % 17.62 C
2700 17-07-2016 08:55:00 19.4 C 89 % 17.54 C
Sensor: Nr:Datum:Temp:Feuchte:Taupunkt:
Aussen-T/F 2701 17-07-2016 09:00:00 19.5 C 88 % 17.46 C
2702 17-07-2016 09:05:00 19.6 C 88 % 17.56 C
2703 17-07-2016 09:10:00 19.7 C 88 % 17.66 C
2704 17-07-2016 09:15:00 19.8 C 88 % 17.75 C
2705 17-07-2016 09:20:00 20 C 88 % 17.95 C
2706 17-07-2016 09:25:00 20.2 C 87 % 17.97 C
2707 17-07-2016 09:30:00 20.3 C 87 % 18.06 C
2708 17-07-2016 09:35:00 20.4 C 86 % 17.98 C
2709 17-07-2016 09:40:00 20.6 C 87 % 18.36 C
2710 17-07-2016 09:45:00 20.8 C 85 % 18.18 C
2711 17-07-2016 09:50:00 20.9 C 84 % 18.09 C
2712 17-07-2016 09:55:00 21.2 C 84 % 18.39 C
2713 17-07-2016 10:00:00 21.4 C 83 % 18.39 C
2714 17-07-2016 10:05:00 21.7 C 82 % 18.49 C
2715 17-07-2016 10:10:00 21.9 C 81 % 18.49 C
2716 17-07-2016 10:15:00 22.1 C 80 % 18.49 C
2717 17-07-2016 10:20:00 22.2 C 80 % 18.58 C
2718 17-07-2016 10:25:00 22.3 C 80 % 18.68 C
2719 17-07-2016 10:30:00 22.5 C 79 % 18.67 C
2720 17-07-2016 10:35:00 22.7 C 77 % 18.46 C
2721 17-07-2016 10:40:00 22.8 C 74 % 17.92 C
2722 17-07-2016 10:45:00 22.9 C 74 % 18.02 C
2723 17-07-2016 10:50:00 23.1 C 75 % 18.43 C
2724 17-07-2016 10:55:00 23.3 C 73 % 18.19 C
2725 17-07-2016 11:00:00 23.4 C 73 % 18.28 C
Sensor: Nr:Datum:Temp:Feuchte:Taupunkt:
Aussen-T/F 2726 17-07-2016 11:05:00 23.5 C 72 % 18.16 C
2727 17-07-2016 11:10:00 23.6 C 73 % 18.48 C
2728 17-07-2016 11:15:00 23.7 C 72 % 18.35 C
2729 17-07-2016 11:20:00 23.8 C 69 % 17.77 C
2730 17-07-2016 11:25:00 23.8 C 74 % 18.89 C
2731 17-07-2016 11:30:00 23.7 C 70 % 17.9 C
2732 17-07-2016 11:35:00 23.7 C 70 % 17.9 C
2733 17-07-2016 11:40:00 23.7 C 73 % 18.57 C
2734 17-07-2016 11:45:00 23.7 C 73 % 18.57 C
2735 17-07-2016 11:50:00 23.8 C 73 % 18.67 C
2736 17-07-2016 11:55:00 24 C 71 % 18.42 C
2737 17-07-2016 12:00:00 24.2 C 73 % 19.05 C
2738 17-07-2016 12:05:00 24.3 C 72 % 18.93 C
2739 17-07-2016 12:10:00 24.4 C 72 % 19.02 C
2740 17-07-2016 12:15:00 24.6 C 76 % 20.09 C
2741 17-07-2016 12:20:00 24.5 C 74 % 19.56 C
2742 17-07-2016 12:25:00 24.6 C 69 % 18.53 C
2743 17-07-2016 12:30:00 24.7 C 74 % 19.75 C
2744 17-07-2016 12:35:00 24.7 C 74 % 19.75 C
2745 17-07-2016 12:40:00 24.4 C 75 % 19.68 C
2746 17-07-2016 12:45:00 24.2 C 76 % 19.7 C
2747 17-07-2016 12:50:00 23.9 C 78 % 19.83 C
2748 17-07-2016 12:55:00 23.7 C 79 % 19.84 C
2749 17-07-2016 13:00:00 23.5 C 79 % 19.65 C
2750 17-07-2016 13:05:00 23.4 C 81 % 19.95 C
Sensor: Nr:Datum:Temp:Feuchte:Taupunkt:
Aussen-T/F 2751 17-07-2016 13:10:00 23.4 C 82 % 20.15 C
2752 17-07-2016 13:15:00 23.7 C 75 % 19 C
2753 17-07-2016 13:20:00 24.2 C 76 % 19.7 C
2754 17-07-2016 13:25:00 24.4 C 70 % 18.57 C
2755 17-07-2016 13:30:00 24.7 C 70 % 18.86 C
2756 17-07-2016 13:35:00 24.9 C 69 % 18.82 C
2757 17-07-2016 13:40:00 24.9 C 71 % 19.28 C
2758 17-07-2016 13:45:00 25 C 70 % 19.15 C
2759 17-07-2016 13:50:00 25.2 C 71 % 19.56 C
2760 17-07-2016 13:55:00 25.3 C 69 % 19.2 C
2761 17-07-2016 14:00:00 25.4 C 71 % 19.76 C
2762 17-07-2016 14:05:00 25.4 C 72 % 19.98 C
2763 17-07-2016 14:10:00 25.6 C 75 % 20.84 C
2764 17-07-2016 14:15:00 25.5 C 75 % 20.74 C
2765 17-07-2016 14:20:00 25.3 C 75 % 20.55 C
2766 17-07-2016 14:25:00 25.2 C 76 % 20.67 C
2767 17-07-2016 14:30:00 25.2 C 77 % 20.88 C
2768 17-07-2016 14:35:00 25.2 C 77 % 20.88 C
2769 17-07-2016 14:40:00 25.3 C 75 % 20.55 C
2770 17-07-2016 14:45:00 25.4 C 75 % 20.64 C
2771 17-07-2016 14:50:00 25.5 C 73 % 20.3 C
2772 17-07-2016 14:55:00 25.6 C 75 % 20.84 C
2773 17-07-2016 15:00:00 25.7 C 75 % 20.93 C
2774 17-07-2016 15:05:00 25.7 C 75 % 20.93 C
2775 17-07-2016 15:10:00 25.7 C 77 % 21.36 C
Sensor: Nr:Datum:Temp:Feuchte:Taupunkt:
Aussen-T/F 2776 17-07-2016 15:15:00 25.7 C 78 % 21.57 C
2777 17-07-2016 15:20:00 25.7 C 69 % 19.58 C
2778 17-07-2016 15:25:00 25.8 C 73 % 20.59 C
2779 17-07-2016 15:30:00 25.7 C 71 % 20.04 C
2780 17-07-2016 15:35:00 25.3 C 64 % 18 C
2781 17-07-2016 15:40:00 25.1 C 65 % 18.06 C
2782 17-07-2016 15:45:00 25.1 C 66 % 18.3 C
2783 17-07-2016 15:50:00 25.2 C 66 % 18.39 C
2784 17-07-2016 15:55:00 25.7 C 66 % 18.87 C
2785 17-07-2016 16:00:00 26.3 C 62 % 18.44 C
2786 17-07-2016 16:05:00 26.7 C 60 % 18.29 C
2787 17-07-2016 16:10:00 26.7 C 61 % 18.55 C
2788 17-07-2016 16:15:00 26.4 C 62 % 18.53 C
2789 17-07-2016 16:20:00 26.1 C 62 % 18.25 C
2790 17-07-2016 16:25:00 26.1 C 62 % 18.25 C
2791 17-07-2016 16:30:00 26.2 C 63 % 18.6 C
2792 17-07-2016 16:35:00 26.6 C 62 % 18.72 C
2793 17-07-2016 16:40:00 27.1 C 60 % 18.66 C
2794 17-07-2016 16:45:00 27.1 C 58 % 18.12 C
2795 17-07-2016 16:50:00 26.8 C 60 % 18.38 C
2796 17-07-2016 16:55:00 26.8 C 61 % 18.65 C
2797 17-07-2016 17:00:00 26.7 C 60 % 18.29 C
2798 17-07-2016 17:05:00 26.4 C 61 % 18.27 C
2799 17-07-2016 17:10:00 26.2 C 61 % 18.08 C
2800 17-07-2016 17:15:00 26.2 C 61 % 18.08 C
Sensor: Nr:Datum:Temp:Feuchte:Taupunkt:
Aussen-T/F 2801 17-07-2016 17:20:00 26.3 C 60 % 17.91 C
2802 17-07-2016 17:25:00 26.2 C 60 % 17.82 C
2803 17-07-2016 17:30:00 26.4 C 59 % 17.74 C
2804 17-07-2016 17:35:00 26.5 C 59 % 17.83 C
2805 17-07-2016 17:40:00 26.4 C 58 % 17.47 C
2806 17-07-2016 17:45:00 26.2 C 59 % 17.55 C
2807 17-07-2016 17:50:00 26.2 C 58 % 17.28 C
2808 17-07-2016 17:55:00 26.4 C 57 % 17.19 C
2809 17-07-2016 18:00:00 26.4 C 56 % 16.92 C
2810 17-07-2016 18:05:00 26.1 C 56 % 16.64 C
2811 17-07-2016 18:10:00 25.9 C 59 % 17.27 C
2812 17-07-2016 18:15:00 25.9 C 58 % 17 C
2813 17-07-2016 18:20:00 26.1 C 58 % 17.19 C
2814 17-07-2016 18:25:00 26.1 C 58 % 17.19 C
2815 17-07-2016 18:30:00 25.8 C 59 % 17.18 C
2816 17-07-2016 18:35:00 25.7 C 60 % 17.35 C
2817 17-07-2016 18:40:00 25.6 C 60 % 17.26 C
2818 17-07-2016 18:45:00 25.7 C 61 % 17.61 C
2819 17-07-2016 18:50:00 25.7 C 65 % 18.62 C
2820 17-07-2016 18:55:00 25.7 C 60 % 17.35 C
2821 17-07-2016 19:00:00 25.6 C 59 % 16.99 C
2822 17-07-2016 19:05:00 25.6 C 62 % 17.78 C
2823 17-07-2016 19:10:00 25.4 C 61 % 17.33 C
2824 17-07-2016 19:15:00 25.3 C 60 % 16.98 C
2825 17-07-2016 19:20:00 25.1 C 60 % 16.79 C
Sensor: Nr:Datum:Temp:Feuchte:Taupunkt:
Aussen-T/F 2826 17-07-2016 19:25:00 25 C 61 % 16.96 C
2827 17-07-2016 19:30:00 25 C 70 % 19.15 C
2828 17-07-2016 19:35:00 24.8 C 68 % 18.49 C
2829 17-07-2016 19:40:00 24.7 C 69 % 18.63 C
2830 17-07-2016 19:45:00 24.8 C 63 % 17.28 C
2831 17-07-2016 19:50:00 25.1 C 65 % 18.06 C
2832 17-07-2016 19:55:00 25.4 C 62 % 17.59 C
2833 17-07-2016 20:00:00 25.6 C 61 % 17.52 C
2834 17-07-2016 20:05:00 25.6 C 61 % 17.52 C
2835 17-07-2016 20:10:00 25.6 C 60 % 17.26 C
2836 17-07-2016 20:15:00 25.4 C 62 % 17.59 C
2837 17-07-2016 20:20:00 25.2 C 62 % 17.4 C
2838 17-07-2016 20:25:00 25 C 64 % 17.72 C
2839 17-07-2016 20:30:00 24.8 C 69 % 18.72 C
2840 17-07-2016 20:35:00 24.5 C 70 % 18.67 C
2841 17-07-2016 20:40:00 24.3 C 71 % 18.7 C
2842 17-07-2016 20:45:00 24.1 C 72 % 18.73 C
2843 17-07-2016 20:50:00 23.8 C 71 % 18.22 C
2844 17-07-2016 20:55:00 23.7 C 70 % 17.9 C
2845 17-07-2016 21:00:00 23.6 C 72 % 18.26 C
2846 17-07-2016 21:05:00 23.5 C 75 % 18.81 C
2847 17-07-2016 21:10:00 23.3 C 75 % 18.62 C
2848 17-07-2016 21:15:00 23 C 76 % 18.54 C
2849 17-07-2016 21:20:00 22.7 C 76 % 18.25 C
2850 17-07-2016 21:25:00 22.5 C 77 % 18.27 C
Sensor: Nr:Datum:Temp:Feuchte:Taupunkt:
Aussen-T/F 2851 17-07-2016 21:30:00 22.3 C 78 % 18.28 C
2852 17-07-2016 21:35:00 22.2 C 79 % 18.38 C
2853 17-07-2016 21:40:00 21.9 C 80 % 18.29 C
2854 17-07-2016 21:45:00 21.7 C 81 % 18.3 C
2855 17-07-2016 21:50:00 21.6 C 82 % 18.39 C
2856 17-07-2016 21:55:00 21.4 C 82 % 18.2 C
2857 17-07-2016 22:00:00 21.3 C 83 % 18.29 C
2858 17-07-2016 22:05:00 21.2 C 83 % 18.2 C
2859 17-07-2016 22:10:00 21.1 C 84 % 18.29 C
2860 17-07-2016 22:15:00 21 C 84 % 18.19 C
2861 17-07-2016 22:20:00 20.9 C 84 % 18.09 C
2862 17-07-2016 22:25:00 20.8 C 85 % 18.18 C
2863 17-07-2016 22:30:00 20.8 C 85 % 18.18 C
2864 17-07-2016 22:35:00 20.7 C 85 % 18.09 C
2865 17-07-2016 22:40:00 20.7 C 86 % 18.27 C
2866 17-07-2016 22:45:00 20.6 C 86 % 18.18 C
2867 17-07-2016 22:50:00 20.6 C 86 % 18.18 C
2868 17-07-2016 22:55:00 20.6 C 86 % 18.18 C
2869 17-07-2016 23:00:00 20.5 C 86 % 18.08 C
2870 17-07-2016 23:05:00 20.4 C 87 % 18.16 C
2871 17-07-2016 23:10:00 20.4 C 87 % 18.16 C
2872 17-07-2016 23:15:00 20.3 C 87 % 18.06 C
2873 17-07-2016 23:20:00 20.3 C 87 % 18.06 C
2874 17-07-2016 23:25:00 20.3 C 87 % 18.06 C
2875 17-07-2016 23:30:00 20.2 C 87 % 17.97 C
Sensor: Nr:Datum:Temp:Feuchte:Taupunkt:
Aussen-T/F 2876 17-07-2016 23:35:00 20.2 C 87 % 17.97 C
2877 17-07-2016 23:40:00 20.1 C 88 % 18.05 C
2878 17-07-2016 23:45:00 19.9 C 88 % 17.85 C
2879 17-07-2016 23:50:00 19.9 C 88 % 17.85 C
2880 17-07-2016 23:55:00 19.8 C 88 % 17.75 C
2881 18-07-2016 00:00:00 19.8 C 88 % 17.75 C
2882 18-07-2016 00:05:00 19.8 C 88 % 17.75 C
2883 18-07-2016 00:10:00 19.7 C 89 % 17.84 C
2884 18-07-2016 00:15:00 19.6 C 89 % 17.74 C
2885 18-07-2016 00:20:00 19.5 C 89 % 17.64 C
2886 18-07-2016 00:25:00 19.4 C 89 % 17.54 C
2887 18-07-2016 00:30:00 19.4 C 89 % 17.54 C
2888 18-07-2016 00:35:00 19.3 C 89 % 17.44 C
2889 18-07-2016 00:40:00 19.3 C 89 % 17.44 C
2890 18-07-2016 00:45:00 19.2 C 90 % 17.52 C
2891 18-07-2016 00:50:00 19.1 C 90 % 17.42 C
2892 18-07-2016 00:55:00 19.1 C 90 % 17.42 C
2893 18-07-2016 01:00:00 19 C 90 % 17.32 C
2894 18-07-2016 01:05:00 18.9 C 90 % 17.22 C
2895 18-07-2016 01:10:00 18.9 C 91 % 17.4 C
2896 18-07-2016 01:15:00 18.8 C 91 % 17.3 C
2897 18-07-2016 01:20:00 18.8 C 91 % 17.3 C
2898 18-07-2016 01:25:00 18.7 C 91 % 17.2 C
2899 18-07-2016 01:30:00 18.7 C 92 % 17.37 C
2900 18-07-2016 01:35:00 18.7 C 92 % 17.37 C
Sensor: Nr:Datum:Temp:Feuchte:Taupunkt:
Aussen-T/F 2901 18-07-2016 01:40:00 18.7 C 92 % 17.37 C
2902 18-07-2016 01:45:00 18.7 C 92 % 17.37 C
2903 18-07-2016 01:50:00 18.6 C 92 % 17.27 C
2904 18-07-2016 01:55:00 18.6 C 92 % 17.27 C
2905 18-07-2016 02:00:00 18.4 C 92 % 17.08 C
2906 18-07-2016 02:05:00 18.4 C 92 % 17.08 C
2907 18-07-2016 02:10:00 18.3 C 92 % 16.98 C
2908 18-07-2016 02:15:00 18.3 C 92 % 16.98 C
2909 18-07-2016 02:20:00 18.2 C 92 % 16.88 C
2910 18-07-2016 02:25:00 18.2 C 92 % 16.88 C
2911 18-07-2016 02:30:00 18.1 C 92 % 16.78 C
2912 18-07-2016 02:35:00 18 C 93 % 16.85 C
2913 18-07-2016 02:40:00 17.9 C 93 % 16.75 C
2914 18-07-2016 02:45:00 17.9 C 93 % 16.75 C
2915 18-07-2016 02:50:00 17.9 C 93 % 16.75 C
2916 18-07-2016 02:55:00 17.8 C 93 % 16.65 C
2917 18-07-2016 03:00:00 17.8 C 93 % 16.65 C
2918 18-07-2016 03:05:00 17.7 C 93 % 16.55 C
2919 18-07-2016 03:10:00 17.7 C 93 % 16.55 C
2920 18-07-2016 03:15:00 17.6 C 93 % 16.45 C
2921 18-07-2016 03:20:00 17.6 C 93 % 16.45 C
2922 18-07-2016 03:25:00 17.6 C 93 % 16.45 C
2923 18-07-2016 03:30:00 17.6 C 93 % 16.45 C
2924 18-07-2016 03:35:00 17.6 C 93 % 16.45 C
2925 18-07-2016 03:40:00 17.6 C 94 % 16.62 C
Sensor: Nr:Datum:Temp:Feuchte:Taupunkt:
Aussen-T/F 2926 18-07-2016 03:45:00 17.6 C 94 % 16.62 C
2927 18-07-2016 03:50:00 17.6 C 94 % 16.62 C
2928 18-07-2016 03:55:00 17.6 C 94 % 16.62 C
2929 18-07-2016 04:00:00 17.5 C 94 % 16.52 C
2930 18-07-2016 04:05:00 17.5 C 94 % 16.52 C
2931 18-07-2016 04:10:00 17.4 C 94 % 16.42 C
2932 18-07-2016 04:15:00 17.4 C 94 % 16.42 C
2933 18-07-2016 04:20:00 17.4 C 94 % 16.42 C
2934 18-07-2016 04:25:00 17.3 C 94 % 16.33 C
2935 18-07-2016 04:30:00 17.3 C 93 % 16.16 C
2936 18-07-2016 04:35:00 17.3 C 94 % 16.33 C
2937 18-07-2016 04:40:00 17.3 C 94 % 16.33 C
2938 18-07-2016 04:45:00 17.3 C 94 % 16.33 C
2939 18-07-2016 04:50:00 17.2 C 94 % 16.23 C
2940 18-07-2016 04:55:00 17.2 C 94 % 16.23 C
2941 18-07-2016 05:00:00 17.1 C 94 % 16.13 C
2942 18-07-2016 05:05:00 16.9 C 93 % 15.76 C
2943 18-07-2016 05:10:00 16.8 C 93 % 15.66 C
2944 18-07-2016 05:15:00 16.8 C 94 % 15.83 C
2945 18-07-2016 05:20:00 16.7 C 94 % 15.73 C
2946 18-07-2016 05:25:00 16.6 C 94 % 15.63 C
2947 18-07-2016 05:30:00 16.5 C 94 % 15.53 C
2948 18-07-2016 05:35:00 16.4 C 94 % 15.43 C
2949 18-07-2016 05:40:00 16.4 C 94 % 15.43 C
2950 18-07-2016 05:45:00 16.3 C 94 % 15.33 C
Sensor: Nr:Datum:Temp:Feuchte:Taupunkt:
Aussen-T/F 2951 18-07-2016 05:50:00 16.3 C 94 % 15.33 C
2952 18-07-2016 05:55:00 16.2 C 94 % 15.23 C
2953 18-07-2016 06:00:00 16.2 C 94 % 15.23 C
2954 18-07-2016 06:05:00 16.2 C 94 % 15.23 C
2955 18-07-2016 06:10:00 16.1 C 94 % 15.13 C
2956 18-07-2016 06:15:00 16.2 C 95 % 15.4 C
2957 18-07-2016 06:20:00 16.2 C 95 % 15.4 C
2958 18-07-2016 06:25:00 16.3 C 95 % 15.5 C
2959 18-07-2016 06:30:00 16.3 C 95 % 15.5 C
2960 18-07-2016 06:35:00 16.3 C 95 % 15.5 C
2961 18-07-2016 06:40:00 16.3 C 95 % 15.5 C
2962 18-07-2016 06:45:00 16.3 C 95 % 15.5 C
2963 18-07-2016 06:50:00 16.4 C 95 % 15.6 C
2964 18-07-2016 06:55:00 16.4 C 95 % 15.6 C
2965 18-07-2016 07:00:00 16.4 C 95 % 15.6 C
2966 18-07-2016 07:05:00 16.3 C 95 % 15.5 C
2967 18-07-2016 07:10:00 16.3 C 95 % 15.5 C
2968 18-07-2016 07:15:00 16.3 C 95 % 15.5 C
2969 18-07-2016 07:20:00 16.3 C 95 % 15.5 C
2970 18-07-2016 07:25:00 16.3 C 95 % 15.5 C
2971 18-07-2016 07:30:00 16.3 C 95 % 15.5 C
2972 18-07-2016 07:35:00 16.3 C 95 % 15.5 C
2973 18-07-2016 07:40:00 16.4 C 95 % 15.6 C
2974 18-07-2016 07:45:00 16.4 C 95 % 15.6 C
2975 18-07-2016 07:50:00 16.4 C 95 % 15.6 C
Sensor: Nr:Datum:Temp:Feuchte:Taupunkt:
Aussen-T/F 2976 18-07-2016 07:55:00 16.5 C 95 % 15.7 C
2977 18-07-2016 08:00:00 16.6 C 95 % 15.8 C
2978 18-07-2016 08:05:00 16.6 C 95 % 15.8 C
2979 18-07-2016 08:10:00 16.7 C 95 % 15.9 C
2980 18-07-2016 08:15:00 16.7 C 95 % 15.9 C
2981 18-07-2016 08:20:00 16.8 C 95 % 15.99 C
2982 18-07-2016 08:25:00 16.9 C 96 % 16.26 C
2983 18-07-2016 08:30:00 17 C 96 % 16.36 C
2984 18-07-2016 08:35:00 17.1 C 95 % 16.29 C
2985 18-07-2016 08:40:00 17.2 C 95 % 16.39 C
2986 18-07-2016 08:45:00 17.2 C 96 % 16.56 C
2987 18-07-2016 08:50:00 17.3 C 96 % 16.66 C
2988 18-07-2016 08:55:00 17.4 C 96 % 16.76 C
2989 18-07-2016 09:00:00 17.5 C 96 % 16.85 C
2990 18-07-2016 09:05:00 17.6 C 96 % 16.95 C
2991 18-07-2016 09:10:00 17.7 C 96 % 17.05 C
2992 18-07-2016 09:15:00 17.8 C 95 % 16.99 C
2993 18-07-2016 09:20:00 17.8 C 95 % 16.99 C
2994 18-07-2016 09:25:00 18 C 96 % 17.35 C
2995 18-07-2016 09:30:00 18.2 C 95 % 17.39 C
2996 18-07-2016 09:35:00 18.3 C 96 % 17.65 C
2997 18-07-2016 09:40:00 18.5 C 95 % 17.68 C
2998 18-07-2016 09:45:00 18.6 C 95 % 17.78 C
2999 18-07-2016 09:50:00 18.7 C 95 % 17.88 C
3000 18-07-2016 09:55:00 18.7 C 95 % 17.88 C
Sensor: Nr:Datum:Temp:Feuchte:Taupunkt:
Aussen-T/F 3001 18-07-2016 10:00:00 18.9 C 94 % 17.91 C
3002 18-07-2016 10:05:00 19 C 94 % 18.01 C
3003 18-07-2016 10:10:00 19.2 C 94 % 18.21 C
3004 18-07-2016 10:15:00 19.3 C 93 % 18.14 C
3005 18-07-2016 10:20:00 19.7 C 92 % 18.36 C
3006 18-07-2016 10:25:00 20.1 C 91 % 18.58 C
3007 18-07-2016 10:30:00 20.6 C 88 % 18.54 C
3008 18-07-2016 10:35:00 21.2 C 86 % 18.76 C
3009 18-07-2016 10:40:00 21.8 C 84 % 18.97 C
3010 18-07-2016 10:45:00 22.4 C 80 % 18.78 C
3011 18-07-2016 10:50:00 22.8 C 77 % 18.56 C
3012 18-07-2016 10:55:00 23.1 C 76 % 18.64 C
3013 18-07-2016 11:00:00 23.2 C 78 % 19.15 C
3014 18-07-2016 11:05:00 23 C 77 % 18.75 C
3015 18-07-2016 11:10:00 22.8 C 78 % 18.76 C
3016 18-07-2016 11:15:00 22.7 C 76 % 18.25 C
3017 18-07-2016 11:20:00 22.6 C 77 % 18.36 C
3018 18-07-2016 11:25:00 22.7 C 73 % 17.61 C
3019 18-07-2016 11:30:00 22.9 C 73 % 17.8 C
3020 18-07-2016 11:35:00 23.1 C 72 % 17.78 C
3021 18-07-2016 11:40:00 23.2 C 72 % 17.87 C
3022 18-07-2016 11:45:00 23.3 C 72 % 17.97 C
3023 18-07-2016 11:50:00 23.4 C 71 % 17.84 C
3024 18-07-2016 11:55:00 23.5 C 67 % 17.02 C
3025 18-07-2016 12:00:00 23.6 C 69 % 17.58 C
Sensor: Nr:Datum:Temp:Feuchte:Taupunkt:
Aussen-T/F 3026 18-07-2016 12:05:00 23.7 C 68 % 17.44 C
3027 18-07-2016 12:10:00 23.7 C 68 % 17.44 C
3028 18-07-2016 12:15:00 23.7 C 68 % 17.44 C
3029 18-07-2016 12:20:00 23.7 C 69 % 17.67 C
3030 18-07-2016 12:25:00 23.7 C 67 % 17.21 C
3031 18-07-2016 12:30:00 23.8 C 66 % 17.07 C
3032 18-07-2016 12:35:00 23.9 C 65 % 16.92 C
3033 18-07-2016 12:40:00 24 C 66 % 17.26 C
3034 18-07-2016 12:45:00 24 C 67 % 17.49 C
3035 18-07-2016 12:50:00 24.1 C 65 % 17.11 C
3036 18-07-2016 12:55:00 24.2 C 63 % 16.71 C
3037 18-07-2016 13:00:00 24.3 C 66 % 17.54 C
3038 18-07-2016 13:05:00 24.3 C 71 % 18.7 C
3039 18-07-2016 13:10:00 24.2 C 64 % 16.96 C
3040 18-07-2016 13:15:00 24.3 C 65 % 17.3 C
3041 18-07-2016 13:20:00 24.4 C 64 % 17.15 C
3042 18-07-2016 13:25:00 24.5 C 68 % 18.2 C
3043 18-07-2016 13:30:00 24.4 C 65 % 17.39 C
3044 18-07-2016 13:35:00 24.3 C 61 % 16.3 C
3045 18-07-2016 13:40:00 24.3 C 61 % 16.3 C
3046 18-07-2016 13:45:00 24.5 C 63 % 16.99 C
3047 18-07-2016 13:50:00 24.5 C 58 % 15.7 C
3048 18-07-2016 13:55:00 24.7 C 59 % 16.15 C
3049 18-07-2016 14:00:00 24.9 C 56 % 15.52 C
3050 18-07-2016 14:05:00 24.9 C 54 % 14.95 C
Sensor: Nr:Datum:Temp:Feuchte:Taupunkt:
Aussen-T/F 3051 18-07-2016 14:10:00 24.9 C 57 % 15.8 C
3052 18-07-2016 14:15:00 24.9 C 53 % 14.66 C
3053 18-07-2016 14:20:00 25 C 56 % 15.61 C
3054 18-07-2016 14:25:00 25.2 C 56 % 15.8 C
3055 18-07-2016 14:30:00 25.3 C 53 % 15.03 C
3056 18-07-2016 14:35:00 25.6 C 53 % 15.31 C
3057 18-07-2016 14:40:00 25.7 C 48 % 13.87 C
3058 18-07-2016 14:45:00 25.8 C 52 % 15.2 C
3059 18-07-2016 14:50:00 25.8 C 52 % 15.2 C
3060 18-07-2016 14:55:00 25.9 C 52 % 15.29 C
3061 18-07-2016 15:00:00 26 C 55 % 16.26 C
3062 18-07-2016 15:05:00 26 C 52 % 15.38 C
3063 18-07-2016 15:10:00 26.1 C 54 % 16.07 C
3064 18-07-2016 15:15:00 26.4 C 51 % 15.45 C
3065 18-07-2016 15:20:00 26.8 C 51 % 15.82 C
3066 18-07-2016 15:25:00 26.9 C 49 % 15.28 C
3067 18-07-2016 15:30:00 26.9 C 49 % 15.28 C
3068 18-07-2016 15:35:00 27.3 C 46 % 14.67 C
3069 18-07-2016 15:40:00 27.8 C 45 % 14.78 C
3070 18-07-2016 15:45:00 28.1 C 46 % 15.39 C
3071 18-07-2016 15:50:00 28.2 C 53 % 17.71 C
3072 18-07-2016 15:55:00 28.3 C 55 % 18.39 C
3073 18-07-2016 16:00:00 28.5 C 43 % 14.71 C
3074 18-07-2016 16:05:00 28.7 C 45 % 15.59 C
3075 18-07-2016 16:10:00 29.1 C 44 % 15.6 C
Sensor: Nr:Datum:Temp:Feuchte:Taupunkt:
Aussen-T/F 3076 18-07-2016 16:15:00 29.3 C 49 % 17.48 C
3077 18-07-2016 16:20:00 29.5 C 44 % 15.96 C
3078 18-07-2016 16:25:00 29.4 C 43 % 15.51 C
3079 18-07-2016 16:30:00 29.2 C 43 % 15.33 C
3080 18-07-2016 16:35:00 29.1 C 44 % 15.6 C
3081 18-07-2016 16:40:00 28.9 C 43 % 15.06 C
3082 18-07-2016 16:45:00 28.7 C 46 % 15.94 C
3083 18-07-2016 16:50:00 28.7 C 46 % 15.94 C
3084 18-07-2016 16:55:00 28.9 C 47 % 16.45 C
3085 18-07-2016 17:00:00 29.1 C 42 % 14.88 C
3086 18-07-2016 17:05:00 29.4 C 48 % 17.24 C
3087 18-07-2016 17:10:00 29.5 C 44 % 15.96 C
3088 18-07-2016 17:15:00 29.7 C 46 % 16.84 C
3089 18-07-2016 17:20:00 29.7 C 44 % 16.14 C
3090 18-07-2016 17:25:00 29.8 C 47 % 17.27 C
3091 18-07-2016 17:30:00 29.9 C 47 % 17.36 C
3092 18-07-2016 17:35:00 30 C 45 % 16.77 C
3093 18-07-2016 17:40:00 30.2 C 44 % 16.59 C
3094 18-07-2016 17:45:00 30.2 C 43 % 16.23 C
3095 18-07-2016 17:50:00 30.2 C 43 % 16.23 C
3096 18-07-2016 17:55:00 30.1 C 44 % 16.5 C
3097 18-07-2016 18:00:00 30 C 43 % 16.05 C
3098 18-07-2016 18:05:00 29.9 C 41 % 15.22 C
3099 18-07-2016 18:10:00 29.8 C 42 % 15.51 C
3100 18-07-2016 18:15:00 29.8 C 41 % 15.13 C
Sensor: Nr:Datum:Temp:Feuchte:Taupunkt:
Aussen-T/F 3101 18-07-2016 18:20:00 29.9 C 42 % 15.6 C
3102 18-07-2016 18:25:00 29.9 C 44 % 16.32 C
3103 18-07-2016 18:30:00 30 C 50 % 18.44 C
3104 18-07-2016 18:35:00 30.3 C 53 % 19.65 C
3105 18-07-2016 18:40:00 30.6 C 42 % 16.22 C
3106 18-07-2016 18:45:00 30.7 C 40 % 15.55 C
3107 18-07-2016 18:50:00 30.3 C 42 % 15.95 C
3108 18-07-2016 18:55:00 30.1 C 40 % 15.01 C
3109 18-07-2016 19:00:00 30.1 C 43 % 16.14 C
3110 18-07-2016 19:05:00 30.2 C 46 % 17.3 C
3111 18-07-2016 19:10:00 30.3 C 42 % 15.95 C
3112 18-07-2016 19:15:00 30.2 C 42 % 15.86 C
3113 18-07-2016 19:20:00 30.1 C 49 % 18.21 C
3114 18-07-2016 19:25:00 29.8 C 52 % 18.88 C
3115 18-07-2016 19:30:00 29.4 C 54 % 19.12 C
3116 18-07-2016 19:35:00 29 C 55 % 19.04 C
3117 18-07-2016 19:40:00 28.6 C 56 % 18.96 C
3118 18-07-2016 19:45:00 28.2 C 57 % 18.87 C
3119 18-07-2016 19:50:00 27.7 C 58 % 18.68 C
3120 18-07-2016 19:55:00 27.2 C 60 % 18.76 C
3121 18-07-2016 20:00:00 26.7 C 61 % 18.55 C
3122 18-07-2016 20:05:00 26.4 C 62 % 18.53 C
3123 18-07-2016 20:10:00 26.2 C 63 % 18.6 C
3124 18-07-2016 20:15:00 25.9 C 63 % 18.31 C
3125 18-07-2016 20:20:00 25.7 C 64 % 18.38 C
Sensor: Nr:Datum:Temp:Feuchte:Taupunkt:
Aussen-T/F 3126 18-07-2016 20:25:00 25.5 C 64 % 18.19 C
3127 18-07-2016 20:30:00 25.3 C 65 % 18.25 C
3128 18-07-2016 20:35:00 25.1 C 64 % 17.81 C
3129 18-07-2016 20:40:00 24.9 C 65 % 17.87 C
3130 18-07-2016 20:45:00 24.6 C 65 % 17.58 C
3131 18-07-2016 20:50:00 24.3 C 66 % 17.54 C
3132 18-07-2016 20:55:00 24.1 C 67 % 17.59 C
3133 18-07-2016 21:00:00 23.7 C 67 % 17.21 C
3134 18-07-2016 21:05:00 23.4 C 68 % 17.16 C
3135 18-07-2016 21:10:00 23.2 C 69 % 17.2 C
3136 18-07-2016 21:15:00 22.8 C 70 % 17.04 C
3137 18-07-2016 21:20:00 22.6 C 71 % 17.07 C
3138 18-07-2016 21:25:00 22.2 C 71 % 16.69 C
3139 18-07-2016 21:30:00 22.1 C 71 % 16.6 C
3140 18-07-2016 21:35:00 21.8 C 72 % 16.53 C
3141 18-07-2016 21:40:00 21.7 C 72 % 16.43 C
3142 18-07-2016 21:45:00 21.6 C 73 % 16.55 C
3143 18-07-2016 21:50:00 21.4 C 74 % 16.57 C
3144 18-07-2016 21:55:00 21.2 C 74 % 16.38 C
3145 18-07-2016 22:00:00 20.9 C 75 % 16.3 C
3146 18-07-2016 22:05:00 20.8 C 75 % 16.21 C
3147 18-07-2016 22:10:00 20.7 C 76 % 16.32 C
3148 18-07-2016 22:15:00 20.6 C 77 % 16.43 C
3149 18-07-2016 22:20:00 20.4 C 77 % 16.23 C
3150 18-07-2016 22:25:00 20.2 C 78 % 16.24 C
Sensor: Nr:Datum:Temp:Feuchte:Taupunkt:
Aussen-T/F 3151 18-07-2016 22:30:00 20 C 78 % 16.05 C
3152 18-07-2016 22:35:00 19.8 C 79 % 16.05 C
3153 18-07-2016 22:40:00 19.7 C 80 % 16.15 C
3154 18-07-2016 22:45:00 19.5 C 79 % 15.76 C
3155 18-07-2016 22:50:00 19.4 C 80 % 15.86 C
3156 18-07-2016 22:55:00 19.3 C 80 % 15.76 C
3157 18-07-2016 23:00:00 19.2 C 80 % 15.67 C
3158 18-07-2016 23:05:00 19 C 81 % 15.67 C
3159 18-07-2016 23:10:00 18.9 C 81 % 15.57 C
3160 18-07-2016 23:15:00 18.8 C 81 % 15.47 C
3161 18-07-2016 23:20:00 18.7 C 82 % 15.57 C
3162 18-07-2016 23:25:00 18.6 C 83 % 15.66 C
3163 18-07-2016 23:30:00 18.4 C 83 % 15.46 C
3164 18-07-2016 23:35:00 18.3 C 83 % 15.36 C
3165 18-07-2016 23:40:00 18.3 C 83 % 15.36 C
3166 18-07-2016 23:45:00 18.2 C 83 % 15.27 C
3167 18-07-2016 23:50:00 18.2 C 83 % 15.27 C
3168 18-07-2016 23:55:00 18.1 C 84 % 15.35 C
3169 19-07-2016 00:00:00 18 C 84 % 15.26 C
3170 19-07-2016 00:05:00 17.8 C 85 % 15.25 C
3171 19-07-2016 00:10:00 17.8 C 85 % 15.25 C
3172 19-07-2016 00:15:00 17.7 C 85 % 15.15 C
3173 19-07-2016 00:20:00 17.6 C 86 % 15.23 C
3174 19-07-2016 00:25:00 17.4 C 86 % 15.03 C
3175 19-07-2016 00:30:00 17.4 C 86 % 15.03 C
Sensor: Nr:Datum:Temp:Feuchte:Taupunkt:
Aussen-T/F 3176 19-07-2016 00:35:00 17.3 C 86 % 14.94 C
3177 19-07-2016 00:40:00 17.3 C 86 % 14.94 C
3178 19-07-2016 00:45:00 17.3 C 86 % 14.94 C
3179 19-07-2016 00:50:00 17.2 C 87 % 15.02 C
3180 19-07-2016 00:55:00 17.1 C 87 % 14.92 C
3181 19-07-2016 01:00:00 17 C 87 % 14.82 C
3182 19-07-2016 01:05:00 16.9 C 87 % 14.72 C
3183 19-07-2016 01:10:00 16.8 C 88 % 14.8 C
3184 19-07-2016 01:15:00 16.8 C 88 % 14.8 C
3185 19-07-2016 01:20:00 16.7 C 88 % 14.7 C
3186 19-07-2016 01:25:00 16.7 C 88 % 14.7 C
3187 19-07-2016 01:30:00 16.7 C 89 % 14.88 C
3188 19-07-2016 01:35:00 16.6 C 89 % 14.78 C
3189 19-07-2016 01:40:00 16.6 C 89 % 14.78 C
3190 19-07-2016 01:45:00 16.5 C 89 % 14.68 C
3191 19-07-2016 01:50:00 16.4 C 89 % 14.58 C
3192 19-07-2016 01:55:00 16.4 C 90 % 14.76 C
3193 19-07-2016 02:00:00 16.4 C 90 % 14.76 C
3194 19-07-2016 02:05:00 16.3 C 90 % 14.66 C
3195 19-07-2016 02:10:00 16.3 C 90 % 14.66 C
3196 19-07-2016 02:15:00 16.3 C 90 % 14.66 C
3197 19-07-2016 02:20:00 16.2 C 90 % 14.56 C
3198 19-07-2016 02:25:00 16.2 C 90 % 14.56 C
3199 19-07-2016 02:30:00 16.1 C 90 % 14.46 C
3200 19-07-2016 02:35:00 16 C 90 % 14.36 C
Sensor: Nr:Datum:Temp:Feuchte:Taupunkt:
Aussen-T/F 3201 19-07-2016 02:40:00 15.9 C 91 % 14.43 C
3202 19-07-2016 02:45:00 15.9 C 91 % 14.43 C
3203 19-07-2016 02:50:00 15.8 C 91 % 14.33 C
3204 19-07-2016 02:55:00 15.8 C 91 % 14.33 C
3205 19-07-2016 03:00:00 15.8 C 92 % 14.5 C
3206 19-07-2016 03:05:00 15.7 C 92 % 14.4 C
3207 19-07-2016 03:10:00 15.6 C 92 % 14.31 C
3208 19-07-2016 03:15:00 15.6 C 92 % 14.31 C
3209 19-07-2016 03:20:00 15.5 C 92 % 14.21 C
3210 19-07-2016 03:25:00 15.4 C 92 % 14.11 C
3211 19-07-2016 03:30:00 15.4 C 92 % 14.11 C
3212 19-07-2016 03:35:00 15.4 C 93 % 14.27 C
3213 19-07-2016 03:40:00 15.4 C 93 % 14.27 C
3214 19-07-2016 03:45:00 15.3 C 93 % 14.18 C
3215 19-07-2016 03:50:00 15.3 C 93 % 14.18 C
3216 19-07-2016 03:55:00 15.3 C 93 % 14.18 C
3217 19-07-2016 04:00:00 15.2 C 93 % 14.08 C
3218 19-07-2016 04:05:00 15.2 C 93 % 14.08 C
3219 19-07-2016 04:10:00 15.2 C 93 % 14.08 C
3220 19-07-2016 04:15:00 15.2 C 93 % 14.08 C
3221 19-07-2016 04:20:00 15.1 C 93 % 13.98 C
3222 19-07-2016 04:25:00 15.1 C 93 % 13.98 C
3223 19-07-2016 04:30:00 14.9 C 93 % 13.78 C
3224 19-07-2016 04:35:00 15 C 93 % 13.88 C
3225 19-07-2016 04:40:00 14.9 C 93 % 13.78 C
Sensor: Nr:Datum:Temp:Feuchte:Taupunkt:
Aussen-T/F 3226 19-07-2016 04:45:00 14.9 C 94 % 13.94 C
3227 19-07-2016 04:50:00 14.9 C 94 % 13.94 C
3228 19-07-2016 04:55:00 14.9 C 94 % 13.94 C
3229 19-07-2016 05:00:00 14.8 C 94 % 13.84 C
3230 19-07-2016 05:05:00 14.8 C 94 % 13.84 C
3231 19-07-2016 05:10:00 14.7 C 94 % 13.74 C
3232 19-07-2016 05:15:00 14.7 C 94 % 13.74 C
3233 19-07-2016 05:20:00 14.7 C 94 % 13.74 C
3234 19-07-2016 05:25:00 14.7 C 94 % 13.74 C
3235 19-07-2016 05:30:00 14.7 C 94 % 13.74 C
3236 19-07-2016 05:35:00 14.6 C 94 % 13.65 C
3237 19-07-2016 05:40:00 14.5 C 94 % 13.55 C
3238 19-07-2016 05:45:00 14.4 C 94 % 13.45 C
3239 19-07-2016 05:50:00 14.4 C 94 % 13.45 C
3240 19-07-2016 05:55:00 14.4 C 94 % 13.45 C
3241 19-07-2016 06:00:00 14.5 C 94 % 13.55 C
3242 19-07-2016 06:05:00 14.5 C 94 % 13.55 C
3243 19-07-2016 06:10:00 14.6 C 95 % 13.81 C
3244 19-07-2016 06:15:00 14.6 C 95 % 13.81 C
3245 19-07-2016 06:20:00 14.6 C 95 % 13.81 C
3246 19-07-2016 06:25:00 14.6 C 95 % 13.81 C
3247 19-07-2016 06:30:00 14.6 C 95 % 13.81 C
3248 19-07-2016 06:35:00 14.6 C 95 % 13.81 C
3249 19-07-2016 06:40:00 14.7 C 95 % 13.91 C
3250 19-07-2016 06:45:00 14.7 C 95 % 13.91 C
Sensor: Nr:Datum:Temp:Feuchte:Taupunkt:
Aussen-T/F 3251 19-07-2016 06:50:00 14.7 C 95 % 13.91 C
3252 19-07-2016 06:55:00 14.7 C 95 % 13.91 C
3253 19-07-2016 07:00:00 14.7 C 95 % 13.91 C
3254 19-07-2016 07:05:00 14.7 C 95 % 13.91 C
3255 19-07-2016 07:10:00 14.8 C 95 % 14.01 C
3256 19-07-2016 07:15:00 14.8 C 95 % 14.01 C
3257 19-07-2016 07:20:00 14.9 C 95 % 14.11 C
3258 19-07-2016 07:25:00 14.9 C 95 % 14.11 C
3259 19-07-2016 07:30:00 15 C 95 % 14.21 C
3260 19-07-2016 07:35:00 15.1 C 95 % 14.31 C
3261 19-07-2016 07:40:00 15.1 C 95 % 14.31 C
3262 19-07-2016 07:45:00 15.2 C 95 % 14.4 C
3263 19-07-2016 07:50:00 15.3 C 95 % 14.5 C
3264 19-07-2016 07:55:00 15.3 C 95 % 14.5 C
3265 19-07-2016 08:00:00 15.4 C 95 % 14.6 C
3266 19-07-2016 08:05:00 15.5 C 95 % 14.7 C
3267 19-07-2016 08:10:00 15.6 C 95 % 14.8 C
3268 19-07-2016 08:15:00 15.7 C 95 % 14.9 C
3269 19-07-2016 08:20:00 15.8 C 95 % 15 C
3270 19-07-2016 08:25:00 15.8 C 95 % 15 C
3271 19-07-2016 08:30:00 15.9 C 95 % 15.1 C
3272 19-07-2016 08:35:00 16 C 95 % 15.2 C
3273 19-07-2016 08:40:00 16.1 C 95 % 15.3 C
3274 19-07-2016 08:45:00 16.2 C 95 % 15.4 C
3275 19-07-2016 08:50:00 16.3 C 95 % 15.5 C
Sensor: Nr:Datum:Temp:Feuchte:Taupunkt:
Aussen-T/F 3276 19-07-2016 08:55:00 16.4 C 95 % 15.6 C
3277 19-07-2016 09:00:00 16.6 C 95 % 15.8 C
3278 19-07-2016 09:05:00 16.7 C 95 % 15.9 C
3279 19-07-2016 09:10:00 16.8 C 95 % 15.99 C
3280 19-07-2016 09:15:00 16.9 C 95 % 16.09 C
3281 19-07-2016 09:20:00 17 C 95 % 16.19 C
3282 19-07-2016 09:25:00 17.2 C 95 % 16.39 C
3283 19-07-2016 09:30:00 17.3 C 95 % 16.49 C
3284 19-07-2016 09:35:00 17.4 C 95 % 16.59 C
3285 19-07-2016 09:40:00 17.6 C 95 % 16.79 C
3286 19-07-2016 09:45:00 17.7 C 94 % 16.72 C
3287 19-07-2016 09:50:00 17.9 C 94 % 16.92 C
3288 19-07-2016 09:55:00 18 C 94 % 17.02 C
3289 19-07-2016 10:00:00 18.2 C 94 % 17.22 C
3290 19-07-2016 10:05:00 18.3 C 94 % 17.32 C
3291 19-07-2016 10:10:00 18.6 C 94 % 17.62 C
3292 19-07-2016 10:15:00 18.8 C 94 % 17.81 C
3293 19-07-2016 10:20:00 19 C 93 % 17.84 C
3294 19-07-2016 10:25:00 19.3 C 93 % 18.14 C
3295 19-07-2016 10:30:00 19.7 C 92 % 18.36 C
3296 19-07-2016 10:35:00 20.1 C 91 % 18.58 C
3297 19-07-2016 10:40:00 20.5 C 90 % 18.8 C
3298 19-07-2016 10:45:00 20.8 C 89 % 18.92 C
3299 19-07-2016 10:50:00 21.2 C 88 % 19.13 C
3300 19-07-2016 10:55:00 21.3 C 87 % 19.05 C
Sensor: Nr:Datum:Temp:Feuchte:Taupunkt:
Aussen-T/F 3301 19-07-2016 11:00:00 21.4 C 87 % 19.15 C
3302 19-07-2016 11:05:00 21.5 C 87 % 19.24 C
3303 19-07-2016 11:10:00 21.6 C 87 % 19.34 C
3304 19-07-2016 11:15:00 21.6 C 87 % 19.34 C
3305 19-07-2016 11:20:00 21.7 C 87 % 19.44 C
3306 19-07-2016 11:25:00 21.9 C 87 % 19.64 C
3307 19-07-2016 11:30:00 22.1 C 87 % 19.83 C
3308 19-07-2016 11:35:00 22.4 C 85 % 19.75 C
3309 19-07-2016 11:40:00 22.7 C 84 % 19.86 C
3310 19-07-2016 11:45:00 22.9 C 83 % 19.86 C
3311 19-07-2016 11:50:00 23.2 C 80 % 19.56 C
3312 19-07-2016 11:55:00 23.4 C 80 % 19.75 C
3313 19-07-2016 12:00:00 23.6 C 77 % 19.33 C
3314 19-07-2016 12:05:00 23.9 C 76 % 19.41 C
3315 19-07-2016 12:10:00 24.2 C 71 % 18.61 C
3316 19-07-2016 12:15:00 24.6 C 69 % 18.53 C
3317 19-07-2016 12:20:00 24.9 C 69 % 18.82 C
3318 19-07-2016 12:25:00 25 C 67 % 18.44 C
3319 19-07-2016 12:30:00 25.2 C 71 % 19.56 C
3320 19-07-2016 12:35:00 25.3 C 70 % 19.43 C
3321 19-07-2016 12:40:00 25.4 C 65 % 18.34 C
3322 19-07-2016 12:45:00 25.7 C 62 % 17.87 C
3323 19-07-2016 12:50:00 25.9 C 64 % 18.57 C
3324 19-07-2016 12:55:00 26.1 C 60 % 17.73 C
3325 19-07-2016 13:00:00 26.3 C 60 % 17.91 C
Sensor: Nr:Datum:Temp:Feuchte:Taupunkt:
Aussen-T/F 3326 19-07-2016 13:05:00 26.3 C 63 % 18.69 C
3327 19-07-2016 13:10:00 26.3 C 60 % 17.91 C
3328 19-07-2016 13:15:00 26.4 C 58 % 17.47 C
3329 19-07-2016 13:20:00 26.4 C 58 % 17.47 C
3330 19-07-2016 13:25:00 26.6 C 58 % 17.66 C
3331 19-07-2016 13:30:00 26.7 C 58 % 17.75 C
3332 19-07-2016 13:35:00 26.8 C 57 % 17.57 C
3333 19-07-2016 13:40:00 26.9 C 56 % 17.38 C
3334 19-07-2016 13:45:00 27.2 C 55 % 17.37 C
3335 19-07-2016 13:50:00 27.2 C 56 % 17.66 C
3336 19-07-2016 13:55:00 27.2 C 56 % 17.66 C
3337 19-07-2016 14:00:00 27.2 C 63 % 19.54 C
3338 19-07-2016 14:05:00 26.9 C 67 % 20.25 C
3339 19-07-2016 14:10:00 26.4 C 60 % 18.01 C
3340 19-07-2016 14:15:00 26.2 C 61 % 18.08 C
3341 19-07-2016 14:20:00 26.3 C 64 % 18.94 C
3342 19-07-2016 14:25:00 26.3 C 60 % 17.91 C
3343 19-07-2016 14:30:00 26.4 C 71 % 20.71 C
3344 19-07-2016 14:35:00 26.4 C 72 % 20.94 C
3345 19-07-2016 14:40:00 26.2 C 72 % 20.75 C
3346 19-07-2016 14:45:00 25.9 C 73 % 20.69 C
3347 19-07-2016 14:50:00 25.8 C 75 % 21.03 C
3348 19-07-2016 14:55:00 25.5 C 74 % 20.52 C
3349 19-07-2016 15:00:00 25.4 C 77 % 21.07 C
3350 19-07-2016 15:05:00 25.3 C 66 % 18.49 C
Sensor: Nr:Datum:Temp:Feuchte:Taupunkt:
Aussen-T/F 3351 19-07-2016 15:10:00 25.6 C 65 % 18.53 C
3352 19-07-2016 15:15:00 26 C 74 % 21 C
3353 19-07-2016 15:20:00 26.2 C 76 % 21.63 C
3354 19-07-2016 15:25:00 26.2 C 73 % 20.97 C
3355 19-07-2016 15:30:00 26.2 C 73 % 20.97 C
3356 19-07-2016 15:35:00 26.2 C 73 % 20.97 C
3357 19-07-2016 15:40:00 26.4 C 65 % 19.29 C
3358 19-07-2016 15:45:00 27.3 C 59 % 18.58 C
3359 19-07-2016 15:50:00 28.2 C 64 % 20.74 C
3360 19-07-2016 15:55:00 28.6 C 66 % 21.62 C
3361 19-07-2016 16:00:00 28.6 C 67 % 21.87 C
3362 19-07-2016 16:05:00 28.8 C 66 % 21.81 C
3363 19-07-2016 16:10:00 28.8 C 66 % 21.81 C
3364 19-07-2016 16:15:00 28.8 C 68 % 22.3 C
3365 19-07-2016 16:20:00 28.9 C 67 % 22.15 C
3366 19-07-2016 16:25:00 29.2 C 66 % 22.19 C
3367 19-07-2016 16:30:00 29.7 C 65 % 22.41 C
3368 19-07-2016 16:35:00 30.3 C 63 % 22.46 C
3369 19-07-2016 16:40:00 30.6 C 56 % 20.82 C
3370 19-07-2016 16:45:00 31.1 C 50 % 19.44 C
3371 19-07-2016 16:50:00 31.2 C 62 % 23.05 C
3372 19-07-2016 16:55:00 31.2 C 58 % 21.95 C
3373 19-07-2016 17:00:00 31.2 C 53 % 20.48 C
3374 19-07-2016 17:05:00 31.2 C 58 % 21.95 C
3375 19-07-2016 17:10:00 31.2 C 56 % 21.37 C
Sensor: Nr:Datum:Temp:Feuchte:Taupunkt:
Aussen-T/F 3376 19-07-2016 17:15:00 31.3 C 58 % 22.04 C
3377 19-07-2016 17:20:00 31 C 60 % 22.32 C
3378 19-07-2016 17:25:00 31.1 C 56 % 21.28 C
3379 19-07-2016 17:30:00 31.3 C 57 % 21.76 C
3380 19-07-2016 17:35:00 31.8 C 58 % 22.51 C
3381 19-07-2016 17:40:00 32.2 C 56 % 22.3 C
3382 19-07-2016 17:45:00 32.3 C 55 % 22.1 C
3383 19-07-2016 17:50:00 32.4 C 52 % 21.27 C
3384 19-07-2016 17:55:00 32.4 C 53 % 21.58 C
3385 19-07-2016 18:00:00 32.4 C 53 % 21.58 C
3386 19-07-2016 18:05:00 32.4 C 52 % 21.27 C
3387 19-07-2016 18:10:00 32.4 C 52 % 21.27 C
3388 19-07-2016 18:15:00 32.4 C 54 % 21.89 C
3389 19-07-2016 18:20:00 32.3 C 44 % 18.48 C
3390 19-07-2016 18:25:00 32.3 C 53 % 21.49 C
3391 19-07-2016 18:30:00 32.2 C 53 % 21.4 C
3392 19-07-2016 18:35:00 32 C 55 % 21.82 C
3393 19-07-2016 18:40:00 31.8 C 54 % 21.34 C
3394 19-07-2016 18:45:00 31.7 C 57 % 22.13 C
3395 19-07-2016 18:50:00 31.6 C 55 % 21.45 C
3396 19-07-2016 18:55:00 31.4 C 56 % 21.56 C
3397 19-07-2016 19:00:00 31.3 C 56 % 21.47 C
3398 19-07-2016 19:05:00 31.1 C 57 % 21.57 C
3399 19-07-2016 19:10:00 30.9 C 56 % 21.09 C
3400 19-07-2016 19:15:00 30.7 C 57 % 21.2 C
Sensor: Nr:Datum:Temp:Feuchte:Taupunkt:
Aussen-T/F 3401 19-07-2016 19:20:00 30.6 C 57 % 21.1 C
3402 19-07-2016 19:25:00 30.3 C 59 % 21.39 C
3403 19-07-2016 19:30:00 29.9 C 59 % 21.01 C
3404 19-07-2016 19:35:00 29.6 C 59 % 20.73 C
3405 19-07-2016 19:40:00 29.2 C 59 % 20.36 C
3406 19-07-2016 19:45:00 28.9 C 60 % 20.35 C
3407 19-07-2016 19:50:00 28.6 C 60 % 20.07 C
3408 19-07-2016 19:55:00 28.3 C 60 % 19.79 C
3409 19-07-2016 20:00:00 28 C 60 % 19.51 C
3410 19-07-2016 20:05:00 27.7 C 60 % 19.23 C
3411 19-07-2016 20:10:00 27.4 C 61 % 19.21 C
3412 19-07-2016 20:15:00 27.2 C 61 % 19.02 C
3413 19-07-2016 20:20:00 27.1 C 63 % 19.45 C
3414 19-07-2016 20:25:00 26.8 C 63 % 19.16 C
3415 19-07-2016 20:30:00 26.7 C 63 % 19.07 C
3416 19-07-2016 20:35:00 26.4 C 63 % 18.79 C
3417 19-07-2016 20:40:00 26.2 C 63 % 18.6 C
3418 19-07-2016 20:45:00 26 C 64 % 18.66 C
3419 19-07-2016 20:50:00 25.7 C 64 % 18.38 C
3420 19-07-2016 20:55:00 25.4 C 63 % 17.84 C
3421 19-07-2016 21:00:00 25.2 C 64 % 17.9 C
3422 19-07-2016 21:05:00 24.9 C 64 % 17.62 C
3423 19-07-2016 21:10:00 24.7 C 65 % 17.68 C
3424 19-07-2016 21:15:00 24.4 C 66 % 17.64 C
3425 19-07-2016 21:20:00 24.1 C 66 % 17.35 C
Sensor: Nr:Datum:Temp:Feuchte:Taupunkt:
Aussen-T/F 3426 19-07-2016 21:25:00 23.8 C 68 % 17.54 C
3427 19-07-2016 21:30:00 23.5 C 67 % 17.02 C
3428 19-07-2016 21:35:00 23.2 C 68 % 16.97 C
3429 19-07-2016 21:40:00 22.9 C 69 % 16.91 C
3430 19-07-2016 21:45:00 22.7 C 71 % 17.17 C
3431 19-07-2016 21:50:00 22.3 C 72 % 17.01 C
3432 19-07-2016 21:55:00 22.1 C 72 % 16.82 C
3433 19-07-2016 22:00:00 21.8 C 71 % 16.31 C
3434 19-07-2016 22:05:00 21.6 C 71 % 16.12 C
3435 19-07-2016 22:10:00 21.5 C 72 % 16.24 C
3436 19-07-2016 22:15:00 21.4 C 73 % 16.36 C
3437 19-07-2016 22:20:00 21.3 C 72 % 16.05 C
3438 19-07-2016 22:25:00 21.1 C 73 % 16.07 C
3439 19-07-2016 22:30:00 21 C 75 % 16.4 C
3440 19-07-2016 22:35:00 20.8 C 73 % 15.78 C
3441 19-07-2016 22:40:00 20.7 C 74 % 15.9 C
3442 19-07-2016 22:45:00 20.6 C 75 % 16.01 C
3443 19-07-2016 22:50:00 20.4 C 76 % 16.03 C
3444 19-07-2016 22:55:00 20.3 C 77 % 16.14 C
3445 19-07-2016 23:00:00 20.1 C 76 % 15.74 C
3446 19-07-2016 23:05:00 20 C 77 % 15.85 C
3447 19-07-2016 23:10:00 19.8 C 78 % 15.85 C
3448 19-07-2016 23:15:00 19.7 C 78 % 15.76 C
3449 19-07-2016 23:20:00 19.6 C 77 % 15.46 C
3450 19-07-2016 23:25:00 19.5 C 78 % 15.56 C
Sensor: Nr:Datum:Temp:Feuchte:Taupunkt:
Aussen-T/F 3451 19-07-2016 23:30:00 19.5 C 79 % 15.76 C
3452 19-07-2016 23:35:00 19.4 C 79 % 15.66 C
3453 19-07-2016 23:40:00 19.4 C 79 % 15.66 C
3454 19-07-2016 23:45:00 19.3 C 79 % 15.57 C
3455 19-07-2016 23:50:00 19.2 C 80 % 15.67 C
3456 19-07-2016 23:55:00 19.1 C 81 % 15.76 C
3457 20-07-2016 00:00:00 18.9 C 81 % 15.57 C
3458 20-07-2016 00:05:00 18.8 C 82 % 15.66 C
3459 20-07-2016 00:10:00 18.6 C 82 % 15.47 C
3460 20-07-2016 00:15:00 18.4 C 83 % 15.46 C
3461 20-07-2016 00:20:00 18.3 C 83 % 15.36 C
3462 20-07-2016 00:25:00 18.2 C 84 % 15.45 C
3463 20-07-2016 00:30:00 18.2 C 84 % 15.45 C
3464 20-07-2016 00:35:00 18.1 C 84 % 15.35 C
3465 20-07-2016 00:40:00 18 C 85 % 15.44 C
3466 20-07-2016 00:45:00 17.9 C 85 % 15.34 C
3467 20-07-2016 00:50:00 17.8 C 86 % 15.43 C
3468 20-07-2016 00:55:00 17.8 C 86 % 15.43 C
3469 20-07-2016 01:00:00 17.7 C 86 % 15.33 C
3470 20-07-2016 01:05:00 17.6 C 87 % 15.41 C
3471 20-07-2016 01:10:00 17.5 C 87 % 15.31 C
3472 20-07-2016 01:15:00 17.4 C 87 % 15.21 C
3473 20-07-2016 01:20:00 17.3 C 87 % 15.12 C
3474 20-07-2016 01:25:00 17.3 C 87 % 15.12 C
3475 20-07-2016 01:30:00 17.3 C 88 % 15.29 C
Sensor: Nr:Datum:Temp:Feuchte:Taupunkt:
Aussen-T/F 3476 20-07-2016 01:35:00 17.3 C 88 % 15.29 C
3477 20-07-2016 01:40:00 17.2 C 88 % 15.2 C
3478 20-07-2016 01:45:00 17.1 C 88 % 15.1 C
3479 20-07-2016 01:50:00 17.1 C 88 % 15.1 C
3480 20-07-2016 01:55:00 17.1 C 88 % 15.1 C
3481 20-07-2016 02:00:00 17 C 88 % 15 C
3482 20-07-2016 02:05:00 17 C 89 % 15.17 C
3483 20-07-2016 02:10:00 16.9 C 89 % 15.08 C
3484 20-07-2016 02:15:00 16.9 C 89 % 15.08 C
3485 20-07-2016 02:20:00 16.8 C 89 % 14.98 C
3486 20-07-2016 02:25:00 16.7 C 89 % 14.88 C
3487 20-07-2016 02:30:00 16.7 C 89 % 14.88 C
3488 20-07-2016 02:35:00 16.6 C 90 % 14.95 C
3489 20-07-2016 02:40:00 16.6 C 90 % 14.95 C
3490 20-07-2016 02:45:00 16.5 C 90 % 14.85 C
3491 20-07-2016 02:50:00 16.5 C 90 % 14.85 C
3492 20-07-2016 02:55:00 16.4 C 90 % 14.76 C
3493 20-07-2016 03:00:00 16.4 C 90 % 14.76 C
3494 20-07-2016 03:05:00 16.3 C 91 % 14.83 C
3495 20-07-2016 03:10:00 16.3 C 91 % 14.83 C
3496 20-07-2016 03:15:00 16.2 C 91 % 14.73 C
3497 20-07-2016 03:20:00 16.2 C 91 % 14.73 C
3498 20-07-2016 03:25:00 16.1 C 91 % 14.63 C
3499 20-07-2016 03:30:00 16.1 C 91 % 14.63 C
3500 20-07-2016 03:35:00 15.9 C 91 % 14.43 C
Sensor: Nr:Datum:Temp:Feuchte:Taupunkt:
Aussen-T/F 3501 20-07-2016 03:40:00 15.9 C 91 % 14.43 C
3502 20-07-2016 03:45:00 15.9 C 92 % 14.6 C
3503 20-07-2016 03:50:00 15.8 C 92 % 14.5 C
3504 20-07-2016 03:55:00 15.8 C 92 % 14.5 C
3505 20-07-2016 04:00:00 15.7 C 92 % 14.4 C
3506 20-07-2016 04:05:00 15.8 C 93 % 14.67 C
3507 20-07-2016 04:10:00 15.7 C 92 % 14.4 C
3508 20-07-2016 04:15:00 15.6 C 92 % 14.31 C
3509 20-07-2016 04:20:00 15.6 C 92 % 14.31 C
3510 20-07-2016 04:25:00 15.6 C 92 % 14.31 C
3511 20-07-2016 04:30:00 15.5 C 92 % 14.21 C
3512 20-07-2016 04:35:00 15.4 C 93 % 14.27 C
3513 20-07-2016 04:40:00 15.3 C 93 % 14.18 C
3514 20-07-2016 04:45:00 15.3 C 93 % 14.18 C
3515 20-07-2016 04:50:00 15.3 C 93 % 14.18 C
3516 20-07-2016 04:55:00 15.3 C 93 % 14.18 C
3517 20-07-2016 05:00:00 15.3 C 93 % 14.18 C
3518 20-07-2016 05:05:00 15.2 C 93 % 14.08 C
3519 20-07-2016 05:10:00 15.2 C 93 % 14.08 C
3520 20-07-2016 05:15:00 15.1 C 93 % 13.98 C
3521 20-07-2016 05:20:00 15.1 C 93 % 13.98 C
3522 20-07-2016 05:25:00 15 C 93 % 13.88 C
3523 20-07-2016 05:30:00 15 C 94 % 14.04 C
3524 20-07-2016 05:35:00 14.9 C 93 % 13.78 C
3525 20-07-2016 05:40:00 14.9 C 94 % 13.94 C
Sensor: Nr:Datum:Temp:Feuchte:Taupunkt:
Aussen-T/F 3526 20-07-2016 05:45:00 14.9 C 94 % 13.94 C
3527 20-07-2016 05:50:00 14.8 C 94 % 13.84 C
3528 20-07-2016 05:55:00 14.8 C 94 % 13.84 C
3529 20-07-2016 06:00:00 14.8 C 94 % 13.84 C
3530 20-07-2016 06:05:00 14.9 C 94 % 13.94 C
3531 20-07-2016 06:10:00 14.8 C 94 % 13.84 C
3532 20-07-2016 06:15:00 14.8 C 94 % 13.84 C
3533 20-07-2016 06:20:00 14.7 C 94 % 13.74 C
3534 20-07-2016 06:25:00 14.7 C 94 % 13.74 C
3535 20-07-2016 06:30:00 14.7 C 94 % 13.74 C
3536 20-07-2016 06:35:00 14.7 C 94 % 13.74 C
3537 20-07-2016 06:40:00 14.8 C 94 % 13.84 C
3538 20-07-2016 06:45:00 14.8 C 94 % 13.84 C
3539 20-07-2016 06:50:00 14.8 C 94 % 13.84 C
3540 20-07-2016 06:55:00 14.8 C 95 % 14.01 C
3541 20-07-2016 07:00:00 14.9 C 95 % 14.11 C
3542 20-07-2016 07:05:00 14.9 C 95 % 14.11 C
3543 20-07-2016 07:10:00 15 C 95 % 14.21 C
3544 20-07-2016 07:15:00 15.1 C 95 % 14.31 C
3545 20-07-2016 07:20:00 15.2 C 95 % 14.4 C
3546 20-07-2016 07:25:00 15.2 C 95 % 14.4 C
3547 20-07-2016 07:30:00 15.2 C 95 % 14.4 C
3548 20-07-2016 07:35:00 15.3 C 95 % 14.5 C
3549 20-07-2016 07:40:00 15.3 C 95 % 14.5 C
3550 20-07-2016 07:45:00 15.4 C 95 % 14.6 C
Sensor: Nr:Datum:Temp:Feuchte:Taupunkt:
Aussen-T/F 3551 20-07-2016 07:50:00 15.4 C 95 % 14.6 C
3552 20-07-2016 07:55:00 15.5 C 95 % 14.7 C
3553 20-07-2016 08:00:00 15.6 C 95 % 14.8 C
3554 20-07-2016 08:05:00 15.7 C 95 % 14.9 C
3555 20-07-2016 08:10:00 15.8 C 95 % 15 C
3556 20-07-2016 08:15:00 15.8 C 95 % 15 C
3557 20-07-2016 08:20:00 15.9 C 95 % 15.1 C
3558 20-07-2016 08:25:00 16 C 95 % 15.2 C
3559 20-07-2016 08:30:00 16.1 C 95 % 15.3 C
3560 20-07-2016 08:35:00 16.2 C 96 % 15.56 C
3561 20-07-2016 08:40:00 16.4 C 95 % 15.6 C
3562 20-07-2016 08:45:00 16.6 C 96 % 15.96 C
3563 20-07-2016 08:50:00 16.7 C 96 % 16.06 C
3564 20-07-2016 08:55:00 16.9 C 96 % 16.26 C
3565 20-07-2016 09:00:00 17.1 C 96 % 16.46 C
3566 20-07-2016 09:05:00 17.2 C 96 % 16.56 C
3567 20-07-2016 09:10:00 17.3 C 96 % 16.66 C
3568 20-07-2016 09:15:00 17.5 C 95 % 16.69 C
3569 20-07-2016 09:20:00 17.6 C 95 % 16.79 C
3570 20-07-2016 09:25:00 17.8 C 95 % 16.99 C
3571 20-07-2016 09:30:00 17.9 C 95 % 17.09 C
3572 20-07-2016 09:35:00 18.1 C 95 % 17.29 C
3573 20-07-2016 09:40:00 18.2 C 95 % 17.39 C
3574 20-07-2016 09:45:00 18.4 C 94 % 17.42 C
3575 20-07-2016 09:50:00 18.5 C 94 % 17.52 C
Sensor: Nr:Datum:Temp:Feuchte:Taupunkt:
Aussen-T/F 3576 20-07-2016 09:55:00 18.7 C 94 % 17.71 C
3577 20-07-2016 10:00:00 18.9 C 94 % 17.91 C
3578 20-07-2016 10:05:00 19.1 C 93 % 17.94 C
3579 20-07-2016 10:10:00 19.3 C 93 % 18.14 C
3580 20-07-2016 10:15:00 19.5 C 93 % 18.34 C
3581 20-07-2016 10:20:00 19.7 C 92 % 18.36 C
3582 20-07-2016 10:25:00 20.1 C 92 % 18.76 C
3583 20-07-2016 10:30:00 20.6 C 91 % 19.08 C
3584 20-07-2016 10:35:00 21.1 C 88 % 19.03 C
3585 20-07-2016 10:40:00 21.7 C 88 % 19.62 C
3586 20-07-2016 10:45:00 22.2 C 86 % 19.75 C
3587 20-07-2016 10:50:00 22.4 C 85 % 19.75 C
3588 20-07-2016 10:55:00 22.4 C 85 % 19.75 C
3589 20-07-2016 11:00:00 22.6 C 85 % 19.95 C
3590 20-07-2016 11:05:00 22.7 C 85 % 20.05 C
3591 20-07-2016 11:10:00 22.8 C 83 % 19.76 C
3592 20-07-2016 11:15:00 23 C 81 % 19.56 C
3593 20-07-2016 11:20:00 23.2 C 80 % 19.56 C
3594 20-07-2016 11:25:00 23.7 C 75 % 19 C
3595 20-07-2016 11:30:00 24.3 C 81 % 20.83 C
3596 20-07-2016 11:35:00 24.7 C 75 % 19.97 C
3597 20-07-2016 11:40:00 24.9 C 76 % 20.38 C
3598 20-07-2016 11:45:00 25.1 C 78 % 20.99 C
3599 20-07-2016 11:50:00 25.2 C 72 % 19.79 C
3600 20-07-2016 11:55:00 25.7 C 71 % 20.04 C
Sensor: Nr:Datum:Temp:Feuchte:Taupunkt:
Aussen-T/F 3601 20-07-2016 12:00:00 26 C 70 % 20.1 C
3602 20-07-2016 12:05:00 26.2 C 72 % 20.75 C
3603 20-07-2016 12:10:00 26.3 C 72 % 20.85 C
3604 20-07-2016 12:15:00 26.5 C 65 % 19.38 C
3605 20-07-2016 12:20:00 26.8 C 66 % 19.91 C
3606 20-07-2016 12:25:00 27 C 66 % 20.1 C
3607 20-07-2016 12:30:00 27.1 C 67 % 20.44 C
3608 20-07-2016 12:35:00 27.2 C 64 % 19.79 C
3609 20-07-2016 12:40:00 27.5 C 64 % 20.08 C
3610 20-07-2016 12:45:00 27.8 C 62 % 19.85 C
3611 20-07-2016 12:50:00 27.9 C 63 % 20.2 C
3612 20-07-2016 12:55:00 28.1 C 59 % 19.33 C
3613 20-07-2016 13:00:00 28.3 C 58 % 19.24 C
3614 20-07-2016 13:05:00 28.6 C 60 % 20.07 C
3615 20-07-2016 13:10:00 28.6 C 59 % 19.8 C
3616 20-07-2016 13:15:00 28.7 C 58 % 19.62 C
3617 20-07-2016 13:20:00 28.8 C 61 % 20.52 C
3618 20-07-2016 13:25:00 28.9 C 60 % 20.35 C
3619 20-07-2016 13:30:00 29 C 58 % 19.9 C
3620 20-07-2016 13:35:00 29.2 C 57 % 19.8 C
3621 20-07-2016 13:40:00 29.6 C 54 % 19.3 C
3622 20-07-2016 13:45:00 29.7 C 58 % 20.55 C
3623 20-07-2016 13:50:00 29.6 C 59 % 20.73 C
3624 20-07-2016 13:55:00 29.6 C 57 % 20.17 C
3625 20-07-2016 14:00:00 29.5 C 64 % 21.97 C
Sensor: Nr:Datum:Temp:Feuchte:Taupunkt:
Aussen-T/F 3626 20-07-2016 14:05:00 29.4 C 57 % 19.99 C
3627 20-07-2016 14:10:00 29.6 C 56 % 19.89 C
3628 20-07-2016 14:15:00 29.8 C 57 % 20.36 C
3629 20-07-2016 14:20:00 29.9 C 55 % 19.88 C
3630 20-07-2016 14:25:00 30.2 C 55 % 20.15 C
3631 20-07-2016 14:30:00 30.6 C 53 % 19.92 C
3632 20-07-2016 14:35:00 30.7 C 58 % 21.48 C
3633 20-07-2016 14:40:00 30.6 C 52 % 19.62 C
3634 20-07-2016 14:45:00 30.7 C 55 % 20.62 C
3635 20-07-2016 14:50:00 30.7 C 52 % 19.71 C
3636 20-07-2016 14:55:00 30.8 C 52 % 19.8 C
3637 20-07-2016 15:00:00 30.9 C 53 % 20.2 C
3638 20-07-2016 15:05:00 31 C 52 % 19.98 C
3639 20-07-2016 15:10:00 31.1 C 52 % 20.08 C
3640 20-07-2016 15:15:00 31.4 C 52 % 20.35 C
3641 20-07-2016 15:20:00 31.6 C 50 % 19.9 C
3642 20-07-2016 15:25:00 31.9 C 51 % 20.5 C
3643 20-07-2016 15:30:00 32.2 C 49 % 20.12 C
3644 20-07-2016 15:35:00 32.4 C 49 % 20.31 C
3645 20-07-2016 15:40:00 32.8 C 48 % 20.34 C
3646 20-07-2016 15:45:00 33.3 C 48 % 20.79 C
3647 20-07-2016 15:50:00 33.7 C 46 % 20.46 C
3648 20-07-2016 15:55:00 34 C 52 % 22.74 C
3649 20-07-2016 16:00:00 34.1 C 48 % 21.52 C
3650 20-07-2016 16:05:00 34.2 C 43 % 19.82 C
Sensor: Nr:Datum:Temp:Feuchte:Taupunkt:
Aussen-T/F 3651 20-07-2016 16:10:00 34.3 C 43 % 19.91 C
3652 20-07-2016 16:15:00 34.3 C 46 % 21.01 C
3653 20-07-2016 16:20:00 34.4 C 45 % 20.74 C
3654 20-07-2016 16:25:00 34.6 C 41 % 19.41 C
3655 20-07-2016 16:30:00 34.8 C 48 % 22.16 C
3656 20-07-2016 16:35:00 34.9 C 47 % 21.9 C
3657 20-07-2016 16:40:00 35.1 C 41 % 19.86 C
3658 20-07-2016 16:45:00 35.3 C 48 % 22.61 C
3659 20-07-2016 16:50:00 35.2 C 45 % 21.46 C
3660 20-07-2016 16:55:00 35.3 C 49 % 22.95 C
3661 20-07-2016 17:00:00 35.3 C 42 % 20.43 C
3662 20-07-2016 17:05:00 35.3 C 50 % 23.28 C
3663 20-07-2016 17:10:00 35.4 C 53 % 24.35 C
3664 20-07-2016 17:15:00 35.2 C 50 % 23.19 C
3665 20-07-2016 17:20:00 35.1 C 53 % 24.07 C
3666 20-07-2016 17:25:00 34.9 C 51 % 23.25 C
3667 20-07-2016 17:30:00 34.8 C 53 % 23.79 C
3668 20-07-2016 17:35:00 34.6 C 53 % 23.61 C
3669 20-07-2016 17:40:00 34.3 C 49 % 22.04 C
3670 20-07-2016 17:45:00 34.3 C 54 % 23.64 C
3671 20-07-2016 17:50:00 34.1 C 52 % 22.83 C
3672 20-07-2016 17:55:00 33.7 C 55 % 23.39 C
3673 20-07-2016 18:00:00 33.2 C 55 % 22.93 C
3674 20-07-2016 18:05:00 32.6 C 57 % 22.96 C
3675 20-07-2016 18:10:00 32.1 C 57 % 22.5 C
Sensor: Nr:Datum:Temp:Feuchte:Taupunkt:
Aussen-T/F 3676 20-07-2016 18:15:00 32.2 C 61 % 23.72 C
3677 20-07-2016 18:20:00 32.4 C 58 % 23.07 C
3678 20-07-2016 18:25:00 32.8 C 52 % 21.64 C
3679 20-07-2016 18:30:00 33.2 C 52 % 22.01 C
3680 20-07-2016 18:35:00 33.4 C 52 % 22.19 C
3681 20-07-2016 18:40:00 33.6 C 51 % 22.06 C
3682 20-07-2016 18:45:00 33.4 C 52 % 22.19 C
3683 20-07-2016 18:50:00 33.2 C 51 % 21.69 C
3684 20-07-2016 18:55:00 33.1 C 53 % 22.23 C
3685 20-07-2016 19:00:00 32.9 C 55 % 22.65 C
3686 20-07-2016 19:05:00 32.8 C 54 % 22.26 C
3687 20-07-2016 19:10:00 32.7 C 54 % 22.17 C
3688 20-07-2016 19:15:00 32.1 C 52 % 21 C
3689 20-07-2016 19:20:00 31.3 C 54 % 20.87 C
3690 20-07-2016 19:25:00 30.3 C 57 % 20.83 C
3691 20-07-2016 19:30:00 29.5 C 57 % 20.08 C
3692 20-07-2016 19:35:00 28.8 C 58 % 19.71 C
3693 20-07-2016 19:40:00 28.4 C 59 % 19.61 C
3694 20-07-2016 19:45:00 28.1 C 61 % 19.87 C
3695 20-07-2016 19:50:00 27.8 C 59 % 19.05 C
3696 20-07-2016 19:55:00 27.7 C 61 % 19.49 C
3697 20-07-2016 20:00:00 27.4 C 63 % 19.73 C
3698 20-07-2016 20:05:00 27.2 C 62 % 19.28 C
3699 20-07-2016 20:10:00 27.1 C 63 % 19.45 C
3700 20-07-2016 20:15:00 26.9 C 63 % 19.26 C
Sensor: Nr:Datum:Temp:Feuchte:Taupunkt:
Aussen-T/F 3701 20-07-2016 20:20:00 26.7 C 65 % 19.57 C
3702 20-07-2016 20:25:00 26.6 C 64 % 19.23 C
3703 20-07-2016 20:30:00 26.5 C 64 % 19.13 C
3704 20-07-2016 20:35:00 26.4 C 64 % 19.04 C
3705 20-07-2016 20:40:00 26.3 C 64 % 18.94 C
3706 20-07-2016 20:45:00 26.2 C 65 % 19.1 C
3707 20-07-2016 20:50:00 26.2 C 64 % 18.85 C
3708 20-07-2016 20:55:00 26.1 C 65 % 19 C
3709 20-07-2016 21:00:00 26.1 C 66 % 19.25 C
3710 20-07-2016 21:05:00 26 C 66 % 19.15 C
3711 20-07-2016 21:10:00 25.9 C 65 % 18.81 C
3712 20-07-2016 21:15:00 25.9 C 66 % 19.06 C
3713 20-07-2016 21:20:00 25.9 C 67 % 19.3 C
3714 20-07-2016 21:25:00 25.9 C 68 % 19.54 C
3715 20-07-2016 21:30:00 25.9 C 68 % 19.54 C
3716 20-07-2016 21:35:00 25.8 C 67 % 19.2 C
3717 20-07-2016 21:40:00 25.8 C 68 % 19.44 C
3718 20-07-2016 21:45:00 25.8 C 68 % 19.44 C
3719 20-07-2016 21:50:00 25.8 C 68 % 19.44 C
3720 20-07-2016 21:55:00 25.8 C 68 % 19.44 C
3721 20-07-2016 22:00:00 25.8 C 68 % 19.44 C
3722 20-07-2016 22:05:00 25.7 C 69 % 19.58 C
3723 20-07-2016 22:10:00 25.6 C 70 % 19.72 C
3724 20-07-2016 22:15:00 25.4 C 70 % 19.53 C
3725 20-07-2016 22:20:00 25.3 C 70 % 19.43 C
Sensor: Nr:Datum:Temp:Feuchte:Taupunkt:
Aussen-T/F 3726 20-07-2016 22:25:00 25.3 C 69 % 19.2 C
3727 20-07-2016 22:30:00 25.2 C 69 % 19.11 C
3728 20-07-2016 22:35:00 25.2 C 70 % 19.34 C
3729 20-07-2016 22:40:00 25.1 C 71 % 19.47 C
3730 20-07-2016 22:45:00 24.9 C 71 % 19.28 C
3731 20-07-2016 22:50:00 24.8 C 72 % 19.41 C
3732 20-07-2016 22:55:00 24.7 C 72 % 19.31 C
3733 20-07-2016 23:00:00 24.4 C 71 % 18.8 C
3734 20-07-2016 23:05:00 24.3 C 71 % 18.7 C
3735 20-07-2016 23:10:00 24.2 C 71 % 18.61 C
3736 20-07-2016 23:15:00 24.1 C 73 % 18.96 C
3737 20-07-2016 23:20:00 23.9 C 72 % 18.54 C
3738 20-07-2016 23:25:00 23.9 C 74 % 18.98 C
3739 20-07-2016 23:30:00 23.9 C 75 % 19.2 C
3740 20-07-2016 23:35:00 23.7 C 75 % 19 C
3741 20-07-2016 23:40:00 23.6 C 75 % 18.91 C
3742 20-07-2016 23:45:00 23.6 C 75 % 18.91 C
3743 20-07-2016 23:50:00 23.6 C 74 % 18.69 C
3744 20-07-2016 23:55:00 23.6 C 73 % 18.48 C
3745 21-07-2016 00:00:00 23.7 C 72 % 18.35 C
3746 21-07-2016 00:05:00 23.8 C 71 % 18.22 C
3747 21-07-2016 00:10:00 23.9 C 73 % 18.76 C
3748 21-07-2016 00:15:00 23.8 C 74 % 18.89 C
3749 21-07-2016 00:20:00 23.7 C 74 % 18.79 C
3750 21-07-2016 00:25:00 23.6 C 74 % 18.69 C
Sensor: Nr:Datum:Temp:Feuchte:Taupunkt:
Aussen-T/F 3751 21-07-2016 00:30:00 23.4 C 75 % 18.71 C
3752 21-07-2016 00:35:00 23.4 C 74 % 18.5 C
3753 21-07-2016 00:40:00 23.3 C 75 % 18.62 C
3754 21-07-2016 00:45:00 23.2 C 74 % 18.31 C
3755 21-07-2016 00:50:00 23.1 C 76 % 18.64 C
3756 21-07-2016 00:55:00 23.1 C 76 % 18.64 C
3757 21-07-2016 01:00:00 23 C 76 % 18.54 C
3758 21-07-2016 01:05:00 23 C 77 % 18.75 C
3759 21-07-2016 01:10:00 23.1 C 78 % 19.05 C
3760 21-07-2016 01:15:00 23 C 78 % 18.96 C
3761 21-07-2016 01:20:00 22.9 C 77 % 18.65 C
3762 21-07-2016 01:25:00 22.8 C 77 % 18.56 C
3763 21-07-2016 01:30:00 22.8 C 78 % 18.76 C
3764 21-07-2016 01:35:00 22.7 C 77 % 18.46 C
3765 21-07-2016 01:40:00 22.7 C 77 % 18.46 C
3766 21-07-2016 01:45:00 22.6 C 78 % 18.57 C
3767 21-07-2016 01:50:00 22.6 C 77 % 18.36 C
3768 21-07-2016 01:55:00 22.4 C 77 % 18.17 C
3769 21-07-2016 02:00:00 22.4 C 78 % 18.37 C
3770 21-07-2016 02:05:00 22.4 C 78 % 18.37 C
3771 21-07-2016 02:10:00 22.4 C 78 % 18.37 C
3772 21-07-2016 02:15:00 22.3 C 77 % 18.07 C
3773 21-07-2016 02:20:00 22.3 C 78 % 18.28 C
3774 21-07-2016 02:25:00 22.3 C 77 % 18.07 C
3775 21-07-2016 02:30:00 22.4 C 78 % 18.37 C
Sensor: Nr:Datum:Temp:Feuchte:Taupunkt:
Aussen-T/F 3776 21-07-2016 02:35:00 22.4 C 77 % 18.17 C
3777 21-07-2016 02:40:00 22.5 C 79 % 18.67 C
3778 21-07-2016 02:45:00 22.5 C 78 % 18.47 C
3779 21-07-2016 02:50:00 22.4 C 78 % 18.37 C
3780 21-07-2016 02:55:00 22.4 C 78 % 18.37 C
3781 21-07-2016 03:00:00 22.3 C 77 % 18.07 C
3782 21-07-2016 03:05:00 22.3 C 77 % 18.07 C
3783 21-07-2016 03:10:00 22.2 C 78 % 18.18 C
3784 21-07-2016 03:15:00 22.2 C 79 % 18.38 C
3785 21-07-2016 03:20:00 22.2 C 80 % 18.58 C
3786 21-07-2016 03:25:00 22.2 C 80 % 18.58 C
3787 21-07-2016 03:30:00 22.3 C 77 % 18.07 C
3788 21-07-2016 03:35:00 22.6 C 76 % 18.15 C
3789 21-07-2016 03:40:00 22.8 C 75 % 18.14 C
3790 21-07-2016 03:45:00 22.9 C 75 % 18.23 C
3791 21-07-2016 03:50:00 23 C 75 % 18.33 C
3792 21-07-2016 03:55:00 23 C 76 % 18.54 C
3793 21-07-2016 04:00:00 22.9 C 76 % 18.44 C
3794 21-07-2016 04:05:00 22.8 C 76 % 18.35 C
3795 21-07-2016 04:10:00 22.8 C 76 % 18.35 C
3796 21-07-2016 04:15:00 22.8 C 76 % 18.35 C
3797 21-07-2016 04:20:00 22.8 C 76 % 18.35 C
3798 21-07-2016 04:25:00 22.8 C 77 % 18.56 C
3799 21-07-2016 04:30:00 22.7 C 77 % 18.46 C
3800 21-07-2016 04:35:00 22.6 C 78 % 18.57 C
Sensor: Nr:Datum:Temp:Feuchte:Taupunkt:
Aussen-T/F 3801 21-07-2016 04:40:00 22.5 C 78 % 18.47 C
3802 21-07-2016 04:45:00 22.4 C 78 % 18.37 C
3803 21-07-2016 04:50:00 22.3 C 78 % 18.28 C
3804 21-07-2016 04:55:00 22.3 C 77 % 18.07 C
3805 21-07-2016 05:00:00 22.3 C 77 % 18.07 C
3806 21-07-2016 05:05:00 22.3 C 77 % 18.07 C
3807 21-07-2016 05:10:00 22.3 C 77 % 18.07 C
3808 21-07-2016 05:15:00 22.2 C 78 % 18.18 C
3809 21-07-2016 05:20:00 22.1 C 78 % 18.08 C
3810 21-07-2016 05:25:00 22 C 79 % 18.19 C
3811 21-07-2016 05:30:00 21.8 C 81 % 18.39 C
3812 21-07-2016 05:35:00 21.6 C 81 % 18.2 C
3813 21-07-2016 05:40:00 21.4 C 82 % 18.2 C
3814 21-07-2016 05:45:00 21.2 C 82 % 18 C
3815 21-07-2016 05:50:00 21.1 C 83 % 18.1 C
3816 21-07-2016 05:55:00 20.9 C 83 % 17.9 C
3817 21-07-2016 06:00:00 20.8 C 84 % 18 C
3818 21-07-2016 06:05:00 20.8 C 83 % 17.81 C
3819 21-07-2016 06:10:00 20.7 C 84 % 17.9 C
3820 21-07-2016 06:15:00 20.7 C 84 % 17.9 C
3821 21-07-2016 06:20:00 20.6 C 84 % 17.8 C
3822 21-07-2016 06:25:00 20.6 C 84 % 17.8 C
3823 21-07-2016 06:30:00 20.6 C 84 % 17.8 C
3824 21-07-2016 06:35:00 20.5 C 85 % 17.89 C
3825 21-07-2016 06:40:00 20.4 C 85 % 17.79 C
Sensor: Nr:Datum:Temp:Feuchte:Taupunkt:
Aussen-T/F 3826 21-07-2016 06:45:00 20.4 C 86 % 17.98 C
3827 21-07-2016 06:50:00 20.3 C 86 % 17.88 C
3828 21-07-2016 06:55:00 20.3 C 86 % 17.88 C
3829 21-07-2016 07:00:00 20.2 C 86 % 17.78 C
3830 21-07-2016 07:05:00 20.2 C 86 % 17.78 C
3831 21-07-2016 07:10:00 20.1 C 85 % 17.5 C
3832 21-07-2016 07:15:00 20.1 C 84 % 17.31 C
3833 21-07-2016 07:20:00 20.2 C 85 % 17.6 C
3834 21-07-2016 07:25:00 20.2 C 85 % 17.6 C
3835 21-07-2016 07:30:00 20.2 C 86 % 17.78 C
3836 21-07-2016 07:35:00 20.2 C 86 % 17.78 C
3837 21-07-2016 07:40:00 20.1 C 87 % 17.87 C
3838 21-07-2016 07:45:00 19.9 C 88 % 17.85 C
3839 21-07-2016 07:50:00 19.8 C 88 % 17.75 C
3840 21-07-2016 07:55:00 19.7 C 89 % 17.84 C
3841 21-07-2016 08:00:00 19.7 C 89 % 17.84 C
3842 21-07-2016 08:05:00 19.6 C 89 % 17.74 C
3843 21-07-2016 08:10:00 19.5 C 90 % 17.82 C
3844 21-07-2016 08:15:00 19.5 C 91 % 17.99 C
3845 21-07-2016 08:20:00 19.4 C 91 % 17.89 C
3846 21-07-2016 08:25:00 19.2 C 92 % 17.87 C
3847 21-07-2016 08:30:00 19.1 C 92 % 17.77 C
3848 21-07-2016 08:35:00 19.1 C 92 % 17.77 C
3849 21-07-2016 08:40:00 19.1 C 93 % 17.94 C
3850 21-07-2016 08:45:00 19 C 93 % 17.84 C
Sensor: Nr:Datum:Temp:Feuchte:Taupunkt:
Aussen-T/F 3851 21-07-2016 08:50:00 19.1 C 93 % 17.94 C
3852 21-07-2016 08:55:00 19.1 C 94 % 18.11 C
3853 21-07-2016 09:00:00 19.1 C 94 % 18.11 C
3854 21-07-2016 09:05:00 19 C 94 % 18.01 C
3855 21-07-2016 09:10:00 19.1 C 94 % 18.11 C
3856 21-07-2016 09:15:00 19.1 C 94 % 18.11 C
3857 21-07-2016 09:20:00 19.2 C 94 % 18.21 C
3858 21-07-2016 09:25:00 19.2 C 94 % 18.21 C
3859 21-07-2016 09:30:00 19.2 C 94 % 18.21 C
3860 21-07-2016 09:35:00 19.3 C 95 % 18.48 C
3861 21-07-2016 09:40:00 19.3 C 95 % 18.48 C
3862 21-07-2016 09:45:00 19.3 C 95 % 18.48 C
3863 21-07-2016 09:50:00 19.4 C 95 % 18.58 C
3864 21-07-2016 09:55:00 19.4 C 95 % 18.58 C
3865 21-07-2016 10:00:00 19.5 C 95 % 18.68 C
3866 21-07-2016 10:05:00 19.6 C 95 % 18.78 C
3867 21-07-2016 10:10:00 19.6 C 95 % 18.78 C
3868 21-07-2016 10:15:00 19.7 C 95 % 18.88 C
3869 21-07-2016 10:20:00 19.8 C 95 % 18.98 C
3870 21-07-2016 10:25:00 19.8 C 95 % 18.98 C
3871 21-07-2016 10:30:00 19.9 C 95 % 19.07 C
3872 21-07-2016 10:35:00 19.9 C 95 % 19.07 C
3873 21-07-2016 10:40:00 20 C 95 % 19.17 C
3874 21-07-2016 10:45:00 20.1 C 95 % 19.27 C
3875 21-07-2016 10:50:00 20.1 C 95 % 19.27 C
Sensor: Nr:Datum:Temp:Feuchte:Taupunkt:
Aussen-T/F 3876 21-07-2016 10:55:00 20.2 C 95 % 19.37 C
<